Provisional Data: Lititz Run near Lititz, PA


Please select a monitoring station.
Please select start date.
Please select start date.

Toggle Unit: C/F Toggle Unit: C/F
Sample Time Temperature (C) Temperature (F) Specific Conductivity (mS/cm) pH   Turbidity (NTU+) DO (mg/L)
2/8/2023 12:00:00 AM 9.74 49.532 0.952 7.85 6.36 9.64
2/8/2023 12:15:00 AM 9.74 49.532 0.954 7.85 6.54 9.61
2/8/2023 12:30:00 AM 9.74 49.532 0.955 7.85 6.78 9.62
2/8/2023 12:45:00 AM 9.74 49.532 0.956 7.85 6.41 9.59
2/8/2023 1:00:00 AM 9.73 49.514 0.957 7.85 6.92 9.6
2/8/2023 1:15:00 AM 9.72 49.496 0.956 7.85 7.11 9.58
2/8/2023 1:30:00 AM 9.7 49.46 0.954 7.85 6.63 9.59
2/8/2023 1:45:00 AM 9.68 49.424 0.952 7.85 7.23 9.59
2/8/2023 2:00:00 AM 9.67 49.406 0.949 7.85 6.56 9.59
2/8/2023 2:15:00 AM 9.65 49.37 0.947 7.85 6.96 9.59
2/8/2023 2:30:00 AM 9.63 49.334 0.945 7.85 6.95 9.58
2/8/2023 2:45:00 AM 9.61 49.298 0.943 7.85 7.32 9.58
2/8/2023 3:00:00 AM 9.59 49.262 0.94 7.85 7.35 9.59
2/8/2023 3:15:00 AM 9.56 49.208 0.935 7.85 6.52 9.6
2/8/2023 3:30:00 AM 9.53 49.154 0.93 7.85 6.77 9.61
2/8/2023 3:45:00 AM 9.5 49.1 0.923 7.85 6.74 9.62
2/8/2023 4:00:00 AM 9.45 49.01 0.917 7.85 6.97 9.63
2/8/2023 4:15:00 AM 9.41 48.938 0.91 7.85 6.87 9.65
2/8/2023 4:30:00 AM 9.36 48.848 0.902 7.85 6.68 9.67
2/8/2023 4:45:00 AM 9.3 48.74 0.895 7.86 6.89 9.7
2/8/2023 5:00:00 AM 9.24 48.632 0.888 7.86 6.57 9.72
2/8/2023 5:15:00 AM 9.19 48.542 0.881 7.86 6.56 9.74
2/8/2023 5:30:00 AM 9.13 48.434 0.875 7.86 6.78 9.77
2/8/2023 5:45:00 AM 9.1 48.38 0.87 7.86 6.45 9.79
2/8/2023 6:00:00 AM 9.06 48.308 0.865 7.86 6.61 9.81
2/8/2023 6:15:00 AM 9.03 48.254 0.86 7.86 7.48 9.82
2/8/2023 6:30:00 AM 9.01 48.218 0.857 7.86 7.37 9.83
2/8/2023 6:45:00 AM 8.98 48.164 0.854 7.86 7.16 9.85
2/8/2023 7:00:00 AM 8.95 48.11 0.852 7.86 7.09 9.87
2/8/2023 7:15:00 AM 8.92 48.056 0.851 7.87 6.58 9.9
2/8/2023 7:30:00 AM 8.88 47.984 0.85 7.87 6.62 9.95
2/8/2023 7:45:00 AM 8.86 47.948 0.851 7.87 6.3 10.02
2/8/2023 8:00:00 AM 8.84 47.912 0.852 7.88 6.56 10.11
2/8/2023 8:15:00 AM 8.83 47.894 0.853 7.89 6.44 10.21
2/8/2023 8:30:00 AM 8.84 47.912 0.853 7.89 6.54 10.33
2/8/2023 8:45:00 AM 8.87 47.966 0.854 7.9 6.67 10.44
2/8/2023 9:00:00 AM 8.89 48.002 0.854 7.9 6.35 10.53
2/8/2023 9:15:00 AM 8.92 48.056 0.852 7.91 5.98 10.62
2/8/2023 9:30:00 AM 8.98 48.164 0.85 7.92 6.16 10.78
2/8/2023 9:45:00 AM 9.06 48.308 0.849 7.93 5.97 10.94
2/8/2023 10:00:00 AM 9.15 48.47 0.849 7.95 6.18 11.08
2/8/2023 10:15:00 AM 9.27 48.686 0.851 7.96 6.03 11.2
2/8/2023 10:30:00 AM 9.4 48.92 0.854 7.97 6.12 11.33
2/8/2023 10:45:00 AM 9.54 49.172 0.859 7.98 6.11 11.44
2/8/2023 11:00:00 AM 9.68 49.424 0.868 7.99 6.03 11.53
2/8/2023 11:15:00 AM 9.85 49.73 0.881 8 5.7 11.65
2/8/2023 11:30:00 AM 10.04 50.072 0.896 8.01 5.67 11.76
2/8/2023 11:45:00 AM 10.23 50.414 0.914 8.02 5.56 11.85
2/8/2023 12:00:00 PM 10.42 50.756 0.93 8.03 5.59 11.92
2/8/2023 12:15:00 PM 10.6 51.08 0.941 8.04 5.66 12.01
2/8/2023 12:30:00 PM 10.75 51.35 0.948 8.05 5.62 12.06
2/8/2023 12:45:00 PM 10.89 51.602 0.953 8.06 5.52 12.12
2/8/2023 1:00:00 PM 11.03 51.854 0.959 8.07 5.41 12.17
2/8/2023 1:15:00 PM 11.17 52.106 0.967 8.07 5.53 12.22
2/8/2023 1:30:00 PM 11.31 52.358 0.974 8.08 5.59 12.25
2/8/2023 1:45:00 PM 11.46 52.628 0.978 8.09 5.57 12.27
2/8/2023 2:00:00 PM 11.59 52.862 0.977 8.1 5.55 12.28
2/8/2023 2:15:00 PM 11.67 53.006 0.971 8.11 5.71 12.28
2/8/2023 2:30:00 PM 11.73 53.114 0.964 8.11 5.63 12.25
2/8/2023 2:45:00 PM 11.76 53.168 0.958 8.12 5.52 12.21
2/8/2023 3:00:00 PM 11.77 53.186 0.954 8.12 5.8 12.12
2/8/2023 3:15:00 PM 11.78 53.204 0.95 8.11 5.6 12.03
2/8/2023 3:30:00 PM 11.78 53.204 0.948 8.11 5.98 11.91
2/8/2023 3:45:00 PM 11.76 53.168 0.945 8.1 5.8 11.76
2/8/2023 4:00:00 PM 11.75 53.15 0.942 8.09 6.13 11.63
2/8/2023 4:15:00 PM 11.75 53.15 0.941 8.08 6.29 11.46
2/8/2023 4:30:00 PM 11.72 53.096 0.943 8.07 6.22 11.3
2/8/2023 4:45:00 PM 11.72 53.096 0.945 8.06 6.27 11.18
2/8/2023 5:00:00 PM 11.72 53.096 0.946 8.05 5.9 11.05
2/8/2023 5:15:00 PM 11.71 53.078 0.944 8.04 5.69 10.9
2/8/2023 5:30:00 PM 11.69 53.042 0.942 8.03 5.65 10.75
2/8/2023 5:45:00 PM 11.66 52.988 0.94 8.02 5.96 10.61
2/8/2023 6:00:00 PM 11.62 52.916 0.939 8.01 6.17 10.5
2/8/2023 6:15:00 PM 11.57 52.826 0.938 8 6.22 10.4
2/8/2023 6:30:00 PM 11.51 52.718 0.936 7.99 6.43 10.32
2/8/2023 6:45:00 PM 11.45 52.61 0.934 7.98 6.3 10.23
2/8/2023 7:00:00 PM 11.37 52.466 0.933 7.97 6.08 10.15
2/8/2023 7:15:00 PM 11.29 52.322 0.932 7.96 6.47 10.07
2/8/2023 7:30:00 PM 11.19 52.142 0.931 7.96 6.37 9.99
2/8/2023 7:45:00 PM 11.09 51.962 0.93 7.95 6.65 9.93
2/8/2023 8:00:00 PM 11 51.8 0.929 7.94 6.89 9.87
2/8/2023 8:15:00 PM 10.91 51.638 0.928 7.93 6.69 9.81
2/8/2023 8:30:00 PM 10.81 51.458 0.928 7.92 6.91 9.76
2/8/2023 8:45:00 PM 10.71 51.278 0.928 7.91 7.73 9.72
2/8/2023 9:00:00 PM 10.62 51.116 0.928 7.91 6.96 9.68
2/8/2023 9:15:00 PM 10.53 50.954 0.928 7.9 6.97 9.64
2/8/2023 9:30:00 PM 10.44 50.792 0.928 7.89 7.43 9.61
2/8/2023 9:45:00 PM 10.35 50.63 0.93 7.89 7.35 9.59
2/8/2023 10:00:00 PM 10.26 50.468 0.932 7.88 6.76 9.57
2/8/2023 10:15:00 PM 10.18 50.324 0.935 7.88 6.83 9.56
2/8/2023 10:30:00 PM 10.1 50.18 0.938 7.87 7.29 9.56
2/8/2023 10:45:00 PM 10.02 50.036 0.943 7.87 7.06 9.55
2/8/2023 11:00:00 PM 9.95 49.91 0.948 7.86 6.48 9.56
2/8/2023 11:15:00 PM 9.87 49.766 0.952 7.86 7.01 9.56
2/8/2023 11:30:00 PM 9.8 49.64 0.955 7.86 7.27 9.56
2/8/2023 11:45:00 PM 9.74 49.532 0.956 7.86 6.85 9.57
2/9/2023 12:00:00 AM 9.68 49.424 0.956 7.85 6.92 9.57
2/9/2023 12:15:00 AM 9.61 49.298 0.956 7.85 6.76 9.58
2/9/2023 12:30:00 AM 9.55 49.19 0.956 7.85 7.1 9.6
2/9/2023 12:45:00 AM 9.5 49.1 0.956 7.85 6.43 9.62
2/9/2023 1:00:00 AM 9.44 48.992 0.955 7.85 6.62 9.63
2/9/2023 1:15:00 AM 9.38 48.884 0.952 7.85 6.45 9.65
2/9/2023 1:30:00 AM 9.34 48.812 0.95 7.85 6.88 9.67
2/9/2023 1:45:00 AM 9.29 48.722 0.946 7.85 6.11 9.69
2/9/2023 2:00:00 AM 9.25 48.65 0.942 7.85 6.62 9.71
2/9/2023 2:15:00 AM 9.22 48.596 0.938 7.84 6.19 9.73
2/9/2023 2:30:00 AM 9.19 48.542 0.934 7.84 6.71 9.75
2/9/2023 2:45:00 AM 9.17 48.506 0.931 7.84 6.63 9.76
2/9/2023 3:00:00 AM 9.14 48.452 0.926 7.85 6.24 9.78
2/9/2023 3:15:00 AM 9.12 48.416 0.921 7.85 6.57 9.79
2/9/2023 3:30:00 AM 9.1 48.38 0.916 7.85 6.31 9.81
2/9/2023 3:45:00 AM 9.08 48.344 0.91 7.85 6.19 9.83
2/9/2023 4:00:00 AM 9.05 48.29 0.904 7.85 6.03 9.85
2/9/2023 4:15:00 AM 9.03 48.254 0.898 7.85 6.33 9.87
2/9/2023 4:30:00 AM 9.01 48.218 0.892 7.85 6.04 9.89
2/9/2023 4:45:00 AM 8.99 48.182 0.886 7.86 6.08 9.91
2/9/2023 5:00:00 AM 8.98 48.164 0.88 7.86 6.14 9.93
2/9/2023 5:15:00 AM 8.97 48.146 0.875 7.86 6.16 9.94
2/9/2023 5:30:00 AM 8.96 48.128 0.87 7.86 6.5 9.96
2/9/2023 5:45:00 AM 8.96 48.128 0.864 7.86 6.27 9.97
2/9/2023 6:00:00 AM 8.96 48.128 0.858 7.86 6.63 9.99
2/9/2023 6:15:00 AM 8.97 48.146 0.854 7.87 6.77 10.01
2/9/2023 6:30:00 AM 8.97 48.146 0.851 7.87 6.98 10.01
2/9/2023 6:45:00 AM 8.98 48.164 0.848 7.87 6.8 10.02
2/9/2023 7:00:00 AM 8.99 48.182 0.846 7.87 6.93 10.03
2/9/2023 7:15:00 AM 9.01 48.218 0.845 7.87 6.73 10.04
2/9/2023 7:30:00 AM 9.02 48.236 0.843 7.87 6.55 10.05
2/9/2023 7:45:00 AM 9.04 48.272 0.843 7.88 6.83 10.07
2/9/2023 8:00:00 AM 9.07 48.326 0.843 7.88 6.55 10.1
2/9/2023 8:15:00 AM -99999.99 -179968 -99999.99 -99999.99 -99999.99 -99999.99
2/9/2023 8:30:00 AM 9.14 48.452 0.844 7.89 7.98 10.17
2/9/2023 8:45:00 AM 9.18 48.524 0.843 7.89 6.82 10.21
2/9/2023 9:00:00 AM 9.22 48.596 0.842 7.89 6.52 10.25
2/9/2023 9:15:00 AM 9.27 48.686 0.841 7.9 6.18 10.32
2/9/2023 9:30:00 AM 9.32 48.776 0.84 7.9 6.13 10.33
2/9/2023 9:45:00 AM 9.37 48.866 0.838 7.9 5.77 10.43
2/9/2023 10:00:00 AM 9.43 48.974 0.836 7.91 6.39 10.54
2/9/2023 10:15:00 AM 9.5 49.1 0.836 7.92 7.62 10.6
2/9/2023 10:30:00 AM 9.57 49.226 0.838 7.93 7.4 10.7
2/9/2023 10:45:00 AM 9.66 49.388 0.842 7.94 6.96 10.82
2/9/2023 11:00:00 AM 9.74 49.532 0.847 7.95 6.63 10.91
2/9/2023 11:15:00 AM 9.85 49.73 0.854 7.96 6.1 11.06
2/9/2023 11:30:00 AM 9.97 49.946 0.863 7.97 5.71 11.17
2/9/2023 11:45:00 AM 10.08 50.144 0.874 7.98 5.91 11.22
2/9/2023 12:00:00 PM 10.21 50.378 0.885 7.98 6.34 11.31
2/9/2023 12:15:00 PM 10.41 50.738 0.895 8 6.63 11.55
2/9/2023 12:30:00 PM 10.55 50.99 0.903 8.02 6.31 11.66
2/9/2023 12:45:00 PM 10.7 51.26 0.908 8.03 5.86 11.76
2/9/2023 1:00:00 PM 10.84 51.512 0.911 8.04 6.11 11.87
2/9/2023 1:15:00 PM 10.98 51.764 0.91 8.06 5.85 12
2/9/2023 1:30:00 PM 11.08 51.944 0.909 8.07 5.81 12.05
2/9/2023 1:45:00 PM 11.19 52.142 0.907 8.08 6.01 12.11
2/9/2023 2:00:00 PM 11.29 52.322 0.905 8.09 5.99 12.17
2/9/2023 2:15:00 PM 11.38 52.484 0.904 8.1 6.33 12.22
2/9/2023 2:30:00 PM 11.52 52.736 0.903 8.12 6.35 12.31
2/9/2023 2:45:00 PM 11.63 52.934 0.902 8.12 6.62 12.34
2/9/2023 3:00:00 PM 11.72 53.096 0.9 8.13 6.55 12.3
2/9/2023 3:15:00 PM 11.79 53.222 0.899 8.13 7.48 12.2
2/9/2023 3:30:00 PM 11.85 53.33 0.899 8.13 6.7 12.15
2/9/2023 3:45:00 PM 11.91 53.438 0.9 8.13 5.99 12.08
2/9/2023 4:00:00 PM 11.95 53.51 0.904 8.13 6.03 11.97
2/9/2023 4:15:00 PM 11.98 53.564 0.91 8.11 5.74 11.76
2/9/2023 4:30:00 PM 12.01 53.618 0.915 8.1 5.58 11.58
2/9/2023 4:45:00 PM 12.05 53.69 0.918 8.09 5.89 11.44
2/9/2023 5:00:00 PM 12.08 53.744 0.916 8.08 6.25 11.27
2/9/2023 5:15:00 PM 12.11 53.798 0.911 8.07 6.22 11.1
2/9/2023 5:30:00 PM 12.12 53.816 0.904 8.06 6.05 10.94
2/9/2023 5:45:00 PM 12.13 53.834 0.899 8.05 5.91 10.8
2/9/2023 6:00:00 PM 12.13 53.834 0.896 8.04 6.19 10.65
2/9/2023 6:15:00 PM 12.12 53.816 0.895 8.02 6.04 10.51
2/9/2023 6:30:00 PM 12.1 53.78 0.895 8.01 6.92 10.38
2/9/2023 6:45:00 PM 12.09 53.762 0.894 8 6.41 10.26
2/9/2023 7:00:00 PM 12.06 53.708 0.896 7.99 6.48 10.16
2/9/2023 7:15:00 PM 12.04 53.672 0.899 7.98 6.61 10.05
2/9/2023 7:30:00 PM 12.01 53.618 0.904 7.97 6.55 9.94
2/9/2023 7:45:00 PM 11.98 53.564 0.91 7.95 6.47 9.85
2/9/2023 8:00:00 PM 11.96 53.528 0.913 7.94 6.82 9.76
2/9/2023 8:15:00 PM 11.93 53.474 0.911 7.93 6.71 9.68
2/9/2023 8:30:00 PM 11.9 53.42 0.904 7.93 6.67 9.61
2/9/2023 8:45:00 PM 11.88 53.384 0.897 7.92 6.64 9.55
2/9/2023 9:00:00 PM 11.85 53.33 0.892 7.91 6.48 9.49
2/9/2023 9:15:00 PM 11.81 53.258 0.891 7.91 6.87 9.45
2/9/2023 9:30:00 PM 11.77 53.186 0.893 7.9 6.84 9.4
2/9/2023 9:45:00 PM 11.74 53.132 0.896 7.9 6.95 9.36
2/9/2023 10:00:00 PM 11.7 53.06 0.899 7.89 7.1 9.32
2/9/2023 10:15:00 PM 11.68 53.024 0.904 7.88 6.6 9.28
2/9/2023 10:30:00 PM 11.66 52.988 0.908 7.88 6.71 9.26
2/9/2023 10:45:00 PM 11.64 52.952 0.914 7.87 7.07 9.23
2/9/2023 11:00:00 PM 11.62 52.916 0.921 7.87 6.92 9.2
2/9/2023 11:15:00 PM 11.61 52.898 0.928 7.86 7.07 9.18
2/9/2023 11:30:00 PM 11.6 52.88 0.932 7.86 7.16 9.15
2/9/2023 11:45:00 PM 11.59 52.862 0.933 7.86 6.84 9.14
2/10/2023 12:00:00 AM 11.58 52.844 0.936 7.86 6.91 9.12
2/10/2023 12:15:00 AM 11.57 52.826 0.941 7.85 6.93 9.12
2/10/2023 12:30:00 AM 11.56 52.808 0.95 7.85 6.79 9.09
2/10/2023 12:45:00 AM 11.55 52.79 0.958 7.85 6.87 9.07
2/10/2023 1:00:00 AM 11.53 52.754 0.963 7.85 6.64 9.05
2/10/2023 1:15:00 AM 11.51 52.718 0.965 7.85 6.93 9.04
2/10/2023 1:30:00 AM 11.49 52.682 0.965 7.85 6.66 9.03
2/10/2023 1:45:00 AM 11.47 52.646 0.966 7.85 6.48 9.03
2/10/2023 2:00:00 AM 11.45 52.61 0.966 7.85 6.08 9.02
2/10/2023 2:15:00 AM 11.43 52.574 0.965 7.85 6.41 9.03
2/10/2023 2:30:00 AM 11.4 52.52 0.964 7.85 6.65 9.04
2/10/2023 2:45:00 AM 11.37 52.466 0.964 7.85 6.45 9.03
2/10/2023 3:00:00 AM 11.34 52.412 0.962 7.85 6.28 9.04
2/10/2023 3:15:00 AM 11.3 52.34 0.96 7.85 6.18 9.04
2/10/2023 3:30:00 AM 11.26 52.268 0.957 7.85 6.39 9.05
2/10/2023 3:45:00 AM 11.23 52.214 0.954 7.85 5.94 9.05
2/10/2023 4:00:00 AM 11.19 52.142 0.951 7.85 6.17 9.07
2/10/2023 4:15:00 AM 11.15 52.07 0.947 7.85 6.12 9.07
2/10/2023 4:30:00 AM 11.1 51.98 0.942 7.86 6.26 9.1
2/10/2023 4:45:00 AM 11.06 51.908 0.935 7.86 6.24 9.12
2/10/2023 5:00:00 AM 11.01 51.818 0.928 7.86 6.45 9.14
2/10/2023 5:15:00 AM 10.96 51.728 0.921 7.86 6.43 9.16
2/10/2023 5:30:00 AM 10.92 51.656 0.914 7.86 6.56 9.19
2/10/2023 5:45:00 AM 10.88 51.584 0.909 7.86 6.51 9.21
2/10/2023 6:00:00 AM 10.83 51.494 0.904 7.87 6.65 9.23
2/10/2023 6:15:00 AM 10.79 51.422 0.899 7.87 6.67 9.27
2/10/2023 6:30:00 AM 10.74 51.332 0.895 7.87 6.42 9.28
2/10/2023 6:45:00 AM 10.71 51.278 0.893 7.87 6.63 9.31
2/10/2023 7:00:00 AM 10.68 51.224 0.89 7.87 6.76 9.33
2/10/2023 7:15:00 AM 10.65 51.17 0.887 7.87 6.48 9.37
2/10/2023 7:30:00 AM 10.63 51.134 0.886 7.88 6.76 9.42
2/10/2023 7:45:00 AM 10.61 51.098 0.886 7.88 6.64 9.48
2/10/2023 8:00:00 AM 10.6 51.08 0.888 7.89 6.55 9.56
2/10/2023 8:15:00 AM -99999.99 -179968 -99999.99 -99999.99 -99999.99 -99999.99
2/10/2023 8:30:00 AM 10.58 51.044 0.889 7.9 6.31 9.75
2/10/2023 8:45:00 AM 10.58 51.044 0.888 7.91 6.04 9.88
2/10/2023 9:00:00 AM 10.59 51.062 0.886 7.92 6.1 10.03
2/10/2023 9:15:00 AM 10.61 51.098 0.883 7.93 5.83 10.22
2/10/2023 9:30:00 AM 10.66 51.188 0.881 7.95 6.1 10.41
2/10/2023 9:45:00 AM 10.73 51.314 0.881 7.96 5.91 10.6
2/10/2023 10:00:00 AM 10.8 51.44 0.881 7.98 5.9 10.77
2/10/2023 10:15:00 AM 10.9 51.62 0.88 7.99 6.18 10.97
2/10/2023 10:30:00 AM 11 51.8 0.881 8.01 5.9 11.14
2/10/2023 10:45:00 AM 11.09 51.962 0.884 8.02 5.99 11.29
2/10/2023 11:00:00 AM 11.18 52.124 0.889 8.03 6.38 11.41
2/10/2023 11:15:00 AM 11.29 52.322 0.896 8.05 6.12 11.56
2/10/2023 11:30:00 AM 11.4 52.52 0.906 8.06 6.2 11.71
2/10/2023 11:45:00 AM 11.51 52.718 0.919 8.08 6.1 11.85
2/10/2023 12:00:00 PM 11.65 52.97 0.934 8.09 6.25 11.99
2/10/2023 12:15:00 PM 11.79 53.222 0.949 8.1 6.07 12.11
2/10/2023 12:30:00 PM 11.91 53.438 0.962 8.12 5.93 12.2
2/10/2023 12:45:00 PM 12.04 53.672 0.971 8.13 6.32 12.28
2/10/2023 1:00:00 PM 12.14 53.852 0.975 8.14 6.6 12.35
2/10/2023 1:15:00 PM 12.22 53.996 0.978 8.15 6.04 12.41
2/10/2023 1:30:00 PM 12.3 54.14 0.978 8.16 6.12 12.45
2/10/2023 1:45:00 PM 12.38 54.284 0.976 8.18 6.42 12.52
2/10/2023 2:00:00 PM 12.44 54.392 0.973 8.19 6.4 12.58
2/10/2023 2:15:00 PM 12.5 54.5 0.97 8.2 6.03 12.59
2/10/2023 2:30:00 PM 12.55 54.59 0.969 8.2 5.89 12.6
2/10/2023 2:45:00 PM 12.57 54.626 0.968 8.21 5.96 12.54
2/10/2023 3:00:00 PM 12.58 54.644 0.967 8.21 6.05 12.5
2/10/2023 3:15:00 PM 12.54 54.572 0.965 8.21 5.86 12.41
2/10/2023 3:30:00 PM 12.49 54.482 0.964 8.2 5.96 12.27
2/10/2023 3:45:00 PM 12.42 54.356 0.962 8.19 5.93 12.12
2/10/2023 4:00:00 PM 12.38 54.284 0.961 8.18 5.93 11.99
2/10/2023 4:15:00 PM 12.32 54.176 0.96 8.17 5.96 11.85
2/10/2023 4:30:00 PM 12.26 54.068 0.959 8.16 5.96 11.67
2/10/2023 4:45:00 PM 12.18 53.924 0.96 8.14 5.82 11.43
2/10/2023 5:00:00 PM 12.1 53.78 0.961 8.12 6.12 11.23
2/10/2023 5:15:00 PM 12.04 53.672 0.962 8.11 6.19 11.07
2/10/2023 5:30:00 PM 11.98 53.564 0.962 8.09 6.31 10.9
2/10/2023 5:45:00 PM 11.93 53.474 0.962 8.08 5.95 10.75
2/10/2023 6:00:00 PM 11.89 53.402 0.961 8.06 6.09 10.62
2/10/2023 6:15:00 PM 11.84 53.312 0.96 8.05 6.69 10.52
2/10/2023 6:30:00 PM 11.79 53.222 0.96 8.04 6.61 10.42
2/10/2023 6:45:00 PM 11.76 53.168 0.96 8.03 6.62 10.33
2/10/2023 7:00:00 PM 11.72 53.096 0.961 8.02 6.37 10.25
2/10/2023 7:15:00 PM 11.67 53.006 0.961 8.01 6.45 10.17
2/10/2023 7:30:00 PM 11.63 52.934 0.96 8 6.29 10.09
2/10/2023 7:45:00 PM 11.58 52.844 0.96 7.99 6.11 10.01
2/10/2023 8:00:00 PM 11.52 52.736 0.961 7.98 6.15 9.94
2/10/2023 8:15:00 PM 11.46 52.628 0.962 7.97 6.3 9.87
2/10/2023 8:30:00 PM 11.39 52.502 0.963 7.96 6.37 9.81
2/10/2023 8:45:00 PM 11.31 52.358 0.966 7.95 6.49 9.75
2/10/2023 9:00:00 PM 11.23 52.214 0.971 7.94 6.4 9.7
2/10/2023 9:15:00 PM 11.16 52.088 0.977 7.93 6.56 9.66
2/10/2023 9:30:00 PM 11.08 51.944 0.98 7.93 6.99 9.63
2/10/2023 9:45:00 PM 11 51.8 0.979 7.92 6.76 9.6
2/10/2023 10:00:00 PM 10.93 51.674 0.976 7.91 6.69 9.58
2/10/2023 10:15:00 PM 10.85 51.53 0.971 7.91 6.67 9.57
2/10/2023 10:30:00 PM 10.78 51.404 0.968 7.91 7.75 9.57
2/10/2023 10:45:00 PM 10.71 51.278 0.967 7.9 6.98 9.57
2/10/2023 11:00:00 PM 10.63 51.134 0.967 7.9 7.02 9.58
2/10/2023 11:15:00 PM 10.56 51.008 0.969 7.89 7.3 9.58
2/10/2023 11:30:00 PM 10.48 50.864 0.97 7.89 7.41 9.58
2/10/2023 11:45:00 PM 10.4 50.72 0.972 7.89 7.79 9.6
2/11/2023 12:00:00 AM 10.33 50.594 0.972 7.89 7.68 9.61
2/11/2023 12:15:00 AM 10.25 50.45 0.972 7.88 7.36 9.62
2/11/2023 12:30:00 AM 10.17 50.306 0.971 7.87 7.06 9.64
2/11/2023 12:45:00 AM 10.09 50.162 0.969 7.87 7.03 9.65
2/11/2023 1:00:00 AM 10.02 50.036 0.967 7.87 7.24 9.67
2/11/2023 1:15:00 AM 9.96 49.928 0.965 7.87 6.7 9.69
2/11/2023 1:30:00 AM 9.89 49.802 0.964 7.87 7.04 9.71
2/11/2023 1:45:00 AM 9.84 49.712 0.962 7.87 6.7 9.72
2/11/2023 2:00:00 AM 9.78 49.604 0.961 7.87 7.17 9.74
2/11/2023 2:15:00 AM 9.74 49.532 0.958 7.88 7.26 9.75
2/11/2023 2:30:00 AM 9.69 49.442 0.955 7.88 6.81 9.77
2/11/2023 2:45:00 AM 9.65 49.37 0.952 7.88 6.74 9.79
2/11/2023 3:00:00 AM 9.61 49.298 0.95 7.88 6.35 9.81
2/11/2023 3:15:00 AM 9.56 49.208 0.948 7.88 6.37 9.83
2/11/2023 3:30:00 AM 9.51 49.118 0.947 7.88 6.32 9.86
2/11/2023 3:45:00 AM 9.47 49.046 0.945 7.88 6.19 9.87
2/11/2023 4:00:00 AM 9.42 48.956 0.943 7.88 6.23 9.89
2/11/2023 4:15:00 AM 9.37 48.866 0.941 7.88 6.32 9.91
2/11/2023 4:30:00 AM 9.31 48.758 0.938 7.89 6.31 9.93
2/11/2023 4:45:00 AM 9.26 48.668 0.934 7.89 6.28 9.95
2/11/2023 5:00:00 AM 9.18 48.524 0.929 7.89 6.65 9.98
2/11/2023 5:15:00 AM 9.12 48.416 0.924 7.89 6.44 10.01
2/11/2023 5:30:00 AM 9.06 48.308 0.919 7.89 6.57 10.04
2/11/2023 5:45:00 AM 8.99 48.182 0.915 7.89 6.42 10.07
2/11/2023 6:00:00 AM 8.93 48.074 0.911 7.9 6.8 10.09
2/11/2023 6:15:00 AM 8.87 47.966 0.907 7.9 7.36 10.12
2/11/2023 6:30:00 AM 8.81 47.858 0.904 7.9 6.99 10.15
2/11/2023 6:45:00 AM 8.76 47.768 0.902 7.9 6.36 10.17
2/11/2023 7:00:00 AM 8.72 47.696 0.901 7.9 6.61 10.2
2/11/2023 7:15:00 AM 8.68 47.624 0.899 7.9 6.56 10.23
2/11/2023 7:30:00 AM 8.64 47.552 0.898 7.91 6.53 10.29
2/11/2023 7:45:00 AM 8.6 47.48 0.898 7.92 6.53 10.37
2/11/2023 8:00:00 AM 8.58 47.444 0.899 7.92 6.9 10.45
2/11/2023 8:15:00 AM -99999.99 -179968 -99999.99 -99999.99 -99999.99 -99999.99
2/11/2023 8:30:00 AM 8.54 47.372 0.898 7.94 6.45 10.64
2/11/2023 8:45:00 AM 8.53 47.354 0.897 7.94 6.46 10.77
2/11/2023 9:00:00 AM 8.55 47.39 0.895 7.96 6.43 10.93
2/11/2023 9:15:00 AM 8.57 47.426 0.893 7.97 6.27 11.11
2/11/2023 9:30:00 AM 8.62 47.516 0.89 7.99 6.33 11.29
2/11/2023 9:45:00 AM 8.68 47.624 0.888 8.01 6.33 11.49
2/11/2023 10:00:00 AM 8.76 47.768 0.885 8.02 7.02 11.65
2/11/2023 10:15:00 AM 8.86 47.948 0.881 8.04 6.34 11.83
2/11/2023 10:30:00 AM 8.97 48.146 0.878 8.06 6.21 11.98
2/11/2023 10:45:00 AM 9.07 48.326 0.876 8.07 6.26 12.12
2/11/2023 11:00:00 AM 9.2 48.56 0.875 8.09 6.03 12.25
2/11/2023 11:15:00 AM 9.33 48.794 0.876 8.1 5.9 12.37
2/11/2023 11:30:00 AM 9.46 49.028 0.878 8.12 6.12 12.48
2/11/2023 11:45:00 AM 9.6 49.28 0.883 8.13 5.79 12.59
2/11/2023 12:00:00 PM 9.75 49.55 0.89 8.14 6 12.68
2/11/2023 12:15:00 PM 9.91 49.838 0.898 8.15 5.77 12.79
2/11/2023 12:30:00 PM 10.06 50.108 0.907 8.16 6.28 12.86
2/11/2023 12:45:00 PM 10.22 50.396 0.919 8.17 6.08 12.93
2/11/2023 1:00:00 PM 10.37 50.666 0.931 8.18 6.14 12.98
2/11/2023 1:15:00 PM 10.53 50.954 0.945 8.19 6.35 13.02
2/11/2023 1:30:00 PM 10.68 51.224 0.961 8.19 6.3 13.04
2/11/2023 1:45:00 PM 10.83 51.494 0.975 8.2 6.33 13.05
2/11/2023 2:00:00 PM 10.95 51.71 0.987 8.21 6.16 13.05
2/11/2023 2:15:00 PM 11.05 51.89 0.996 8.21 5.89 13.03
2/11/2023 2:30:00 PM 11.11 51.998 1.002 8.21 6.16 12.97
2/11/2023 2:45:00 PM 11.14 52.052 1.005 8.21 6.07 12.89
2/11/2023 3:00:00 PM 11.18 52.124 1.007 8.21 6.25 12.84
2/11/2023 3:15:00 PM 11.18 52.124 1.008 8.2 6.27 12.71
2/11/2023 3:30:00 PM 11.17 52.106 1.008 8.19 6.24 12.6
2/11/2023 3:45:00 PM 11.18 52.124 1.007 8.18 6.19 12.44
2/11/2023 4:00:00 PM 11.19 52.142 1.006 8.17 5.93 12.3
2/11/2023 4:15:00 PM 11.19 52.142 1.006 8.16 6.34 12.14
2/11/2023 4:30:00 PM 11.2 52.16 1.005 8.15 6.16 12.01
2/11/2023 4:45:00 PM 11.19 52.142 1.004 8.14 6.25 11.85
2/11/2023 5:00:00 PM 11.17 52.106 1.002 8.13 6.28 11.68
2/11/2023 5:15:00 PM 11.16 52.088 1.002 8.11 6.49 11.52
2/11/2023 5:30:00 PM 11.13 52.034 1.002 8.1 6.08 11.36
2/11/2023 5:45:00 PM 11.09 51.962 1.002 8.09 6.2 11.19
2/11/2023 6:00:00 PM 11.04 51.872 1 8.07 6.82 11.04
2/11/2023 6:15:00 PM 10.98 51.764 0.998 8.06 6.77 10.92
2/11/2023 6:30:00 PM 10.92 51.656 0.996 8.05 6.61 10.81
2/11/2023 6:45:00 PM 10.86 51.548 0.994 8.04 6.47 10.71
2/11/2023 7:00:00 PM 10.79 51.422 0.993 8.03 6.69 10.62
2/11/2023 7:15:00 PM 10.72 51.296 0.991 8.02 6.58 10.54
2/11/2023 7:30:00 PM 10.64 51.152 0.989 8.01 6.43 10.46
2/11/2023 7:45:00 PM 10.56 51.008 0.989 8 6.4 10.39
2/11/2023 8:00:00 PM 10.49 50.882 0.989 7.99 6.47 10.32
2/11/2023 8:15:00 PM 10.42 50.756 0.992 7.98 6.4 10.25
2/11/2023 8:30:00 PM 10.34 50.612 0.994 7.97 6.48 10.19
2/11/2023 8:45:00 PM 10.27 50.486 0.995 7.96 6.61 10.13
2/11/2023 9:00:00 PM 10.18 50.324 0.995 7.95 6.77 10.07
2/11/2023 9:15:00 PM 10.1 50.18 0.996 7.94 6.68 10.02
2/11/2023 9:30:00 PM 10.02 50.036 0.997 7.93 6.72 9.98
2/11/2023 9:45:00 PM 9.94 49.892 0.999 7.93 6.48 9.96
2/11/2023 10:00:00 PM 9.87 49.766 1.002 7.92 6.55 9.92
2/11/2023 10:15:00 PM 9.8 49.64 1.004 7.91 6.69 9.9
2/11/2023 10:30:00 PM 9.73 49.514 1.004 7.91 6.68 9.9
2/11/2023 10:45:00 PM 9.66 49.388 1.005 7.9 6.91 9.88
2/11/2023 11:00:00 PM 9.6 49.28 1.005 7.9 6.99 9.88
2/11/2023 11:15:00 PM 9.54 49.172 1.006 7.89 7.17 9.87
2/11/2023 11:30:00 PM 9.49 49.082 1.007 7.89 7.7 9.86
2/11/2023 11:45:00 PM 9.43 48.974 1.008 7.89 7.73 9.86
2/12/2023 12:00:00 AM 9.38 48.884 1.009 7.88 7.46 9.87
2/12/2023 12:15:00 AM 9.34 48.812 1.009 7.88 7.06 9.87
2/12/2023 12:30:00 AM 9.29 48.722 1.009 7.88 6.68 9.88
2/12/2023 12:45:00 AM 9.24 48.632 1.009 7.88 6.67 9.89
2/12/2023 1:00:00 AM 9.19 48.542 1.009 7.88 6.46 9.89
2/12/2023 1:15:00 AM 9.14 48.452 1.007 7.87 6.84 9.89
2/12/2023 1:30:00 AM 9.09 48.362 1.004 7.87 6.58 9.91
2/12/2023 1:45:00 AM 9.04 48.272 1 7.87 6.91 9.92
2/12/2023 2:00:00 AM 9 48.2 0.997 7.87 6.66 9.93
2/12/2023 2:15:00 AM 8.96 48.128 0.993 7.87 6.77 9.94
2/12/2023 2:30:00 AM 8.92 48.056 0.989 7.87 6.85 9.96
2/12/2023 2:45:00 AM 8.88 47.984 0.985 7.87 6.83 9.97
2/12/2023 3:00:00 AM 8.85 47.93 0.98 7.87 6.83 9.99
2/12/2023 3:15:00 AM 8.82 47.876 0.976 7.87 7.04 10
2/12/2023 3:30:00 AM 8.78 47.804 0.972 7.87 7.19 10.01
2/12/2023 3:45:00 AM 8.75 47.75 0.968 7.87 7.33 10.03
2/12/2023 4:00:00 AM 8.71 47.678 0.964 7.87 7.91 10.04
2/12/2023 4:15:00 AM 8.68 47.624 0.961 7.87 7.8 10.05
2/12/2023 4:30:00 AM 8.64 47.552 0.956 7.88 8.17 10.07
2/12/2023 4:45:00 AM 8.61 47.498 0.951 7.88 8.19 10.08
2/12/2023 5:00:00 AM 8.58 47.444 0.946 7.88 7.98 10.11
2/12/2023 5:15:00 AM 8.55 47.39 0.941 7.88 7.61 10.12
2/12/2023 5:30:00 AM 8.52 47.336 0.937 7.88 7.83 10.14
2/12/2023 5:45:00 AM 8.49 47.282 0.932 7.88 7.5 10.15
2/12/2023 6:00:00 AM 8.47 47.246 0.926 7.88 7.23 10.17
2/12/2023 6:15:00 AM 8.44 47.192 0.919 7.89 7 10.19
2/12/2023 6:30:00 AM 8.42 47.156 0.913 7.89 7.24 10.21
2/12/2023 6:45:00 AM 8.39 47.102 0.908 7.89 7.28 10.22
2/12/2023 7:00:00 AM 8.37 47.066 0.905 7.89 6.95 10.24
2/12/2023 7:15:00 AM 8.35 47.03 0.902 7.89 7.65 10.27
2/12/2023 7:30:00 AM 8.33 46.994 0.899 7.9 6.73 10.33
2/12/2023 7:45:00 AM 8.32 46.976 0.897 7.9 6.94 10.4
2/12/2023 8:00:00 AM 8.32 46.976 0.895 7.91 7.09 10.51
2/12/2023 8:15:00 AM -99999.99 -179968 -99999.99 -99999.99 -99999.99 -99999.99
2/12/2023 8:30:00 AM -99999.99 -179968 -99999.99 -99999.99 -99999.99 -99999.99
2/12/2023 8:45:00 AM 8.38 47.084 0.892 7.94 7.54 10.86
2/12/2023 9:00:00 AM 8.41 47.138 0.891 7.95 6.84 10.99
2/12/2023 9:15:00 AM 8.45 47.21 0.889 7.96 6.73 11.14
2/12/2023 9:30:00 AM 8.5 47.3 0.886 7.98 7.09 11.26
2/12/2023 9:45:00 AM 8.56 47.408 0.884 7.99 6.82 11.39
2/12/2023 10:00:00 AM 8.62 47.516 0.881 8 6.55 11.53
2/12/2023 10:15:00 AM 8.68 47.624 0.878 8.02 6.9 11.66
2/12/2023 10:30:00 AM 8.76 47.768 0.875 8.03 6.64 11.81
2/12/2023 10:45:00 AM 8.84 47.912 0.873 8.05 6.51 11.94
2/12/2023 11:00:00 AM 8.92 48.056 0.872 8.06 6.78 12.07
2/12/2023 11:15:00 AM 9.01 48.218 0.871 8.07 6.92 12.17
2/12/2023 11:30:00 AM 9.1 48.38 0.872 8.09 7.01 12.26
2/12/2023 11:45:00 AM 9.19 48.542 0.876 8.1 7.08 12.35
2/12/2023 12:00:00 PM 9.27 48.686 0.882 8.11 7.12 12.37
2/12/2023 12:15:00 PM 9.36 48.848 0.889 8.11 6.56 12.41
2/12/2023 12:30:00 PM 9.44 48.992 0.897 8.12 6.6 12.44
2/12/2023 12:45:00 PM 9.54 49.172 0.907 8.13 6.03 12.5
2/12/2023 1:00:00 PM 9.64 49.352 0.918 8.13 6.08 12.53
2/12/2023 1:15:00 PM 9.74 49.532 0.931 8.14 5.82 12.53
2/12/2023 1:30:00 PM 9.83 49.694 0.944 8.14 5.8 12.54
2/12/2023 1:45:00 PM 9.93 49.874 0.954 8.15 5.54 12.58
2/12/2023 2:00:00 PM 10.04 50.072 0.963 8.15 5.63 12.6
2/12/2023 2:15:00 PM 10.14 50.252 0.97 8.15 5.8 12.59
2/12/2023 2:30:00 PM 10.21 50.378 0.974 8.16 5.68 12.54
2/12/2023 2:45:00 PM 10.28 50.504 0.978 8.16 5.59 12.46
2/12/2023 3:00:00 PM 10.33 50.594 0.981 8.15 5.61 12.39
2/12/2023 3:15:00 PM 10.36 50.648 0.983 8.14 5.55 12.24
2/12/2023 3:30:00 PM 10.4 50.72 0.986 8.14 5.72 12.11
2/12/2023 3:45:00 PM 10.44 50.792 0.988 8.13 5.44 11.99
2/12/2023 4:00:00 PM 10.45 50.81 0.989 8.12 5.68 11.87
2/12/2023 4:15:00 PM 10.46 50.828 0.989 8.11 5.55 11.72
2/12/2023 4:30:00 PM 10.46 50.828 0.989 8.1 5.67 11.57
2/12/2023 4:45:00 PM 10.47 50.846 0.988 8.08 5.64 11.41
2/12/2023 5:00:00 PM 10.47 50.846 0.988 8.07 5.54 11.24
2/12/2023 5:15:00 PM 10.47 50.846 0.988 8.06 5.7 11.1
2/12/2023 5:30:00 PM 10.48 50.864 0.988 8.05 5.68 10.96
2/12/2023 5:45:00 PM 10.47 50.846 0.988 8.04 5.87 10.84
2/12/2023 6:00:00 PM 10.47 50.846 0.989 8.02 5.87 10.72
2/12/2023 6:15:00 PM 10.46 50.828 0.99 8.01 6.14 10.61
2/12/2023 6:30:00 PM 10.46 50.828 0.99 8 6.47 10.5
2/12/2023 6:45:00 PM 10.44 50.792 0.99 7.99 6.42 10.39
2/12/2023 7:00:00 PM 10.42 50.756 0.989 7.98 6.37 10.3
2/12/2023 7:15:00 PM 10.4 50.72 0.99 7.97 6.14 10.21
2/12/2023 7:30:00 PM 10.37 50.666 0.989 7.96 6.25 10.14
2/12/2023 7:45:00 PM 10.34 50.612 0.986 7.96 6.96 10.08
2/12/2023 8:00:00 PM 10.3 50.54 0.984 7.95 6.64 10.02
2/12/2023 8:15:00 PM 10.27 50.486 0.981 7.94 6.69 9.98
2/12/2023 8:30:00 PM 10.23 50.414 0.979 7.94 6.68 9.93
2/12/2023 8:45:00 PM 10.2 50.36 0.977 7.93 6.57 9.89
2/12/2023 9:00:00 PM 10.17 50.306 0.975 7.93 7.09 9.84
2/12/2023 9:15:00 PM 10.13 50.234 0.972 7.92 7.05 9.8
2/12/2023 9:30:00 PM 10.1 50.18 0.97 7.91 6.84 9.77
2/12/2023 9:45:00 PM 10.07 50.126 0.969 7.91 6.59 9.74
2/12/2023 10:00:00 PM 10.05 50.09 0.967 7.9 6.33 9.72
2/12/2023 10:15:00 PM 10.01 50.018 0.964 7.9 6.66 9.7
2/12/2023 10:30:00 PM 9.98 49.964 0.961 7.9 6.68 9.69
2/12/2023 10:45:00 PM 9.93 49.874 0.957 7.89 6.92 9.7
2/12/2023 11:00:00 PM 9.87 49.766 0.953 7.89 7.45 9.7
2/12/2023 11:15:00 PM 9.83 49.694 0.948 7.89 9.7 9.71
2/12/2023 11:30:00 PM 9.79 49.622 0.942 7.89 7.75 9.69
2/12/2023 11:45:00 PM 9.74 49.532 0.934 7.88 7.36 9.7
2/13/2023 12:00:00 AM 9.7 49.46 0.929 7.88 7.45 9.69
2/13/2023 12:15:00 AM 9.68 49.424 0.924 7.88 7.36 9.68
2/13/2023 12:30:00 AM 9.67 49.406 0.92 7.87 7.44 9.66
2/13/2023 12:45:00 AM 9.67 49.406 0.917 7.87 7.54 9.65
2/13/2023 1:00:00 AM 9.66 49.388 0.913 7.87 7.77 9.65
2/13/2023 1:15:00 AM 9.65 49.37 0.909 7.86 7.88 9.64
2/13/2023 1:30:00 AM 9.64 49.352 0.905 7.86 8.22 9.63
2/13/2023 1:45:00 AM 9.61 49.298 0.9 7.86 8.28 9.64
2/13/2023 2:00:00 AM 9.59 49.262 0.897 7.86 8 9.64
2/13/2023 2:15:00 AM 9.57 49.226 0.896 7.85 8.42 9.63
2/13/2023 2:30:00 AM 9.55 49.19 0.894 7.85 8.6 9.63
2/13/2023 2:45:00 AM 9.53 49.154 0.891 7.85 8.06 9.62
2/13/2023 3:00:00 AM 9.5 49.1 0.886 7.84 8.23 9.61
2/13/2023 3:15:00 AM 9.47 49.046 0.88 7.84 7.92 9.62
2/13/2023 3:30:00 AM 9.43 48.974 0.873 7.84 7.93 9.62
2/13/2023 3:45:00 AM 9.4 48.92 0.868 7.83 7.88 9.62
2/13/2023 4:00:00 AM 9.36 48.848 0.866 7.83 7.63 9.62
2/13/2023 4:15:00 AM 9.32 48.776 0.864 7.82 7.45 9.61
2/13/2023 4:30:00 AM 9.28 48.704 0.861 7.82 7.6 9.6
2/13/2023 4:45:00 AM 9.22 48.596 0.855 7.81 7.43 9.6
2/13/2023 5:00:00 AM 9.16 48.488 0.847 7.8 7.74 9.6
2/13/2023 5:15:00 AM 9.09 48.362 0.838 7.8 7.85 9.6
2/13/2023 5:30:00 AM 9.02 48.236 0.827 7.79 7.71 9.61
2/13/2023 5:45:00 AM 8.96 48.128 0.818 7.79 7.51 9.61
2/13/2023 6:00:00 AM 8.89 48.002 0.809 7.78 7.75 9.61
2/13/2023 6:15:00 AM 8.83 47.894 0.802 7.77 7.55 9.62
2/13/2023 6:30:00 AM 8.78 47.804 0.795 7.77 7.46 9.64
2/13/2023 6:45:00 AM 8.72 47.696 0.79 7.77 7.69 9.67
2/13/2023 7:00:00 AM 8.67 47.606 0.787 7.77 7.44 9.7
2/13/2023 7:15:00 AM 8.63 47.534 0.788 7.77 7.19 9.75
2/13/2023 7:30:00 AM 8.6 47.48 0.792 7.78 7.23 9.8
2/13/2023 7:45:00 AM 8.58 47.444 0.797 7.79 7.76 9.88
2/13/2023 8:00:00 AM 8.57 47.426 0.803 7.8 7.47 9.96
2/13/2023 8:15:00 AM -99999.99 -179968 -99999.99 -99999.99 -99999.99 -99999.99
2/13/2023 8:30:00 AM 8.6 47.48 0.814 7.83 7.76 10.19
2/13/2023 8:45:00 AM 8.63 47.534 0.818 7.84 7.48 10.33
2/13/2023 9:00:00 AM 8.69 47.642 0.82 7.86 7.56 10.48
2/13/2023 9:15:00 AM 8.77 47.786 0.822 7.88 7.48 10.67
2/13/2023 9:30:00 AM 8.87 47.966 0.823 7.9 7.22 10.88
2/13/2023 9:45:00 AM 8.99 48.182 0.823 7.93 7.58 11.08
2/13/2023 10:00:00 AM 9.11 48.398 0.822 7.95 7.64 11.27
2/13/2023 10:15:00 AM 9.26 48.668 0.823 7.97 7.61 11.48
2/13/2023 10:30:00 AM 9.4 48.92 0.824 7.99 7.52 11.66
2/13/2023 10:45:00 AM 9.54 49.172 0.827 8.01 7.47 11.79
2/13/2023 11:00:00 AM 9.69 49.442 0.831 8.03 6.88 11.95
2/13/2023 11:15:00 AM 9.86 49.748 0.839 8.05 6.81 12.11
2/13/2023 11:30:00 AM 10 50 0.848 8.06 6.7 12.25
2/13/2023 11:45:00 AM 10.14 50.252 0.858 8.08 6.6 12.36
2/13/2023 12:00:00 PM 10.3 50.54 0.869 8.09 6.66 12.49
2/13/2023 12:15:00 PM 10.47 50.846 0.878 8.11 6.82 12.58
2/13/2023 12:30:00 PM 10.57 51.026 0.885 8.12 6.59 12.6
2/13/2023 12:45:00 PM 10.73 51.314 0.891 8.14 6.49 12.72
2/13/2023 1:00:00 PM 10.93 51.674 0.896 8.15 6.78 12.85
2/13/2023 1:15:00 PM 11.09 51.962 0.899 8.17 6.65 12.94
2/13/2023 1:30:00 PM 11.21 52.178 0.901 8.18 6.85 12.93
2/13/2023 1:45:00 PM 11.35 52.43 0.901 8.19 7.04 12.95
2/13/2023 2:00:00 PM 11.42 52.556 0.902 8.19 7.28 12.87
2/13/2023 2:15:00 PM 11.44 52.592 0.902 8.19 6.75 12.78
2/13/2023 2:30:00 PM 11.49 52.682 0.901 8.19 6.69 12.68
2/13/2023 2:45:00 PM 11.52 52.736 0.902 8.18 6.73 12.52
2/13/2023 3:00:00 PM 11.53 52.754 0.905 8.17 6.6 12.32
2/13/2023 3:15:00 PM 11.56 52.808 0.91 8.16 6.97 12.16
2/13/2023 3:30:00 PM 11.59 52.862 0.915 8.15 6.52 12.05
2/13/2023 3:45:00 PM 11.61 52.898 0.918 8.15 6.51 11.95
2/13/2023 4:00:00 PM 11.63 52.934 0.918 8.14 6.41 11.89
2/13/2023 4:15:00 PM 11.65 52.97 0.917 8.14 6.46 11.77
2/13/2023 4:30:00 PM 11.66 52.988 0.916 8.13 6.65 11.64
2/13/2023 4:45:00 PM 11.65 52.97 0.919 8.12 6.72 11.51
2/13/2023 5:00:00 PM 11.61 52.898 0.923 8.11 7.6 11.31
2/13/2023 5:15:00 PM 11.57 52.826 0.927 8.09 6.21 11.16
2/13/2023 5:30:00 PM 11.5 52.7 0.927 8.08 6.2 11.01
2/13/2023 5:45:00 PM 11.42 52.556 0.923 8.07 5.96 10.86
2/13/2023 6:00:00 PM 11.33 52.394 0.918 8.05 6.14 10.71
2/13/2023 6:15:00 PM 11.23 52.214 0.911 8.04 6.57 10.57
2/13/2023 6:30:00 PM 11.13 52.034 0.906 8.02 6.54 10.45
2/13/2023 6:45:00 PM 11.03 51.854 0.902 8.01 7.12 10.32
2/13/2023 7:00:00 PM 10.94 51.692 0.9 8 6.99 10.23
2/13/2023 7:15:00 PM 10.85 51.53 0.9 7.99 7.26 10.14
2/13/2023 7:30:00 PM 10.77 51.386 0.901 7.98 6.68 10.08
2/13/2023 7:45:00 PM 10.7 51.26 0.902 7.97 7.05 10.02
2/13/2023 8:00:00 PM 10.62 51.116 0.903 7.96 6.82 9.98
2/13/2023 8:15:00 PM 10.54 50.972 0.903 7.96 6.83 9.94
2/13/2023 8:30:00 PM 10.45 50.81 0.903 7.95 7.12 9.9
2/13/2023 8:45:00 PM 10.35 50.63 0.902 7.94 6.93 9.86
2/13/2023 9:00:00 PM 10.26 50.468 0.9 7.94 7.86 9.82
2/13/2023 9:15:00 PM 10.18 50.324 0.899 7.93 8.06 9.78
2/13/2023 9:30:00 PM 10.09 50.162 0.899 7.92 10.44 9.75
2/13/2023 9:45:00 PM 10.01 50.018 0.901 7.92 9.22 9.72
2/13/2023 10:00:00 PM 9.94 49.892 0.904 7.91 8.1 9.7
2/13/2023 10:15:00 PM 9.9 49.82 0.909 7.91 8.07 9.68
2/13/2023 10:30:00 PM 9.85 49.73 0.914 7.9 8.24 9.66
2/13/2023 10:45:00 PM 9.8 49.64 0.919 7.9 8.53 9.66
2/13/2023 11:00:00 PM 9.75 49.55 0.924 7.89 8.27 9.66
2/13/2023 11:15:00 PM 9.71 49.478 0.93 7.89 7.87 9.65
2/13/2023 11:30:00 PM 9.67 49.406 0.936 7.88 7.84 9.65
2/13/2023 11:45:00 PM 9.63 49.334 0.941 7.88 7.69 9.65
2/14/2023 12:00:00 AM 9.6 49.28 0.948 7.88 7.55 9.64
2/14/2023 12:15:00 AM 9.57 49.226 0.955 7.87 8.32 9.63
2/14/2023 12:30:00 AM 9.53 49.154 0.962 7.87 8.63 9.64
2/14/2023 12:45:00 AM 9.5 49.1 0.967 7.87 7.72 9.64
2/14/2023 1:00:00 AM 9.46 49.028 0.969 7.87 7.43 9.65
2/14/2023 1:15:00 AM 9.43 48.974 0.969 7.87 7.45 9.65
2/14/2023 1:30:00 AM 9.39 48.902 0.967 7.87 8.29 9.67
2/14/2023 1:45:00 AM 9.35 48.83 0.965 7.87 7.79 9.69
2/14/2023 2:00:00 AM 9.32 48.776 0.963 7.87 7.73 9.7
2/14/2023 2:15:00 AM 9.27 48.686 0.96 7.87 7.83 9.72
2/14/2023 2:30:00 AM 9.23 48.614 0.957 7.87 7.99 9.74
2/14/2023 2:45:00 AM 9.18 48.524 0.954 7.87 8.14 9.76
2/14/2023 3:00:00 AM 9.14 48.452 0.952 7.87 8.25 9.78
2/14/2023 3:15:00 AM 9.1 48.38 0.949 7.87 8.51 9.8
2/14/2023 3:30:00 AM 9.06 48.308 0.946 7.88 8.27 9.81
2/14/2023 3:45:00 AM 9.03 48.254 0.942 7.88 8.41 9.83
2/14/2023 4:00:00 AM 8.99 48.182 0.938 7.88 8.03 9.86
2/14/2023 4:15:00 AM 8.95 48.11 0.934 7.88 7.85 9.87
2/14/2023 4:30:00 AM 8.91 48.038 0.929 7.89 7.59 9.89
2/14/2023 4:45:00 AM 8.87 47.966 0.924 7.89 7.59 9.92
2/14/2023 5:00:00 AM 8.82 47.876 0.919 7.89 7.4 9.93
2/14/2023 5:15:00 AM 8.79 47.822 0.914 7.89 7.14 9.95
2/14/2023 5:30:00 AM 8.74 47.732 0.909 7.89 7.36 9.98
2/14/2023 5:45:00 AM 8.7 47.66 0.903 7.89 7.16 10
2/14/2023 6:00:00 AM 8.66 47.588 0.897 7.9 7.21 10.02
2/14/2023 6:15:00 AM 8.62 47.516 0.892 7.9 7.33 10.04
2/14/2023 6:30:00 AM 8.58 47.444 0.888 7.9 7.33 10.07
2/14/2023 6:45:00 AM 8.55 47.39 0.885 7.9 7.05 10.08
2/14/2023 7:00:00 AM 8.51 47.318 0.883 7.9 7.06 10.11
2/14/2023 7:15:00 AM 8.48 47.264 0.881 7.9 6.9 10.15
2/14/2023 7:30:00 AM 8.46 47.228 0.878 7.91 6.95 10.21
2/14/2023 7:45:00 AM 8.44 47.192 0.875 7.91 7.19 10.28
2/14/2023 8:00:00 AM 8.43 47.174 0.874 7.92 7.26 10.36
2/14/2023 8:15:00 AM 8.43 47.174 0.874 7.93 7.14 10.46
2/14/2023 8:30:00 AM 8.46 47.228 0.874 7.93 6.84 10.56
2/14/2023 8:45:00 AM 8.5 47.3 0.874 7.95 6.84 10.69
2/14/2023 9:00:00 AM 8.56 47.408 0.874 7.96 6.61 10.83
2/14/2023 9:15:00 AM 8.64 47.552 0.873 7.97 6.53 11.02
2/14/2023 9:30:00 AM 8.75 47.75 0.872 7.99 6.83 11.21
2/14/2023 9:45:00 AM 8.87 47.966 0.871 8.01 6.76 11.39
2/14/2023 10:00:00 AM 8.99 48.182 0.869 8.02 6.69 11.57
2/14/2023 10:15:00 AM 9.13 48.434 0.867 8.04 6.68 11.74
2/14/2023 10:30:00 AM 9.27 48.686 0.865 8.06 6.84 11.89
2/14/2023 10:45:00 AM 9.41 48.938 0.865 8.07 7.09 12.02
2/14/2023 11:00:00 AM 9.56 49.208 0.867 8.09 7.09 12.13
2/14/2023 11:15:00 AM 9.74 49.532 0.873 8.1 7.06 12.26
2/14/2023 11:30:00 AM 9.91 49.838 0.881 8.11 7.43 12.36
2/14/2023 11:45:00 AM 10.1 50.18 0.891 8.13 7.18 12.48
2/14/2023 12:00:00 PM 10.29 50.522 0.903 8.14 6.92 12.6
2/14/2023 12:15:00 PM 10.48 50.864 0.916 8.15 6.96 12.71
2/14/2023 12:30:00 PM 10.68 51.224 0.927 8.17 6.89 12.81
2/14/2023 12:45:00 PM 10.88 51.584 0.935 8.18 7.1 12.9
2/14/2023 1:00:00 PM 11.07 51.926 0.941 8.19 7.04 12.96
2/14/2023 1:15:00 PM 11.23 52.214 0.944 8.2 7.19 13.01
2/14/2023 1:30:00 PM 11.39 52.502 0.945 8.21 6.65 13.04
2/14/2023 1:45:00 PM 11.53 52.754 0.945 8.22 6.77 13.07
2/14/2023 2:00:00 PM 11.65 52.97 0.944 8.23 6.6 13.08
2/14/2023 2:15:00 PM 11.73 53.114 0.942 8.24 7.26 13.05
2/14/2023 2:30:00 PM 11.8 53.24 0.94 8.24 7.36 13
2/14/2023 2:45:00 PM 11.83 53.294 0.94 8.24 6.9 12.9
2/14/2023 3:00:00 PM 11.85 53.33 0.941 8.24 6.82 12.8
2/14/2023 3:15:00 PM 11.87 53.366 0.943 8.23 6.93 12.67
2/14/2023 3:30:00 PM 11.88 53.384 0.944 8.22 6.74 12.53
2/14/2023 3:45:00 PM 11.87 53.366 0.943 8.21 6.56 12.36
2/14/2023 4:00:00 PM 11.87 53.366 0.942 8.2 6.64 12.18
2/14/2023 4:15:00 PM 11.87 53.366 0.944 8.19 6.6 12
2/14/2023 4:30:00 PM 11.87 53.366 0.948 8.17 6.83 11.79
2/14/2023 4:45:00 PM 11.86 53.348 0.954 8.15 8.04 11.56
2/14/2023 5:00:00 PM 11.83 53.294 0.961 8.13 6.85 11.36
2/14/2023 5:15:00 PM 11.79 53.222 0.968 8.11 6.91 11.17
2/14/2023 5:30:00 PM 11.76 53.168 0.972 8.1 7.08 11.01
2/14/2023 5:45:00 PM 11.72 53.096 0.972 8.08 7.08 10.85
2/14/2023 6:00:00 PM 11.67 53.006 0.968 8.07 7.25 10.72
2/14/2023 6:15:00 PM 11.61 52.898 0.96 8.06 7.94 10.61
2/14/2023 6:30:00 PM 11.56 52.808 0.952 8.05 8.1 10.52
2/14/2023 6:45:00 PM 11.5 52.7 0.946 8.04 7.75 10.43
2/14/2023 7:00:00 PM 11.44 52.592 0.941 8.03 7.3 10.35
2/14/2023 7:15:00 PM 11.38 52.484 0.938 8.02 7.38 10.28
2/14/2023 7:30:00 PM 11.32 52.376 0.934 8.01 7.23 10.21
2/14/2023 7:45:00 PM 11.25 52.25 0.932 8 6.91 10.14
2/14/2023 8:00:00 PM 11.17 52.106 0.929 7.99 7.4 10.07
2/14/2023 8:15:00 PM 11.1 51.98 0.925 7.98 7.12 10.01
2/14/2023 8:30:00 PM 11.01 51.818 0.922 7.97 7.18 9.96
2/14/2023 8:45:00 PM 10.93 51.674 0.921 7.96 7.2 9.9
2/14/2023 9:00:00 PM 10.85 51.53 0.922 7.95 7.14 9.86
2/14/2023 9:15:00 PM 10.77 51.386 0.923 7.94 7.22 9.82
2/14/2023 9:30:00 PM 10.7 51.26 0.926 7.94 7.23 9.78
2/14/2023 9:45:00 PM 10.63 51.134 0.928 7.93 7.25 9.75
2/14/2023 10:00:00 PM 10.57 51.026 0.931 7.92 7.6 9.72
2/14/2023 10:15:00 PM 10.52 50.936 0.934 7.92 7.61 9.71
2/14/2023 10:30:00 PM 10.47 50.846 0.936 7.91 7.72 9.68
2/14/2023 10:45:00 PM 10.43 50.774 0.939 7.9 8.16 9.67
2/14/2023 11:00:00 PM 10.39 50.702 0.943 7.9 8.03 9.66
2/14/2023 11:15:00 PM 10.35 50.63 0.946 7.9 7.66 9.65
2/14/2023 11:30:00 PM 10.32 50.576 0.949 7.89 7.29 9.64
2/14/2023 11:45:00 PM 10.3 50.54 0.951 7.89 7.29 9.64
2/15/2023 12:00:00 AM 10.27 50.486 0.953 7.88 6.98 9.64
2/15/2023 12:15:00 AM 10.25 50.45 0.954 7.88 7.28 9.64
2/15/2023 12:30:00 AM 10.23 50.414 0.954 7.88 6.87 9.64
2/15/2023 12:45:00 AM 10.22 50.396 0.954 7.88 7.58 9.65
2/15/2023 1:00:00 AM 10.21 50.378 0.953 7.88 7.09 9.66
2/15/2023 1:15:00 AM 10.19 50.342 0.952 7.88 7.21 9.66
2/15/2023 1:30:00 AM 10.18 50.324 0.952 7.88 7.44 9.66
2/15/2023 1:45:00 AM 10.17 50.306 0.951 7.88 7.31 9.66
2/15/2023 2:00:00 AM 10.15 50.27 0.949 7.88 7.79 9.67
2/15/2023 2:15:00 AM 10.14 50.252 0.946 7.88 7.77 9.68
2/15/2023 2:30:00 AM 10.14 50.252 0.942 7.88 7.37 9.69
2/15/2023 2:45:00 AM 10.13 50.234 0.938 7.88 7.7 9.69
2/15/2023 3:00:00 AM 10.11 50.198 0.934 7.88 7.79 9.7
2/15/2023 3:15:00 AM 10.1 50.18 0.929 7.88 8.12 9.7
2/15/2023 3:30:00 AM 10.09 50.162 0.925 7.88 8.46 9.7
2/15/2023 3:45:00 AM 10.08 50.144 0.92 7.89 7.6 9.71
2/15/2023 4:00:00 AM 10.06 50.108 0.914 7.89 7.55 9.73
2/15/2023 4:15:00 AM 10.05 50.09 0.907 7.89 7.08 9.73
2/15/2023 4:30:00 AM 10.03 50.054 0.9 7.89 7.01 9.74
2/15/2023 4:45:00 AM 10.02 50.036 0.894 7.89 7.91 9.74
2/15/2023 5:00:00 AM 10.01 50.018 0.887 7.89 8.25 9.76
2/15/2023 5:15:00 AM 10.01 50.018 0.881 7.9 7.58 9.77
2/15/2023 5:30:00 AM 10.01 50.018 0.874 7.9 7.6 9.77
2/15/2023 5:45:00 AM 9.99 49.982 0.869 7.9 7.08 9.79
2/15/2023 6:00:00 AM 9.98 49.964 0.865 7.9 7.26 9.79
2/15/2023 6:15:00 AM 9.98 49.964 0.86 7.9 7.11 9.8
2/15/2023 6:30:00 AM 9.98 49.964 0.856 7.9 7.44 9.82
2/15/2023 6:45:00 AM 9.97 49.946 0.853 7.9 7.1 9.81
2/15/2023 7:00:00 AM 9.97 49.946 0.849 7.91 7.15 9.83
2/15/2023 7:15:00 AM 9.97 49.946 0.847 7.91 7.06 9.83
2/15/2023 7:30:00 AM 9.98 49.964 0.846 7.91 7.33 9.9
2/15/2023 7:45:00 AM 10 50 0.847 7.92 7.26 9.98
2/15/2023 8:00:00 AM 10.02 50.036 0.848 7.92 7.27 10.04
2/15/2023 8:15:00 AM 10.05 50.09 0.847 7.93 7.42 10.1
2/15/2023 8:30:00 AM 10.08 50.144 0.846 7.93 7.08 10.14
2/15/2023 8:45:00 AM 10.13 50.234 0.845 7.94 7.05 10.32
2/15/2023 9:00:00 AM 10.2 50.36 0.845 7.96 6.9 10.57
2/15/2023 9:15:00 AM 10.27 50.486 0.844 7.98 6.84 10.73
2/15/2023 9:30:00 AM 10.35 50.63 0.843 7.99 6.97 10.88
2/15/2023 9:45:00 AM 10.44 50.792 0.843 8 7.01 11.01
2/15/2023 10:00:00 AM 10.57 51.026 0.842 8.02 6.64 11.25
2/15/2023 10:15:00 AM 10.68 51.224 0.841 8.04 6.52 11.43
2/15/2023 10:30:00 AM 10.79 51.422 0.841 8.06 6.4 11.58
2/15/2023 10:45:00 AM 10.94 51.692 0.843 8.07 6.15 11.73
2/15/2023 11:00:00 AM 11.08 51.944 0.848 8.09 6.09 11.86
2/15/2023 11:15:00 AM 11.23 52.214 0.855 8.1 6.04 12
2/15/2023 11:30:00 AM 11.4 52.52 0.864 8.12 5.93 12.13
2/15/2023 11:45:00 AM 11.59 52.862 0.875 8.13 5.9 12.25
2/15/2023 12:00:00 PM 11.77 53.186 0.887 8.14 5.76 12.37
2/15/2023 12:15:00 PM 11.97 53.546 0.901 8.16 5.96 12.48
2/15/2023 12:30:00 PM 12.17 53.906 0.912 8.17 5.85 12.59
2/15/2023 12:45:00 PM 12.35 54.23 0.92 8.19 5.83 12.67
2/15/2023 1:00:00 PM 12.53 54.554 0.923 8.2 5.71 12.74
2/15/2023 1:15:00 PM 12.68 54.824 0.924 8.21 5.92 12.8
2/15/2023 1:30:00 PM 12.83 55.094 0.924 8.22 5.81 12.83
2/15/2023 1:45:00 PM 12.96 55.328 0.924 8.23 6.21 12.85
2/15/2023 2:00:00 PM 13.08 55.544 0.923 8.24 6.13 12.83
2/15/2023 2:15:00 PM 13.17 55.706 0.921 8.25 6.22 12.8
2/15/2023 2:30:00 PM 13.25 55.85 0.919 8.25 6.64 12.73
2/15/2023 2:45:00 PM 13.32 55.976 0.917 8.25 6.52 12.66
2/15/2023 3:00:00 PM 13.36 56.048 0.914 8.25 6.24 12.56
2/15/2023 3:15:00 PM 13.35 56.03 0.912 8.24 6.37 12.37
2/15/2023 3:30:00 PM 13.36 56.048 0.912 8.23 6.37 12.22
2/15/2023 3:45:00 PM 13.36 56.048 0.912 8.22 6.43 12.03
2/15/2023 4:00:00 PM 13.37 56.066 0.913 8.21 6.96 11.85
2/15/2023 4:15:00 PM 13.37 56.066 0.914 8.19 6.31 11.65
2/15/2023 4:30:00 PM 13.36 56.048 0.914 8.17 6.69 11.42
2/15/2023 4:45:00 PM 13.35 56.03 0.915 8.16 6.8 11.21
2/15/2023 5:00:00 PM 13.32 55.976 0.92 8.14 7.02 11.02
2/15/2023 5:15:00 PM 13.3 55.94 0.929 8.12 6.85 10.83
2/15/2023 5:30:00 PM 13.27 55.886 0.938 8.11 6.85 10.65
2/15/2023 5:45:00 PM 13.25 55.85 0.947 8.09 7.32 10.48
2/15/2023 6:00:00 PM 13.23 55.814 0.952 8.07 7.24 10.34
2/15/2023 6:15:00 PM 13.2 55.76 0.955 8.06 7.03 10.21
2/15/2023 6:30:00 PM 13.16 55.688 0.955 8.05 7.09 10.1
2/15/2023 6:45:00 PM 13.11 55.598 0.952 8.04 7.45 10
2/15/2023 7:00:00 PM 13.06 55.508 0.947 8.03 7.02 9.91
2/15/2023 7:15:00 PM 13 55.4 0.941 8.02 7.08 9.84
2/15/2023 7:30:00 PM 12.93 55.274 0.934 8.01 7.07 9.76
2/15/2023 7:45:00 PM 12.85 55.13 0.927 8 7.69 9.68
2/15/2023 8:00:00 PM 12.78 55.004 0.921 7.99 6.95 9.62
2/15/2023 8:15:00 PM 12.7 54.86 0.917 7.98 7.49 9.55
2/15/2023 8:30:00 PM 12.62 54.716 0.915 7.97 7.55 9.49
2/15/2023 8:45:00 PM 12.54 54.572 0.914 7.96 7.15 9.43
2/15/2023 9:00:00 PM 12.46 54.428 0.911 7.95 7.41 9.38
2/15/2023 9:15:00 PM 12.37 54.266 0.909 7.95 7.58 9.34
2/15/2023 9:30:00 PM 12.29 54.122 0.908 7.94 7.78 9.29
2/15/2023 9:45:00 PM 12.21 53.978 0.907 7.93 7.48 9.26
2/15/2023 10:00:00 PM 12.13 53.834 0.907 7.92 7.64 9.24
2/15/2023 10:15:00 PM 12.05 53.69 0.91 7.92 7.42 9.22
2/15/2023 10:30:00 PM 11.98 53.564 0.913 7.91 7.42 9.19
2/15/2023 10:45:00 PM 11.9 53.42 0.915 7.91 7.75 9.19
2/15/2023 11:00:00 PM 11.82 53.276 0.918 7.9 7.46 9.19
2/15/2023 11:15:00 PM 11.75 53.15 0.922 7.9 7.24 9.18
2/15/2023 11:30:00 PM 11.68 53.024 0.928 7.89 7.32 9.19
2/15/2023 11:45:00 PM 11.61 52.898 0.934 7.89 7.42 9.19
2/16/2023 12:00:00 AM 11.54 52.772 0.94 7.88 7.83 9.19
2/16/2023 12:15:00 AM 11.47 52.646 0.945 7.88 7.74 9.2
2/16/2023 12:30:00 AM 11.4 52.52 0.949 7.88 7.69 9.21
2/16/2023 12:45:00 AM 11.34 52.412 0.953 7.88 7.74 9.22
2/16/2023 1:00:00 AM 11.28 52.304 0.956 7.88 7.84 9.24
2/16/2023 1:15:00 AM 11.21 52.178 0.959 7.88 7.65 9.25
2/16/2023 1:30:00 AM 11.15 52.07 0.962 7.88 7.99 9.26
2/16/2023 1:45:00 AM 11.09 51.962 0.963 7.88 7.69 9.28
2/16/2023 2:00:00 AM 11.02 51.836 0.964 7.88 7.69 9.3
2/16/2023 2:15:00 AM 10.96 51.728 0.965 7.88 8.25 9.31
2/16/2023 2:30:00 AM 10.89 51.602 0.966 7.88 7.76 9.34
2/16/2023 2:45:00 AM 10.83 51.494 0.966 7.88 7.37 9.35
2/16/2023 3:00:00 AM 10.77 51.386 0.966 7.88 7.93 9.37
2/16/2023 3:15:00 AM 10.71 51.278 0.965 7.88 7.77 9.39
2/16/2023 3:30:00 AM 10.65 51.17 0.962 7.88 8.07 9.42
2/16/2023 3:45:00 AM 10.59 51.062 0.959 7.88 7.56 9.44
2/16/2023 4:00:00 AM 10.53 50.954 0.955 7.88 11.5 9.46
2/16/2023 4:15:00 AM 10.48 50.864 0.95 7.88 7.69 9.49
2/16/2023 4:30:00 AM 10.42 50.756 0.945 7.89 7.44 9.52
2/16/2023 4:45:00 AM 10.37 50.666 0.94 7.89 7.29 9.54
2/16/2023 5:00:00 AM 10.31 50.558 0.934 7.89 7.09 9.56
2/16/2023 5:15:00 AM 10.26 50.468 0.928 7.89 6.88 9.59
2/16/2023 5:30:00 AM 10.22 50.396 0.923 7.89 7.18 9.61
2/16/2023 5:45:00 AM 10.18 50.324 0.918 7.88 6.98 9.64
2/16/2023 6:00:00 AM 10.13 50.234 0.914 7.89 6.9 9.66
2/16/2023 6:15:00 AM 10.09 50.162 0.909 7.89 7.01 9.68
2/16/2023 6:30:00 AM 10.05 50.09 0.904 7.89 6.92 9.7
2/16/2023 6:45:00 AM 10.01 50.018 0.9 7.89 6.88 9.72
2/16/2023 7:00:00 AM 9.98 49.964 0.896 7.89 6.69 9.74
2/16/2023 7:15:00 AM 9.94 49.892 0.894 7.9 6.66 9.78
2/16/2023 7:30:00 AM 9.92 49.856 0.895 7.9 6.94 9.86
2/16/2023 7:45:00 AM 9.91 49.838 0.896 7.91 7.22 9.96
2/16/2023 8:00:00 AM 9.91 49.838 0.899 7.91 7.18 10.06
2/16/2023 8:15:00 AM 9.93 49.874 0.901 7.92 7.24 10.19
2/16/2023 8:30:00 AM 9.97 49.946 0.904 7.94 7.17 10.34
2/16/2023 8:45:00 AM 10.02 50.036 0.906 7.95 6.86 10.52
2/16/2023 9:00:00 AM 10.09 50.162 0.908 7.96 6.73 10.66
2/16/2023 9:15:00 AM 10.16 50.288 0.908 7.98 6.64 10.79
2/16/2023 9:30:00 AM 10.23 50.414 0.906 7.99 6.77 10.94
2/16/2023 9:45:00 AM 10.31 50.558 0.904 8 6.67 11.1
2/16/2023 10:00:00 AM 10.41 50.738 0.901 8.02 6.72 11.3
2/16/2023 10:15:00 AM 10.51 50.918 0.899 8.03 6.78 11.41
2/16/2023 10:30:00 AM 10.6 51.08 0.898 8.05 6.62 11.5
2/16/2023 10:45:00 AM 10.7 51.26 0.898 8.06 6.57 11.63
2/16/2023 11:00:00 AM 10.79 51.422 0.901 8.07 6.72 11.7
2/16/2023 11:15:00 AM 10.92 51.656 0.908 8.09 6.4 11.9
2/16/2023 11:30:00 AM 11.04 51.872 0.918 8.1 6.35 12
2/16/2023 11:45:00 AM 11.15 52.07 0.931 8.11 6.37 12.01
2/16/2023 12:00:00 PM 11.26 52.268 0.946 8.11 6.57 12.03
2/16/2023 12:15:00 PM 11.35 52.43 0.961 8.11 6.36 11.95
2/16/2023 12:30:00 PM 11.43 52.574 0.974 8.11 6.43 11.81
2/16/2023 12:45:00 PM 11.51 52.718 0.985 8.11 6.12 11.75
2/16/2023 1:00:00 PM 11.58 52.844 0.995 8.11 6.63 11.67
2/16/2023 1:15:00 PM 11.64 52.952 0.998 8.1 6.33 11.55
2/16/2023 1:30:00 PM 11.7 53.06 0.995 8.1 6.51 11.42
2/16/2023 1:45:00 PM 11.74 53.132 0.99 8.09 6.88 11.3
2/16/2023 2:00:00 PM 11.77 53.186 0.985 8.09 6.69 11.22
2/16/2023 2:15:00 PM 11.8 53.24 0.98 8.08 6.41 11.11
2/16/2023 2:30:00 PM 11.83 53.294 0.977 8.08 7.06 11.08
2/16/2023 2:45:00 PM 11.87 53.366 0.974 8.08 7.77 11.03
2/16/2023 3:00:00 PM 11.92 53.456 0.973 8.08 7.57 11.03
2/16/2023 3:15:00 PM 11.98 53.564 0.972 8.08 7.16 11.1
2/16/2023 3:30:00 PM 12.03 53.654 0.973 8.08 7.13 11.08
2/16/2023 3:45:00 PM 12.06 53.708 0.972 8.06 7.03 10.86
2/16/2023 4:00:00 PM 12.09 53.762 0.971 8.05 6.98 10.69
2/16/2023 4:15:00 PM 12.1 53.78 0.972 8.04 7.19 10.58
2/16/2023 4:30:00 PM 12.12 53.816 0.975 8.02 7.71 10.46
2/16/2023 4:45:00 PM 12.14 53.852 0.979 8.01 8.86 10.33
2/16/2023 5:00:00 PM 12.16 53.888 0.983 7.99 9.46 10.2
2/16/2023 5:15:00 PM 12.17 53.906 0.985 7.97 9.64 10.07
2/16/2023 5:30:00 PM 12.19 53.942 0.984 7.96 9.17 9.95
2/16/2023 5:45:00 PM 12.2 53.96 0.978 7.94 9.03 9.85
2/16/2023 6:00:00 PM 12.19 53.942 0.962 7.93 8.78 9.8
2/16/2023 6:15:00 PM 12.19 53.942 0.941 7.92 9.09 9.75
2/16/2023 6:30:00 PM 12.18 53.924 0.921 7.92 8.9 9.7
2/16/2023 6:45:00 PM 12.16 53.888 0.902 7.91 8.76 9.64
2/16/2023 7:00:00 PM 12.13 53.834 0.885 7.9 8.7 9.57
2/16/2023 7:15:00 PM 12.1 53.78 0.874 7.88 8.61 9.49
2/16/2023 7:30:00 PM 12.07 53.726 0.868 7.87 8.81 9.41
2/16/2023 7:45:00 PM 12.04 53.672 0.863 7.85 8.58 9.31
2/16/2023 8:00:00 PM 12.01 53.618 0.855 7.83 9.2 9.2
2/16/2023 8:15:00 PM 11.98 53.564 0.845 7.81 9 9.1
2/16/2023 8:30:00 PM 11.95 53.51 0.834 7.79 9.19 9.02
2/16/2023 8:45:00 PM 11.92 53.456 0.825 7.77 9.11 8.96
2/16/2023 9:00:00 PM 11.9 53.42 0.821 7.76 9.13 8.92
2/16/2023 9:15:00 PM 11.88 53.384 0.821 7.75 8.98 8.89
2/16/2023 9:30:00 PM 11.87 53.366 0.825 7.75 8.55 8.87
2/16/2023 9:45:00 PM 11.85 53.33 0.832 7.74 8.79 8.85
2/16/2023 10:00:00 PM 11.84 53.312 0.841 7.74 9.35 8.85
2/16/2023 10:15:00 PM 11.82 53.276 0.851 7.74 8.91 8.85
2/16/2023 10:30:00 PM 11.81 53.258 0.863 7.75 8.76 8.85
2/16/2023 10:45:00 PM 11.81 53.258 0.876 7.75 8.49 8.86
2/16/2023 11:00:00 PM 11.81 53.258 0.891 7.75 8.29 8.87
2/16/2023 11:15:00 PM 11.81 53.258 0.907 7.76 8.15 8.88
2/16/2023 11:30:00 PM 11.8 53.24 0.921 7.76 8.02 8.89
2/16/2023 11:45:00 PM 11.8 53.24 0.934 7.77 8.06 8.9
2/17/2023 12:00:00 AM 11.8 53.24 0.946 7.77 8.15 8.92
2/17/2023 12:15:00 AM 11.79 53.222 0.957 7.78 8.16 8.93
2/17/2023 12:30:00 AM 11.78 53.204 0.967 7.78 7.77 8.94
2/17/2023 12:45:00 AM 11.77 53.186 0.974 7.79 7.53 8.95
2/17/2023 1:00:00 AM 11.76 53.168 0.981 7.79 7.7 8.96
2/17/2023 1:15:00 AM 11.75 53.15 0.986 7.8 7.82 8.97
2/17/2023 1:30:00 AM 11.73 53.114 0.988 7.8 7.99 8.97
2/17/2023 1:45:00 AM 11.72 53.096 0.989 7.81 7.56 8.98
2/17/2023 2:00:00 AM 11.71 53.078 0.99 7.81 7.33 9
2/17/2023 2:15:00 AM 11.7 53.06 0.991 7.82 7.63 9
2/17/2023 2:30:00 AM 11.69 53.042 0.991 7.82 7.38 9.01
2/17/2023 2:45:00 AM 11.67 53.006 0.99 7.82 7.96 9.02
2/17/2023 3:00:00 AM 11.66 52.988 0.987 7.83 7.54 9.03
2/17/2023 3:15:00 AM 11.65 52.97 0.983 7.83 7.11 9.04
2/17/2023 3:30:00 AM 11.64 52.952 0.978 7.83 7.24 9.04
2/17/2023 3:45:00 AM 11.62 52.916 0.973 7.84 7.36 9.06
2/17/2023 4:00:00 AM 11.61 52.898 0.967 7.84 7.36 9.06
2/17/2023 4:15:00 AM 11.59 52.862 0.961 7.84 7.3 9.08
2/17/2023 4:30:00 AM 11.58 52.844 0.954 7.84 7.13 9.08
2/17/2023 4:45:00 AM 11.56 52.808 0.946 7.85 7.55 9.09
2/17/2023 5:00:00 AM 11.55 52.79 0.938 7.85 7.24 9.11
2/17/2023 5:15:00 AM 11.54 52.772 0.929 7.85 7.35 9.12
2/17/2023 5:30:00 AM 11.52 52.736 0.921 7.85 7.32 9.14
2/17/2023 5:45:00 AM 11.51 52.718 0.914 7.86 7.26 9.16
2/17/2023 6:00:00 AM 11.51 52.718 0.908 7.86 7.37 9.17
2/17/2023 6:15:00 AM 11.51 52.718 0.902 7.86 7.22 9.18
2/17/2023 6:30:00 AM 11.52 52.736 0.898 7.86 7.51 9.19
2/17/2023 6:45:00 AM 11.53 52.754 0.892 7.86 7.63 9.2
2/17/2023 7:00:00 AM 11.52 52.736 0.887 7.87 7.83 9.21
2/17/2023 7:15:00 AM 11.52 52.736 0.883 7.87 7.77 9.23
2/17/2023 7:30:00 AM 11.52 52.736 0.879 7.87 7.61 9.25
2/17/2023 7:45:00 AM 11.51 52.718 0.876 7.87 7.28 9.28
2/17/2023 8:00:00 AM 11.51 52.718 0.873 7.87 7.21 9.31
2/17/2023 8:15:00 AM 11.53 52.754 0.87 7.88 6.63 9.34
2/17/2023 8:30:00 AM 11.54 52.772 0.869 7.88 6.66 9.37
2/17/2023 8:45:00 AM 11.57 52.826 0.87 7.88 6.47 9.41
2/17/2023 9:00:00 AM 11.6 52.88 0.87 7.88 6.28 9.43
2/17/2023 9:15:00 AM 11.63 52.934 0.87 7.89 6.57 9.51
2/17/2023 9:30:00 AM 11.67 53.006 0.868 7.89 6.42 9.57
2/17/2023 9:45:00 AM 11.72 53.096 0.865 7.89 6.48 9.64
2/17/2023 10:00:00 AM 11.77 53.186 0.863 7.9 6.55 9.67
2/17/2023 10:15:00 AM 11.82 53.276 0.863 7.9 6.38 9.63
2/17/2023 10:30:00 AM 11.86 53.348 0.864 7.9 6.22 9.64
2/17/2023 10:45:00 AM 11.89 53.402 0.867 7.89 6.2 9.62
2/17/2023 11:00:00 AM 11.93 53.474 0.872 7.89 6.17 9.62
2/17/2023 11:15:00 AM 11.97 53.546 0.879 7.89 6.55 9.68
2/17/2023 11:30:00 AM 11.98 53.564 0.889 7.9 7.29 9.73
2/17/2023 11:45:00 AM 12 53.6 0.9 7.9 6.95 9.85
2/17/2023 12:00:00 PM 12.02 53.636 0.913 7.91 7 9.99
2/17/2023 12:15:00 PM 12.02 53.636 0.923 7.91 7.27 9.96
2/17/2023 12:30:00 PM 12.04 53.672 0.927 7.91 6.72 10.02
2/17/2023 12:45:00 PM 12.07 53.726 0.93 7.92 7.15 10.19
2/17/2023 1:00:00 PM 12.11 53.798 0.932 7.93 7.46 10.42
2/17/2023 1:15:00 PM 12.14 53.852 0.93 7.94 7.52 10.58
2/17/2023 1:30:00 PM 12.14 53.852 0.925 7.94 7.37 10.66
2/17/2023 1:45:00 PM 12.15 53.87 0.916 7.94 7.4 10.73
2/17/2023 2:00:00 PM 12.12 53.816 0.907 7.94 7.53 10.74
2/17/2023 2:15:00 PM 12.12 53.816 0.9 7.94 7.32 10.8
2/17/2023 2:30:00 PM 12.08 53.744 0.894 7.94 7.54 10.84
2/17/2023 2:45:00 PM 12.04 53.672 0.887 7.94 7.91 10.88
2/17/2023 3:00:00 PM 12 53.6 0.883 7.95 8.04 10.94
2/17/2023 3:15:00 PM 11.94 53.492 0.881 7.95 7.55 10.94
2/17/2023 3:30:00 PM 11.87 53.366 0.88 7.95 7.81 10.9
2/17/2023 3:45:00 PM 11.8 53.24 0.879 7.95 7.34 10.91
2/17/2023 4:00:00 PM 11.75 53.15 0.88 7.96 7.1 10.92
2/17/2023 4:15:00 PM 11.69 53.042 0.882 7.96 7.09 10.89
2/17/2023 4:30:00 PM 11.64 52.952 0.883 7.96 7.05 10.86
2/17/2023 4:45:00 PM 11.57 52.826 0.883 7.97 7.03 10.82
2/17/2023 5:00:00 PM 11.51 52.718 0.882 7.97 6.99 10.83
2/17/2023 5:15:00 PM 11.43 52.574 0.881 7.97 6.93 10.77
2/17/2023 5:30:00 PM 11.34 52.412 0.882 7.96 6.85 10.65
2/17/2023 5:45:00 PM 11.26 52.268 0.883 7.95 6.88 10.56
2/17/2023 6:00:00 PM 11.18 52.124 0.885 7.94 6.97 10.45
2/17/2023 6:15:00 PM 11.1 51.98 0.885 7.93 7.31 10.36
2/17/2023 6:30:00 PM 11 51.8 0.886 7.92 7.29 10.27
2/17/2023 6:45:00 PM 10.88 51.584 0.887 7.91 7.41 10.2
2/17/2023 7:00:00 PM 10.79 51.422 0.89 7.9 7.23 10.14
2/17/2023 7:15:00 PM 10.65 51.17 0.892 7.89 7.37 10.08
2/17/2023 7:30:00 PM 10.56 51.008 0.895 7.89 7.31 10.04
2/17/2023 7:45:00 PM 10.45 50.81 0.897 7.88 7.25 10
2/17/2023 8:00:00 PM 10.34 50.612 0.899 7.88 7.14 9.97
2/17/2023 8:15:00 PM 10.24 50.432 0.903 7.86 7.27 9.95
2/17/2023 8:30:00 PM 10.13 50.234 0.907 7.87 7.17 9.93
2/17/2023 8:45:00 PM 10.04 50.072 0.912 7.87 7.59 9.9
2/17/2023 9:00:00 PM 9.94 49.892 0.917 7.86 7.56 9.88
2/17/2023 9:15:00 PM 9.85 49.73 0.921 7.86 7.17 9.86
2/17/2023 9:30:00 PM 9.76 49.568 0.924 7.86 7.01 9.84
2/17/2023 9:45:00 PM 9.68 49.424 0.927 7.86 6.97 9.82
2/17/2023 10:00:00 PM 9.59 49.262 0.93 7.86 6.96 9.8
2/17/2023 10:15:00 PM 9.51 49.118 0.934 7.86 7.24 9.79
2/17/2023 10:30:00 PM 9.43 48.974 0.938 7.86 6.97 9.79
2/17/2023 10:45:00 PM 9.35 48.83 0.943 7.86 6.77 9.8
2/17/2023 11:00:00 PM 9.28 48.704 0.947 7.86 6.69 9.8
2/17/2023 11:15:00 PM 9.21 48.578 0.951 7.85 6.75 9.81
2/17/2023 11:30:00 PM 9.17 48.506 0.955 7.86 6.88 9.82
2/17/2023 11:45:00 PM 9.12 48.416 0.959 7.86 6.5 9.82
2/18/2023 12:00:00 AM 9.08 48.344 0.963 7.86 6.63 9.83
2/18/2023 12:15:00 AM 9.03 48.254 0.966 7.86 6.65 9.83
2/18/2023 12:30:00 AM 8.97 48.146 0.968 7.85 6.55 9.84
2/18/2023 12:45:00 AM 8.91 48.038 0.968 7.86 6.57 9.86
2/18/2023 1:00:00 AM 8.83 47.894 0.968 7.86 6.71 9.88
2/18/2023 1:15:00 AM 8.76 47.768 0.967 7.86 6.84 9.9
2/18/2023 1:30:00 AM 8.69 47.642 0.966 7.86 7.06 9.92
2/18/2023 1:45:00 AM 8.61 47.498 0.966 7.86 7 9.94
2/18/2023 2:00:00 AM 8.53 47.354 0.965 7.86 6.74 9.97
2/18/2023 2:15:00 AM 8.45 47.21 0.964 7.86 7.11 10
2/18/2023 2:30:00 AM 8.38 47.084 0.962 7.86 7.25 10.01
2/18/2023 2:45:00 AM 8.31 46.958 0.961 7.86 7.17 10.04
2/18/2023 3:00:00 AM 8.24 46.832 0.96 7.86 7.8 10.06
2/18/2023 3:15:00 AM 8.18 46.724 0.958 7.87 7.49 10.08
2/18/2023 3:30:00 AM 8.12 46.616 0.957 7.87 7.26 10.1
2/18/2023 3:45:00 AM 8.05 46.49 0.956 7.87 6.91 10.13
2/18/2023 4:00:00 AM 7.98 46.364 0.954 7.87 7.17 10.15
2/18/2023 4:15:00 AM 7.93 46.274 0.951 7.87 7.54 10.18
2/18/2023 4:30:00 AM 7.85 46.13 0.948 7.87 7.68 10.21
2/18/2023 4:45:00 AM 7.79 46.022 0.944 7.87 7.55 10.23
2/18/2023 5:00:00 AM 7.73 45.914 0.94 7.88 7.01 10.26
2/18/2023 5:15:00 AM 7.68 45.824 0.937 7.88 7.01 10.3
2/18/2023 5:30:00 AM 7.62 45.716 0.933 7.88 7.17 10.33
2/18/2023 5:45:00 AM 7.56 45.608 0.927 7.88 7.1 10.36
2/18/2023 6:00:00 AM 7.51 45.518 0.922 7.89 7.04 10.39
2/18/2023 6:15:00 AM 7.46 45.428 0.918 7.89 6.9 10.42
2/18/2023 6:30:00 AM 7.4 45.32 0.914 7.89 6.76 10.45
2/18/2023 6:45:00 AM 7.35 45.23 0.91 7.89 6.82 10.48
2/18/2023 7:00:00 AM 7.3 45.14 0.906 7.9 6.66 10.51
2/18/2023 7:15:00 AM 7.25 45.05 0.903 7.9 6.68 10.58
2/18/2023 7:30:00 AM 7.21 44.978 0.901 7.91 7.2 10.65
2/18/2023 7:45:00 AM 7.18 44.924 0.9 7.91 7.03 10.74
2/18/2023 8:00:00 AM 7.16 44.888 0.9 7.92 7.07 10.85
2/18/2023 8:15:00 AM 7.14 44.852 0.9 7.93 7.17 10.96
2/18/2023 8:30:00 AM 7.13 44.834 0.902 7.94 6.87 11.09
2/18/2023 8:45:00 AM 7.15 44.87 0.903 7.95 6.88 11.24
2/18/2023 9:00:00 AM 7.18 44.924 0.905 7.96 7.04 11.39
2/18/2023 9:15:00 AM 7.24 45.032 0.904 7.98 7.08 11.57
2/18/2023 9:30:00 AM 7.32 45.176 0.903 8 7.31 11.76
2/18/2023 9:45:00 AM 7.42 45.356 0.9 8.02 6.93 11.94
2/18/2023 10:00:00 AM 7.53 45.554 0.897 8.03 6.86 12.11
2/18/2023 10:15:00 AM 7.67 45.806 0.893 8.05 7.03 12.27
2/18/2023 10:30:00 AM 7.8 46.04 0.888 8.06 6.68 12.42
2/18/2023 10:45:00 AM 7.92 46.256 0.885 8.08 7.3 12.53
2/18/2023 11:00:00 AM 8.06 46.508 0.882 8.09 6.87 12.65
2/18/2023 11:15:00 AM 8.21 46.778 0.881 8.1 7.12 12.76
2/18/2023 11:30:00 AM 8.36 47.048 0.881 8.12 7.1 12.87
2/18/2023 11:45:00 AM 8.51 47.318 0.882 8.13 6.86 12.96
2/18/2023 12:00:00 PM 8.7 47.66 0.887 8.15 6.84 13.06
2/18/2023 12:15:00 PM 8.88 47.984 0.895 8.16 7.02 13.15
2/18/2023 12:30:00 PM 9.06 48.308 0.905 8.17 7.65 13.23
2/18/2023 12:45:00 PM 9.26 48.668 0.918 8.18 6.65 13.29
2/18/2023 1:00:00 PM 9.45 49.01 0.933 8.19 6.72 13.35
2/18/2023 1:15:00 PM 9.66 49.388 0.947 8.2 7.12 13.4
2/18/2023 1:30:00 PM 9.83 49.694 0.961 8.21 6.85 13.41
2/18/2023 1:45:00 PM 9.98 49.964 0.974 8.21 6.91 13.42
2/18/2023 2:00:00 PM 10.14 50.252 0.988 8.22 7.73 13.41
2/18/2023 2:15:00 PM 10.27 50.486 1.003 8.22 7.14 13.38
2/18/2023 2:30:00 PM 10.37 50.666 1.015 8.22 7.09 13.32
2/18/2023 2:45:00 PM 10.41 50.738 1.025 8.22 6.91 13.2
2/18/2023 3:00:00 PM 10.48 50.864 1.032 8.22 7.45 13.12
2/18/2023 3:15:00 PM 10.52 50.936 1.038 8.21 7.91 13.02
2/18/2023 3:30:00 PM 10.51 50.918 1.042 8.21 7.54 12.9
2/18/2023 3:45:00 PM 10.51 50.918 1.045 8.2 7.25 12.72
2/18/2023 4:00:00 PM 10.52 50.936 1.047 8.19 7.51 12.56
2/18/2023 4:15:00 PM 10.52 50.936 1.047 8.17 7.43 12.38
2/18/2023 4:30:00 PM 10.5 50.9 1.046 8.16 7.18 12.19
2/18/2023 4:45:00 PM 10.49 50.882 1.046 8.15 7.26 12.03
2/18/2023 5:00:00 PM 10.46 50.828 1.046 8.13 7.48 11.85
2/18/2023 5:15:00 PM 10.44 50.792 1.046 8.12 7.31 11.68
2/18/2023 5:30:00 PM 10.42 50.756 1.045 8.11 7.08 11.52
2/18/2023 5:45:00 PM 10.4 50.72 1.044 8.09 7.54 11.36
2/18/2023 6:00:00 PM 10.36 50.648 1.043 8.08 7.85 11.22
2/18/2023 6:15:00 PM 10.31 50.558 1.043 8.07 7.44 11.1
2/18/2023 6:30:00 PM 10.26 50.468 1.042 8.06 7.69 11
2/18/2023 6:45:00 PM 10.21 50.378 1.041 8.05 7.84 10.91
2/18/2023 7:00:00 PM 10.16 50.288 1.041 8.04 7.57 10.82
2/18/2023 7:15:00 PM 10.11 50.198 1.042 8.03 7.43 10.75
2/18/2023 7:30:00 PM 10.06 50.108 1.043 8.02 7.08 10.67
2/18/2023 7:45:00 PM 9.99 49.982 1.045 8.01 7.09 10.6
2/18/2023 8:00:00 PM 9.93 49.874 1.045 8 7.25 10.51
2/18/2023 8:15:00 PM 9.86 49.748 1.045 7.99 7.11 10.46
2/18/2023 8:30:00 PM 9.79 49.622 1.045 7.98 7.11 10.39
2/18/2023 8:45:00 PM 9.71 49.478 1.047 7.97 6.97 10.31
2/18/2023 9:00:00 PM 9.64 49.352 1.049 7.96 7.25 10.25
2/18/2023 9:15:00 PM 9.56 49.208 1.05 7.95 7.18 10.19
2/18/2023 9:30:00 PM 9.49 49.082 1.052 7.94 7.06 10.14
2/18/2023 9:45:00 PM 9.42 48.956 1.052 7.93 7.38 10.09
2/18/2023 10:00:00 PM 9.34 48.812 1.053 7.93 7.37 10.05
2/18/2023 10:15:00 PM 9.26 48.668 1.056 7.92 7.49 10.01
2/18/2023 10:30:00 PM 9.19 48.542 1.06 7.91 7.57 9.98
2/18/2023 10:45:00 PM 9.13 48.434 1.065 7.91 7.2 9.95
2/18/2023 11:00:00 PM 9.06 48.308 1.07 7.9 7.34 9.94
2/18/2023 11:15:00 PM 9.01 48.218 1.074 7.9 7.72 9.92
2/18/2023 11:30:00 PM 8.95 48.11 1.077 7.89 7.7 9.9
2/18/2023 11:45:00 PM 8.9 48.02 1.078 7.89 7.5 9.9
2/19/2023 12:00:00 AM 8.85 47.93 1.078 7.88 7.18 9.91
2/19/2023 12:15:00 AM 8.8 47.84 1.079 7.88 7.16 9.91
2/19/2023 12:30:00 AM 8.76 47.768 1.079 7.88 7.13 9.91
2/19/2023 12:45:00 AM 8.72 47.696 1.08 7.88 7.45 9.91
2/19/2023 1:00:00 AM 8.69 47.642 1.079 7.87 7.25 9.91
2/19/2023 1:15:00 AM 8.65 47.57 1.078 7.87 7.33 9.91
2/19/2023 1:30:00 AM 8.62 47.516 1.076 7.87 6.94 9.92
2/19/2023 1:45:00 AM 8.59 47.462 1.074 7.87 6.97 9.93
2/19/2023 2:00:00 AM 8.55 47.39 1.071 7.87 6.98 9.93
2/19/2023 2:15:00 AM 8.52 47.336 1.068 7.87 7.28 9.94
2/19/2023 2:30:00 AM 8.49 47.282 1.065 7.86 7.09 9.94
2/19/2023 2:45:00 AM 8.46 47.228 1.061 7.86 7.12 9.96
2/19/2023 3:00:00 AM 8.43 47.174 1.058 7.86 7.81 9.96
2/19/2023 3:15:00 AM 8.41 47.138 1.053 7.86 8.15 9.97
2/19/2023 3:30:00 AM 8.38 47.084 1.049 7.86 7.83 9.99
2/19/2023 3:45:00 AM 8.36 47.048 1.044 7.86 10.38 9.99
2/19/2023 4:00:00 AM 8.34 47.012 1.041 7.86 9.86 10
2/19/2023 4:15:00 AM 8.32 46.976 1.036 7.87 8.59 10.01
2/19/2023 4:30:00 AM 8.3 46.94 1.031 7.87 8.1 10.02
2/19/2023 4:45:00 AM 8.28 46.904 1.026 7.87 7.67 10.03
2/19/2023 5:00:00 AM 8.26 46.868 1.021 7.87 7.55 10.05
2/19/2023 5:15:00 AM 8.24 46.832 1.016 7.87 7.39 10.06
2/19/2023 5:30:00 AM 8.22 46.796 1.01 7.87 7.23 10.08
2/19/2023 5:45:00 AM 8.2 46.76 1.003 7.87 7.13 10.09
2/19/2023 6:00:00 AM 8.19 46.742 0.995 7.87 6.88 10.11
2/19/2023 6:15:00 AM 8.17 46.706 0.986 7.87 7.08 10.13
2/19/2023 6:30:00 AM 8.15 46.67 0.978 7.87 7.06 10.14
2/19/2023 6:45:00 AM 8.12 46.616 0.97 7.88 6.87 10.17
2/19/2023 7:00:00 AM 8.1 46.58 0.963 7.88 6.9 10.19
2/19/2023 7:15:00 AM 8.09 46.562 0.956 7.88 6.95 10.25
2/19/2023 7:30:00 AM 8.08 46.544 0.95 7.89 7.24 10.34
2/19/2023 7:45:00 AM 8.08 46.544 0.947 7.9 7.33 10.44
2/19/2023 8:00:00 AM 8.1 46.58 0.945 7.9 7.45 10.55
2/19/2023 8:15:00 AM 8.13 46.634 0.943 7.91 7.5 10.7
2/19/2023 8:30:00 AM 8.17 46.706 0.943 7.93 7.24 10.89
2/19/2023 8:45:00 AM 8.23 46.814 0.943 7.94 7.2 11.03
2/19/2023 9:00:00 AM 8.29 46.922 0.942 7.96 6.95 11.18
2/19/2023 9:15:00 AM 8.38 47.084 0.941 7.97 6.93 11.35
2/19/2023 9:30:00 AM 8.45 47.21 0.939 7.99 6.82 11.51
2/19/2023 9:45:00 AM 8.54 47.372 0.936 8 7.03 11.65
2/19/2023 10:00:00 AM 8.64 47.552 0.934 8.02 7.1 11.82
2/19/2023 10:15:00 AM 8.74 47.732 0.931 8.03 7.09 11.95
2/19/2023 10:30:00 AM 8.84 47.912 0.928 8.05 7.41 12.08
2/19/2023 10:45:00 AM 8.98 48.164 0.924 8.07 7.3 12.23
2/19/2023 11:00:00 AM 9.14 48.452 0.921 8.08 7.4 12.36
2/19/2023 11:15:00 AM 9.32 48.776 0.92 8.1 7.25 12.47
2/19/2023 11:30:00 AM 9.51 49.118 0.92 8.11 7.03 12.6
2/19/2023 11:45:00 AM 9.63 49.334 0.92 8.13 7.06 12.65
2/19/2023 12:00:00 PM 9.82 49.676 0.922 8.14 7.32 12.76
2/19/2023 12:15:00 PM 10.05 50.09 0.927 8.16 7.27 12.89
2/19/2023 12:30:00 PM 10.24 50.432 0.935 8.17 6.88 12.98
2/19/2023 12:45:00 PM 10.43 50.774 0.947 8.18 6.69 13.02
2/19/2023 1:00:00 PM 10.66 51.188 0.963 8.19 6.63 13.09
2/19/2023 1:15:00 PM 10.86 51.548 0.979 8.2 6.46 13.12
2/19/2023 1:30:00 PM 11.03 51.854 0.996 8.21 6.44 13.12
2/19/2023 1:45:00 PM 11.19 52.142 1.013 8.21 6.44 13.11
2/19/2023 2:00:00 PM 11.33 52.394 1.027 8.22 6.25 13.13
2/19/2023 2:15:00 PM 11.43 52.574 1.039 8.22 6.37 13.05
2/19/2023 2:30:00 PM 11.54 52.772 1.049 8.22 6.84 13.04
2/19/2023 2:45:00 PM 11.61 52.898 1.057 8.22 6.59 12.95
2/19/2023 3:00:00 PM 11.63 52.934 1.065 8.22 6.73 12.79
2/19/2023 3:15:00 PM 11.64 52.952 1.073 8.21 6.79 12.61
2/19/2023 3:30:00 PM 11.64 52.952 1.081 8.2 6.95 12.45
2/19/2023 3:45:00 PM 11.65 52.97 1.089 8.19 6.67 12.33
2/19/2023 4:00:00 PM 11.66 52.988 1.096 8.18 7.13 12.22
2/19/2023 4:15:00 PM 11.68 53.024 1.101 8.18 7.2 12.14
2/19/2023 4:30:00 PM 11.68 53.024 1.103 8.16 6.88 11.93
2/19/2023 4:45:00 PM 11.7 53.06 1.103 8.15 6.78 11.75
2/19/2023 5:00:00 PM 11.72 53.096 1.101 8.14 6.39 11.61
2/19/2023 5:15:00 PM 11.74 53.132 1.1 8.13 6.58 11.42
2/19/2023 5:30:00 PM 11.74 53.132 1.098 8.11 6.9 11.24
2/19/2023 5:45:00 PM 11.71 53.078 1.096 8.1 6.75 11.08
2/19/2023 6:00:00 PM 11.67 53.006 1.095 8.08 7.06 10.91
2/19/2023 6:15:00 PM 11.62 52.916 1.095 8.07 7.64 10.78
2/19/2023 6:30:00 PM 11.56 52.808 1.097 8.06 7.78 10.65
2/19/2023 6:45:00 PM 11.5 52.7 1.1 8.04 7.33 10.54
2/19/2023 7:00:00 PM 11.43 52.574 1.102 8.03 7.12 10.43
2/19/2023 7:15:00 PM 11.35 52.43 1.102 8.02 6.91 10.34
2/19/2023 7:30:00 PM 11.28 52.304 1.1 8.01 6.74 10.26
2/19/2023 7:45:00 PM 11.2 52.16 1.098 8 6.77 10.18
2/19/2023 8:00:00 PM 11.13 52.034 1.096 7.99 6.66 10.09
2/19/2023 8:15:00 PM 11.06 51.908 1.095 7.98 7.03 10.02
2/19/2023 8:30:00 PM 10.99 51.782 1.095 7.97 7.16 9.95
2/19/2023 8:45:00 PM 10.93 51.674 1.095 7.96 6.89 9.88
2/19/2023 9:00:00 PM 10.86 51.548 1.095 7.95 7.14 9.81
2/19/2023 9:15:00 PM 10.78 51.404 1.096 7.94 7.24 9.74
2/19/2023 9:30:00 PM 10.71 51.278 1.096 7.93 6.91 9.69
2/19/2023 9:45:00 PM 10.63 51.134 1.096 7.92 6.94 9.64
2/19/2023 10:00:00 PM 10.55 50.99 1.096 7.92 6.95 9.59
2/19/2023 10:15:00 PM 10.47 50.846 1.097 7.91 6.88 9.55
2/19/2023 10:30:00 PM 10.39 50.702 1.097 7.9 7.15 9.52
2/19/2023 10:45:00 PM 10.32 50.576 1.098 7.9 7.05 9.5
2/19/2023 11:00:00 PM 10.25 50.45 1.101 7.89 7.21 9.48
2/19/2023 11:15:00 PM 10.19 50.342 1.104 7.89 6.94 9.47
2/19/2023 11:30:00 PM 10.13 50.234 1.108 7.88 7.15 9.46
2/19/2023 11:45:00 PM 10.07 50.126 1.11 7.88 7.01 9.45
2/20/2023 12:00:00 AM 10.02 50.036 1.112 7.87 7.06 9.44
2/20/2023 12:15:00 AM 9.97 49.946 1.115 7.87 7.15 9.43
2/20/2023 12:30:00 AM 9.92 49.856 1.117 7.87 7.39 9.44
2/20/2023 12:45:00 AM 9.87 49.766 1.119 7.87 7.37 9.43
2/20/2023 1:00:00 AM 9.83 49.694 1.12 7.86 7.75 9.42
2/20/2023 1:15:00 AM 9.8 49.64 1.121 7.86 8.35 9.42
2/20/2023 1:30:00 AM 9.77 49.586 1.122 7.86 8.43 9.43
2/20/2023 1:45:00 AM 9.74 49.532 1.121 7.86 7.86 9.42
2/20/2023 2:00:00 AM 9.71 49.478 1.12 7.86 7.3 9.43
2/20/2023 2:15:00 AM 9.68 49.424 1.119 7.86 7.38 9.42
2/20/2023 2:30:00 AM 9.65 49.37 1.117 7.86 7.55 9.44
2/20/2023 2:45:00 AM 9.61 49.298 1.114 7.86 7.58 9.44
2/20/2023 3:00:00 AM 9.57 49.226 1.109 7.86 7.54 9.44
2/20/2023 3:15:00 AM 9.54 49.172 1.105 7.86 7.67 9.46
2/20/2023 3:30:00 AM 9.51 49.118 1.1 7.86 7.38 9.47
2/20/2023 3:45:00 AM 9.48 49.064 1.095 7.86 7.18 9.49
2/20/2023 4:00:00 AM 9.45 49.01 1.089 7.86 6.78 9.5
2/20/2023 4:15:00 AM 9.42 48.956 1.083 7.86 7.28 9.5
2/20/2023 4:30:00 AM 9.4 48.92 1.076 7.86 7.54 9.52
2/20/2023 4:45:00 AM 9.37 48.866 1.068 7.86 6.74 9.54
2/20/2023 5:00:00 AM 9.35 48.83 1.059 7.87 6.71 9.55
2/20/2023 5:15:00 AM 9.33 48.794 1.05 7.87 6.73 9.57
2/20/2023 5:30:00 AM 9.31 48.758 1.039 7.87 6.84 9.58
2/20/2023 5:45:00 AM 9.3 48.74 1.029 7.87 6.84 9.6
2/20/2023 6:00:00 AM 9.28 48.704 1.019 7.87 6.93 9.62
2/20/2023 6:15:00 AM 9.26 48.668 1.011 7.87 6.78 9.64
2/20/2023 6:30:00 AM 9.24 48.632 1.003 7.88 6.78 9.66
2/20/2023 6:45:00 AM 9.22 48.596 0.995 7.88 6.68 9.67
2/20/2023 7:00:00 AM 9.2 48.56 0.988 7.88 6.41 9.7
2/20/2023 7:15:00 AM 9.18 48.524 0.981 7.88 6.5 9.74
2/20/2023 7:30:00 AM 9.16 48.488 0.976 7.89 6.58 9.82
2/20/2023 7:45:00 AM 9.15 48.47 0.973 7.89 6.77 9.93
2/20/2023 8:00:00 AM 9.16 48.488 0.972 7.9 7.62 10.04
2/20/2023 8:15:00 AM 9.18 48.524 0.972 7.91 6.87 10.18
2/20/2023 8:30:00 AM 9.21 48.578 0.974 7.92 6.84 10.29
2/20/2023 8:45:00 AM 9.26 48.668 0.976 7.93 6.8 10.41
2/20/2023 9:15:00 AM 9.37 48.866 0.977 7.95 4.82 10.73
2/20/2023 9:30:00 AM 9.45 49.01 0.976 7.97 4.59 10.89
2/20/2023 9:45:00 AM 9.52 49.136 0.973 7.98 4.58 11.04
2/20/2023 10:00:00 AM 9.6 49.28 0.97 7.99 4.51 11.16
2/20/2023 10:15:00 AM 9.69 49.442 0.967 8.01 4.52 11.31
2/20/2023 10:30:00 AM 9.86 49.748 0.963 8.03 4.6 11.56
2/20/2023 10:45:00 AM 10.01 50.018 0.96 8.05 4.54 11.8
2/20/2023 11:00:00 AM 10.16 50.288 0.959 8.07 4.79 11.93
2/20/2023 11:15:00 AM 10.3 50.54 0.962 8.08 4.85 11.99
2/20/2023 11:30:00 AM 10.54 50.972 0.968 8.09 5.19 12.13
2/20/2023 11:45:00 AM 10.74 51.332 0.978 8.11 4.67 12.29
2/20/2023 12:00:00 PM 10.96 51.728 0.989 8.13 4.65 12.42
2/20/2023 12:15:00 PM 11.13 52.034 1.003 8.14 4.61 12.45
2/20/2023 12:30:00 PM 11.36 52.448 1.018 8.15 4.67 12.55
2/20/2023 12:45:00 PM 11.6 52.88 1.032 8.16 4.68 12.75
2/20/2023 1:00:00 PM 11.81 53.258 1.047 8.17 4.95 12.79
2/20/2023 1:15:00 PM 12.01 53.618 1.062 8.18 5.06 12.83
2/20/2023 1:30:00 PM 12.15 53.87 1.075 8.19 4.88 12.81
2/20/2023 1:45:00 PM 12.21 53.978 1.086 8.19 4.89 12.66
2/20/2023 2:00:00 PM 12.35 54.23 1.093 8.19 4.77 12.6
2/20/2023 2:15:00 PM 12.55 54.59 1.096 8.21 4.85 12.74
2/20/2023 2:30:00 PM 12.54 54.572 1.098 8.2 4.78 12.49
2/20/2023 2:45:00 PM 12.57 54.626 1.099 8.19 4.88 12.35
2/20/2023 3:00:00 PM 12.65 54.77 1.098 8.19 5.04 12.28
2/20/2023 3:15:00 PM 12.69 54.842 1.095 8.19 4.82 12.16
2/20/2023 3:30:00 PM 12.7 54.86 1.091 8.18 4.67 12.02
2/20/2023 3:45:00 PM 12.72 54.896 1.087 8.18 4.71 11.91
2/20/2023 4:00:00 PM 12.72 54.896 1.085 8.16 4.82 11.72
2/20/2023 4:15:00 PM 12.72 54.896 1.083 8.15 4.71 11.52
2/20/2023 4:30:00 PM 12.75 54.95 1.079 8.14 4.67 11.39
2/20/2023 4:45:00 PM 12.75 54.95 1.075 8.14 4.61 11.32
2/20/2023 5:00:00 PM 12.72 54.896 1.071 8.12 4.9 11.12
2/20/2023 5:15:00 PM 12.7 54.86 1.067 8.11 4.65 10.93
2/20/2023 5:30:00 PM 12.66 54.788 1.063 8.09 4.85 10.75
2/20/2023 5:45:00 PM 12.62 54.716 1.06 8.08 4.6 10.56
2/20/2023 6:00:00 PM 12.57 54.626 1.058 8.06 4.96 10.4
2/20/2023 6:15:00 PM 12.52 54.536 1.055 8.05 5.34 10.25
2/20/2023 6:30:00 PM 12.46 54.428 1.051 8.03 5.35 10.13
2/20/2023 6:45:00 PM 12.4 54.32 1.048 8.02 5.22 10.02
2/20/2023 7:00:00 PM 12.34 54.212 1.045 8.01 5.3 9.91
2/20/2023 7:15:00 PM 12.29 54.122 1.043 8 5.33 9.82
2/20/2023 7:30:00 PM 12.24 54.032 1.043 7.99 5.16 9.72
2/20/2023 7:45:00 PM 12.19 53.942 1.044 7.97 5.09 9.63
2/20/2023 8:00:00 PM 12.15 53.87 1.045 7.96 5.09 9.55
2/20/2023 8:15:00 PM 12.11 53.798 1.046 7.95 5.13 9.48
2/20/2023 8:30:00 PM 12.07 53.726 1.044 7.94 5.25 9.41
2/20/2023 8:45:00 PM 12.03 53.654 1.041 7.93 5.24 9.35
2/20/2023 9:00:00 PM 11.96 53.528 1.038 7.93 5.25 9.29
2/20/2023 9:15:00 PM 11.89 53.402 1.036 7.92 5.18 9.23
2/20/2023 9:30:00 PM 11.81 53.258 1.037 7.91 5.31 9.18
2/20/2023 9:45:00 PM 11.74 53.132 1.04 7.9 5.32 9.15
2/20/2023 10:00:00 PM 11.68 53.024 1.044 7.9 5.23 9.11
2/20/2023 10:15:00 PM 11.62 52.916 1.047 7.89 5.31 9.08
2/20/2023 10:30:00 PM 11.57 52.826 1.049 7.88 5.14 9.06
2/20/2023 10:45:00 PM 11.51 52.718 1.052 7.88 5.17 9.03
2/20/2023 11:00:00 PM 11.45 52.61 1.057 7.87 5.3 9.01
2/20/2023 11:15:00 PM 11.4 52.52 1.062 7.87 5.34 9
2/20/2023 11:30:00 PM 11.36 52.448 1.067 7.87 5.25 8.99
2/20/2023 11:45:00 PM 11.32 52.376 1.071 7.86 5.4 8.97
2/21/2023 12:00:00 AM 11.3 52.34 1.075 7.86 5.33 8.96
2/21/2023 12:15:00 AM 11.28 52.304 1.078 7.86 5.28 8.94
2/21/2023 12:30:00 AM 11.25 52.25 1.079 7.85 5.28 8.94
2/21/2023 12:45:00 AM 11.22 52.196 1.08 7.85 5.28 8.94
2/21/2023 1:00:00 AM 11.18 52.124 1.081 7.85 5.26 8.93
2/21/2023 1:15:00 AM 11.15 52.07 1.08 7.85 5.22 8.94
2/21/2023 1:30:00 AM 11.12 52.016 1.079 7.85 5.42 8.93
2/21/2023 1:45:00 AM 11.1 51.98 1.076 7.85 5.06 8.94
2/21/2023 2:00:00 AM 11.07 51.926 1.072 7.85 4.97 8.94
2/21/2023 2:15:00 AM 11.04 51.872 1.066 7.85 5.09 8.95
2/21/2023 2:30:00 AM 11.01 51.818 1.06 7.85 5.07 8.96
2/21/2023 2:45:00 AM 10.98 51.764 1.052 7.85 5.13 8.99
2/21/2023 3:00:00 AM 10.95 51.71 1.044 7.85 5.31 9.01
2/21/2023 3:15:00 AM 10.92 51.656 1.036 7.85 5.71 9.02
2/21/2023 3:30:00 AM 10.9 51.62 1.026 7.85 5.75 9.04
2/21/2023 3:45:00 AM 10.87 51.566 1.017 7.85 5.92 9.05
2/21/2023 4:00:00 AM 10.85 51.53 1.009 7.85 5.65 9.05
2/21/2023 4:15:00 AM 10.83 51.494 1.001 7.85 5.58 9.05
2/21/2023 4:30:00 AM 10.81 51.458 0.992 7.85 5.66 9.06
2/21/2023 4:45:00 AM 10.77 51.386 0.982 7.85 5.48 9.07
2/21/2023 5:00:00 AM 10.74 51.332 0.97 7.85 5.58 9.09
2/21/2023 5:15:00 AM 10.7 51.26 0.957 7.85 5.35 9.11
2/21/2023 5:30:00 AM 10.66 51.188 0.945 7.86 5.73 9.13
2/21/2023 5:45:00 AM 10.63 51.134 0.933 7.86 6.11 9.15
2/21/2023 6:00:00 AM 10.59 51.062 0.921 7.86 6.2 9.17
2/21/2023 6:15:00 AM 10.55 50.99 0.911 7.86 6.48 9.2
2/21/2023 6:30:00 AM 10.53 50.954 0.905 7.86 6.54 9.22
2/21/2023 6:45:00 AM 10.52 50.936 0.9 7.86 6.36 9.23
2/21/2023 7:00:00 AM 10.51 50.918 0.897 7.86 6.45 9.25
2/21/2023 7:15:00 AM 10.5 50.9 0.894 7.86 6.25 9.28
2/21/2023 7:30:00 AM 10.48 50.864 0.89 7.87 5.96 9.35
2/21/2023 7:45:00 AM 10.48 50.864 0.886 7.87 5.86 9.48
2/21/2023 8:00:00 AM 10.48 50.864 0.88 7.88 5.53 9.62
2/21/2023 8:15:00 AM 10.49 50.882 0.874 7.89 5.53 9.81
2/21/2023 8:30:00 AM 10.52 50.936 0.869 7.91 5.58 10.04
2/21/2023 8:45:00 AM 10.54 50.972 0.865 7.92 5.19 10.17
2/21/2023 9:00:00 AM 10.55 50.99 0.86 7.91 5.02 10.1
2/21/2023 9:15:00 AM 10.6 51.08 0.854 7.92 5.07 10.29
2/21/2023 9:30:00 AM 10.62 51.116 0.848 7.91 5.06 10.38
2/21/2023 9:45:00 AM 10.65 51.17 0.842 7.91 5.26 10.49
2/21/2023 10:15:00 AM 10.84 51.512 0.829 7.93 5.48 10.9
2/21/2023 10:30:00 AM 10.94 51.692 0.826 7.93 5.87 11.06
2/21/2023 10:45:00 AM 11.02 51.836 0.828 7.94 5.89 11.16
2/21/2023 11:00:00 AM 11.12 52.016 0.836 7.95 5.82 11.24
2/21/2023 11:15:00 AM 11.27 52.286 0.848 7.97 5.65 11.49
2/21/2023 11:30:00 AM 11.41 52.538 0.864 7.99 5.63 11.7
2/21/2023 11:45:00 AM 11.53 52.754 0.885 8.01 5.45 11.81
2/21/2023 12:00:00 PM 11.66 52.988 0.908 8.02 5.39 11.82
2/21/2023 12:15:00 PM -99999.99 -179968 -99999.99 -99999.99 -99999.99 -99999.99
2/21/2023 12:30:00 PM 11.92 53.456 0.959 8.04 5.04 11.97
2/21/2023 12:45:00 PM 12.04 53.672 0.982 8.07 5.17 12.16
2/21/2023 1:00:00 PM 12.09 53.762 0.998 8.07 5.3 12.02
2/21/2023 1:15:00 PM 12.21 53.978 1.005 8.08 5.21 12.08
2/21/2023 1:30:00 PM 12.34 54.212 1.004 8.11 5.27 12.26
2/21/2023 1:45:00 PM 12.47 54.446 0.999 8.13 5.27 12.35
2/21/2023 2:00:00 PM 12.58 54.644 0.994 8.14 5.36 12.34
2/21/2023 2:15:00 PM 12.72 54.896 0.988 8.16 5.42 12.46
2/21/2023 2:30:00 PM 12.83 55.094 0.983 8.18 5.28 12.52
2/21/2023 2:45:00 PM 12.86 55.148 0.98 8.18 5.06 12.35
2/21/2023 3:00:00 PM 12.88 55.184 0.981 8.17 5.21 12.13
2/21/2023 3:15:00 PM 12.91 55.238 0.986 8.17 5.31 12.09
2/21/2023 3:30:00 PM 12.88 55.184 0.992 8.17 5.49 12.04
2/21/2023 3:45:00 PM 12.84 55.112 0.994 8.16 5.76 11.92
2/21/2023 4:00:00 PM 12.82 55.076 0.991 8.16 5.89 11.81
2/21/2023 4:15:00 PM 12.79 55.022 0.986 8.15 5.83 11.64
2/21/2023 4:30:00 PM 12.75 54.95 0.982 8.14 5.62 11.41
2/21/2023 4:45:00 PM 12.69 54.842 0.981 8.12 5.63 11.23
2/21/2023 5:00:00 PM 12.61 54.698 0.982 8.11 5.31 11.04
2/21/2023 5:15:00 PM 12.54 54.572 0.988 8.09 5.27 10.87
2/21/2023 5:30:00 PM 12.5 54.5 0.996 8.07 5.43 10.7
2/21/2023 5:45:00 PM 12.46 54.428 1.005 8.06 5.35 10.54
2/21/2023 6:00:00 PM 12.42 54.356 1.012 8.04 5.4 10.36
2/21/2023 6:15:00 PM 12.36 54.248 1.015 8.02 5.64 10.2
2/21/2023 6:30:00 PM 12.29 54.122 1.011 8.01 6.04 10.07
2/21/2023 6:45:00 PM 12.21 53.978 1.002 8 6.06 9.96
2/21/2023 7:00:00 PM 12.12 53.816 0.991 7.99 5.67 9.86
2/21/2023 7:15:00 PM 12.02 53.636 0.981 7.98 5.5 9.79
2/21/2023 7:30:00 PM 11.92 53.456 0.972 7.98 5.44 9.73
2/21/2023 7:45:00 PM 11.81 53.258 0.966 7.97 5.39 9.67
2/21/2023 8:00:00 PM 11.7 53.06 0.962 7.96 5.41 9.61
2/21/2023 8:15:00 PM 11.6 52.88 0.959 7.95 5.45 9.55
2/21/2023 8:30:00 PM 11.5 52.7 0.958 7.95 5.54 9.48
2/21/2023 8:45:00 PM 11.41 52.538 0.959 7.94 5.67 9.41
2/21/2023 9:00:00 PM 11.31 52.358 0.961 7.93 5.7 9.35
2/21/2023 9:15:00 PM 11.22 52.196 0.963 7.92 5.97 9.29
2/21/2023 9:30:00 PM 11.13 52.034 0.965 7.91 5.67 9.25
2/21/2023 9:45:00 PM 11.06 51.908 0.968 7.9 5.67 9.21
2/21/2023 10:00:00 PM 10.97 51.746 0.972 7.9 5.53 9.17
2/21/2023 10:15:00 PM 10.88 51.584 0.977 7.89 5.58 9.15
2/21/2023 10:30:00 PM 10.8 51.44 0.983 7.89 5.65 9.13
2/21/2023 10:45:00 PM 10.71 51.278 0.992 7.88 6.58 9.11
2/21/2023 11:00:00 PM 10.64 51.152 1.003 7.87 6.71 9.1
2/21/2023 11:15:00 PM 10.56 51.008 1.016 7.87 8.05 9.08
2/21/2023 11:30:00 PM 10.49 50.882 1.03 7.86 5.74 9.08
2/21/2023 11:45:00 PM 10.42 50.756 1.043 7.86 5.65 9.07
2/22/2023 12:00:00 AM 10.35 50.63 1.051 7.86 5.65 9.07
2/22/2023 12:15:00 AM 10.27 50.486 1.054 7.86 6.07 9.08
2/22/2023 12:30:00 AM 10.19 50.342 1.052 7.86 5.71 9.11
2/22/2023 12:45:00 AM 10.11 50.198 1.048 7.85 5.96 9.13
2/22/2023 1:00:00 AM 10.03 50.054 1.044 7.85 5.75 9.16
2/22/2023 1:15:00 AM 9.96 49.928 1.042 7.84 5.54 9.17
2/22/2023 1:30:00 AM 9.89 49.802 1.041 7.85 5.57 9.21
2/22/2023 1:45:00 AM 9.82 49.676 1.039 7.85 5.48 9.22
2/22/2023 2:00:00 AM 9.75 49.55 1.036 7.85 5.62 9.25
2/22/2023 2:15:00 AM 9.68 49.424 1.033 7.85 5.35 9.28
2/22/2023 2:30:00 AM 9.61 49.298 1.03 7.85 5.43 9.3
2/22/2023 2:45:00 AM 9.54 49.172 1.027 7.85 5.62 9.32
2/22/2023 3:00:00 AM 9.48 49.064 1.024 7.85 5.73 9.33
2/22/2023 3:15:00 AM 9.42 48.956 1.023 7.85 5.69 9.35
2/22/2023 3:30:00 AM 9.37 48.866 1.024 7.85 5.89 9.36
2/22/2023 3:45:00 AM 9.32 48.776 1.026 7.85 6.19 9.37
2/22/2023 4:00:00 AM 9.27 48.686 1.027 7.85 6.06 9.38
2/22/2023 4:15:00 AM 9.22 48.596 1.025 7.85 6.06 9.4
2/22/2023 4:30:00 AM 9.16 48.488 1.017 7.86 5.98 9.42
2/22/2023 4:45:00 AM 9.09 48.362 1.003 7.86 5.56 9.46
2/22/2023 5:00:00 AM 9.03 48.254 0.988 7.86 5.67 9.5
2/22/2023 5:15:00 AM 8.96 48.128 0.973 7.86 5.48 9.54
2/22/2023 5:30:00 AM 8.9 48.02 0.96 7.86 5.52 9.58
2/22/2023 5:45:00 AM 8.84 47.912 0.948 7.87 5.49 9.62
2/22/2023 6:00:00 AM 8.79 47.822 0.938 7.87 5.2 9.65
2/22/2023 6:15:00 AM 8.75 47.75 0.93 7.87 5.29 9.68
2/22/2023 6:30:00 AM 8.72 47.696 0.923 7.87 5.19 9.71
2/22/2023 6:45:00 AM 8.69 47.642 0.917 7.88 5.08 9.73
2/22/2023 7:00:00 AM 8.67 47.606 0.912 7.88 5.01 9.75
2/22/2023 7:15:00 AM 8.66 47.588 0.907 7.88 4.97 9.8
2/22/2023 7:30:00 AM 8.65 47.57 0.903 7.88 4.92 9.87
2/22/2023 7:45:00 AM 8.65 47.57 0.901 7.89 4.93 9.95
2/22/2023 8:00:00 AM 8.68 47.624 0.9 7.9 5.05 10.06
2/22/2023 8:15:00 AM 8.71 47.678 0.901 7.91 5.22 10.18
2/22/2023 8:30:00 AM 8.75 47.75 0.902 7.92 5.17 10.33
2/22/2023 8:45:00 AM 8.81 47.858 0.903 7.93 5.19 10.53
2/22/2023 9:00:00 AM 8.86 47.948 0.905 7.94 4.92 10.64
2/22/2023 9:15:00 AM 8.92 48.056 0.905 7.95 4.92 10.67
2/22/2023 9:30:00 AM 8.96 48.128 0.905 7.95 4.72 10.65
2/22/2023 9:45:00 AM 9 48.2 0.903 7.95 4.65 10.63
2/22/2023 10:00:00 AM 9.04 48.272 0.901 7.95 4.79 10.65
2/22/2023 10:15:00 AM 9.08 48.344 0.899 7.95 4.85 10.72
2/22/2023 10:30:00 AM 9.12 48.416 0.897 7.96 4.95 10.73
2/22/2023 10:45:00 AM 9.16 48.488 0.895 7.96 4.81 10.75
2/22/2023 11:00:00 AM 9.22 48.596 0.896 7.97 4.92 10.84
2/22/2023 11:15:00 AM 9.28 48.704 0.9 7.98 4.68 10.97
2/22/2023 11:30:00 AM 9.32 48.776 0.908 7.98 4.47 11.06
2/22/2023 11:45:00 AM 9.33 48.794 0.918 7.99 4.79 11.07
2/22/2023 12:00:00 PM 9.41 48.938 0.932 7.99 5.17 11.05
2/22/2023 12:15:00 PM 9.52 49.136 0.947 8 5.06 11.18
2/22/2023 12:30:00 PM 9.61 49.298 0.963 8 5.09 11.18
2/22/2023 12:45:00 PM 9.71 49.478 0.978 8 5.17 11.18
2/22/2023 1:00:00 PM 9.8 49.64 0.989 8.01 5.43 11.21
2/22/2023 1:15:00 PM 9.86 49.748 0.996 8 8.94 11.13
2/22/2023 1:30:00 PM 9.92 49.856 1 8.01 5 11.15
2/22/2023 1:45:00 PM 9.99 49.982 1.001 8.01 4.99 11.15
2/22/2023 2:00:00 PM 10.04 50.072 1.001 8.01 5.6 11.08
2/22/2023 2:15:00 PM 10.11 50.198 1 8.01 5.56 11.13
2/22/2023 2:30:00 PM 10.17 50.306 0.998 8.02 5.07 11.21
2/22/2023 2:45:00 PM 10.24 50.432 0.997 8.03 5.2 11.31
2/22/2023 3:00:00 PM 10.28 50.504 0.998 8.03 4.98 11.28
2/22/2023 3:15:00 PM 10.32 50.576 1 8.03 5.38 11.25
2/22/2023 3:30:00 PM 10.36 50.648 1.006 8.03 5.34 11.22
2/22/2023 3:45:00 PM 10.4 50.72 1.011 8.03 5.47 11.16
2/22/2023 4:00:00 PM 10.44 50.792 1.016 8.03 5.23 11.13
2/22/2023 4:15:00 PM 10.47 50.846 1.02 8.02 5.43 11.03
2/22/2023 4:30:00 PM 10.49 50.882 1.024 8.01 5.28 10.94
2/22/2023 4:45:00 PM 10.5 50.9 1.025 8.01 5.18 10.84
2/22/2023 5:00:00 PM 10.5 50.9 1.024 8 5.12 10.75
2/22/2023 5:15:00 PM 10.49 50.882 1.018 8 5.11 10.64
2/22/2023 5:30:00 PM 10.46 50.828 1.009 7.99 5.32 10.54
2/22/2023 5:45:00 PM 10.44 50.792 1 7.98 5.56 10.45
2/22/2023 6:00:00 PM 10.41 50.738 0.995 7.98 5.59 10.36
2/22/2023 6:15:00 PM 10.39 50.702 0.994 7.97 5.54 10.27
2/22/2023 6:30:00 PM 10.37 50.666 0.995 7.96 5.28 10.19
2/22/2023 6:45:00 PM 10.36 50.648 0.996 7.95 5.13 10.12
2/22/2023 7:00:00 PM 10.35 50.63 0.996 7.95 4.97 10.05
2/22/2023 7:15:00 PM 10.34 50.612 0.997 7.94 5.11 9.98
2/22/2023 7:30:00 PM 10.33 50.594 0.999 7.93 4.95 9.91
2/22/2023 7:45:00 PM 10.32 50.576 1.002 7.93 4.88 9.83
2/22/2023 8:00:00 PM 10.29 50.522 1.006 7.92 4.89 9.76
2/22/2023 8:15:00 PM 10.27 50.486 1.009 7.91 4.86 9.69
2/22/2023 8:30:00 PM 10.24 50.432 1.012 7.9 4.93 9.63
2/22/2023 8:45:00 PM 10.2 50.36 1.015 7.89 4.97 9.57
2/22/2023 9:00:00 PM 10.17 50.306 1.018 7.89 5.08 9.52
2/22/2023 9:15:00 PM 10.14 50.252 1.021 7.88 5.14 9.47
2/22/2023 9:30:00 PM 10.12 50.216 1.024 7.87 5.04 9.43
2/22/2023 9:45:00 PM 10.09 50.162 1.026 7.87 5.06 9.39
2/22/2023 10:00:00 PM 10.07 50.126 1.028 7.86 5.14 9.36
2/22/2023 10:15:00 PM 10.06 50.108 1.03 7.86 5.01 9.33
2/22/2023 10:30:00 PM 10.05 50.09 1.032 7.86 5.31 9.31
2/22/2023 10:45:00 PM 10.04 50.072 1.034 7.86 5.21 9.29
2/22/2023 11:00:00 PM 10.04 50.072 1.038 7.85 5.2 9.27
2/22/2023 11:15:00 PM 10.04 50.072 1.042 7.85 5.01 9.25
2/22/2023 11:30:00 PM 10.04 50.072 1.045 7.85 4.93 9.24
2/22/2023 11:45:00 PM 10.03 50.054 1.048 7.85 4.96 9.23
2/23/2023 12:00:00 AM 10.03 50.054 1.051 7.85 4.88 9.23
2/23/2023 12:15:00 AM 10.04 50.072 1.054 7.85 5.1 9.23
2/23/2023 12:30:00 AM 10.04 50.072 1.057 7.85 5.15 9.22
2/23/2023 12:45:00 AM 10.04 50.072 1.059 7.85 5.2 9.22
2/23/2023 1:00:00 AM 10.04 50.072 1.06 7.85 5.23 9.21
2/23/2023 1:15:00 AM 10.03 50.054 1.06 7.85 5.21 9.22
2/23/2023 1:30:00 AM 10.03 50.054 1.06 7.86 5.05 9.21
2/23/2023 1:45:00 AM 10.03 50.054 1.06 7.86 5.05 9.21
2/23/2023 2:00:00 AM 10.03 50.054 1.059 7.86 5.2 9.21
2/23/2023 2:15:00 AM 10.03 50.054 1.058 7.86 5.56 9.2
2/23/2023 2:30:00 AM 10.02 50.036 1.057 7.86 5.63 9.21
2/23/2023 2:45:00 AM 10.02 50.036 1.056 7.86 5.78 9.19
2/23/2023 3:00:00 AM 10.02 50.036 1.056 7.86 5.55 9.19
2/23/2023 3:15:00 AM 10.01 50.018 1.058 7.86 5.34 9.19
2/23/2023 3:30:00 AM 10.01 50.018 1.061 7.86 5.42 9.17
2/23/2023 3:45:00 AM 10.01 50.018 1.064 7.86 5.31 9.17
2/23/2023 4:00:00 AM 10.01 50.018 1.065 7.86 5.21 9.16
2/23/2023 4:15:00 AM 10.01 50.018 1.062 7.86 5.08 9.17
2/23/2023 4:45:00 AM 9.98 49.964 1.039 7.87 5.27 9.19
2/23/2023 5:00:00 AM 9.95 49.91 1.024 7.87 5.07 9.21
2/23/2023 5:15:00 AM 9.93 49.874 1.01 7.87 5.13 9.22
2/23/2023 5:30:00 AM 9.91 49.838 0.997 7.87 5.32 9.26
2/23/2023 5:45:00 AM 9.89 49.802 0.986 7.87 5.38 9.27
2/23/2023 6:00:00 AM 9.87 49.766 0.976 7.87 5.42 9.28
2/23/2023 6:15:00 AM 9.85 49.73 0.967 7.88 5.53 9.31
2/23/2023 6:30:00 AM 9.83 49.694 0.959 7.88 5.36 9.33
2/23/2023 6:45:00 AM 9.81 49.658 0.953 7.88 5.2 9.34
2/23/2023 7:00:00 AM 9.78 49.604 0.948 7.88 5.16 9.37
2/23/2023 7:15:00 AM 9.76 49.568 0.942 7.88 5.14 9.44
2/23/2023 7:30:00 AM 9.76 49.568 0.937 7.89 5.1 9.52
2/23/2023 7:45:00 AM 9.77 49.586 0.933 7.9 5.34 9.65
2/23/2023 8:00:00 AM 9.79 49.622 0.93 7.91 5.4 9.78
2/23/2023 8:15:00 AM 9.83 49.694 0.929 7.92 5.26 10
2/23/2023 8:30:00 AM 9.88 49.784 0.929 7.93 4.93 10.11
2/23/2023 8:45:00 AM 9.94 49.892 0.93 7.94 5.05 10.28
2/23/2023 9:00:00 AM 10.02 50.036 0.933 7.96 5.26 10.51
2/23/2023 9:15:00 AM 10.11 50.198 0.936 7.97 5.2 10.68
2/23/2023 9:30:00 AM 10.23 50.414 0.936 7.99 5.28 10.91
2/23/2023 9:45:00 AM 10.34 50.612 0.934 8.01 5.19 11.1
2/23/2023 10:00:00 AM 10.48 50.864 0.931 8.02 4.9 11.28
2/23/2023 10:15:00 AM 10.63 51.134 0.929 8.04 4.71 11.44
2/23/2023 10:30:00 AM 10.78 51.404 0.932 8.05 4.83 11.58
2/23/2023 10:45:00 AM 10.94 51.692 0.941 8.07 4.94 11.7
2/23/2023 11:00:00 AM 11.12 52.016 0.953 8.08 4.91 11.83
2/23/2023 11:15:00 AM 11.33 52.394 0.966 8.09 5.08 11.95
2/23/2023 11:30:00 AM 11.54 52.772 0.974 8.11 4.84 12.09
2/23/2023 11:45:00 AM 11.76 53.168 0.981 8.12 4.97 12.2
2/23/2023 12:00:00 PM 11.99 53.582 0.99 8.13 5.14 12.31
2/23/2023 12:15:00 PM 12.21 53.978 1.004 8.14 5.37 12.39
2/23/2023 12:30:00 PM 12.44 54.392 1.021 8.16 4.96 12.48
2/23/2023 12:45:00 PM 12.67 54.806 1.039 8.16 4.89 12.54
2/23/2023 1:00:00 PM 12.9 55.22 1.052 8.17 4.88 12.59
2/23/2023 1:15:00 PM 13.11 55.598 1.061 8.18 4.94 12.61
2/23/2023 1:30:00 PM 13.31 55.958 1.068 8.19 5.47 12.62
2/23/2023 1:45:00 PM 13.49 56.282 1.075 8.19 4.92 12.63
2/23/2023 2:00:00 PM 13.67 56.606 1.082 8.2 4.88 12.62
2/23/2023 2:15:00 PM 13.83 56.894 1.086 8.21 4.82 12.58
2/23/2023 2:30:00 PM 13.96 57.128 1.087 8.21 4.76 12.51
2/23/2023 2:45:00 PM 14.06 57.308 1.085 8.21 4.83 12.42
2/23/2023 3:00:00 PM 14.14 57.452 1.083 8.21 4.99 12.29
2/23/2023 3:15:00 PM 14.2 57.56 1.084 8.2 4.83 12.12
2/23/2023 3:30:00 PM 14.24 57.632 1.085 8.19 4.83 11.94
2/23/2023 3:45:00 PM 14.26 57.668 1.084 8.18 4.78 11.73
2/23/2023 4:00:00 PM 14.27 57.686 1.08 8.16 4.93 11.51
2/23/2023 4:15:00 PM 14.27 57.686 1.072 8.15 4.8 11.29
2/23/2023 4:30:00 PM 14.26 57.668 1.061 8.14 4.69 11.04
2/23/2023 4:45:00 PM 14.25 57.65 1.052 8.12 4.67 10.79
2/23/2023 5:00:00 PM 14.23 57.614 1.046 8.1 4.49 10.55
2/23/2023 5:15:00 PM 14.21 57.578 1.043 8.08 4.52 10.31
2/23/2023 5:30:00 PM 14.18 57.524 1.042 8.06 4.42 10.1
2/23/2023 5:45:00 PM 14.15 57.47 1.041 8.05 4.54 9.9
2/23/2023 6:00:00 PM 14.11 57.398 1.039 8.03 4.43 9.72
2/23/2023 6:15:00 PM 14.07 57.326 1.033 8.02 4.51 9.56
2/23/2023 6:30:00 PM 14.02 57.236 1.028 8.01 4.8 9.43
2/23/2023 6:45:00 PM 13.97 57.146 1.024 7.99 4.98 9.31
2/23/2023 7:00:00 PM 13.92 57.056 1.026 7.98 5.14 9.2
2/23/2023 7:15:00 PM 13.86 56.948 1.033 7.97 5.12 9.09
2/23/2023 7:30:00 PM 13.82 56.876 1.042 7.96 5.2 8.99
2/23/2023 7:45:00 PM 13.76 56.768 1.048 7.95 5.13 8.9
2/23/2023 8:00:00 PM 13.7 56.66 1.049 7.94 5.2 8.81
2/23/2023 8:15:00 PM 13.63 56.534 1.044 7.93 5.24 8.74
2/23/2023 8:30:00 PM 13.55 56.39 1.034 7.92 5.22 8.66
2/23/2023 8:45:00 PM 13.46 56.228 1.025 7.91 5.05 8.6
2/23/2023 9:00:00 PM 13.38 56.084 1.018 7.9 5.14 8.53
2/23/2023 9:15:00 PM 13.3 55.94 1.014 7.9 5.17 8.47
2/23/2023 9:30:00 PM 13.22 55.796 1.013 7.89 5.2 8.42
2/23/2023 9:45:00 PM 13.14 55.652 1.014 7.88 5.31 8.37
2/23/2023 10:00:00 PM 13.08 55.544 1.014 7.87 5.29 8.33
2/23/2023 10:15:00 PM 13.01 55.418 1.015 7.87 5.22 8.3
2/23/2023 10:30:00 PM 12.94 55.292 1.017 7.86 5.16 8.27
2/23/2023 10:45:00 PM 12.87 55.166 1.02 7.86 5.16 8.25
2/23/2023 11:00:00 PM 12.81 55.058 1.023 7.85 5.26 8.24
2/23/2023 11:15:00 PM 12.74 54.932 1.026 7.85 5.43 8.24
2/23/2023 11:30:00 PM 12.66 54.788 1.03 7.85 5.54 8.24
2/23/2023 11:45:00 PM 12.59 54.662 1.034 7.84 5.38 8.24
2/24/2023 12:00:00 AM 12.52 54.536 1.037 7.84 5.54 8.25
2/24/2023 12:15:00 AM 12.46 54.428 1.04 7.84 5.31 8.26
2/24/2023 12:30:00 AM 12.4 54.32 1.044 7.84 5.3 8.27
2/24/2023 12:45:00 AM 12.36 54.248 1.048 7.84 5.23 8.27
2/24/2023 1:00:00 AM 12.32 54.176 1.051 7.83 5.21 8.28
2/24/2023 1:15:00 AM 12.28 54.104 1.054 7.83 5.23 8.29
2/24/2023 1:30:00 AM 12.26 54.068 1.056 7.83 5.17 8.29
2/24/2023 1:45:00 AM 12.23 54.014 1.057 7.83 5.17 8.3
2/24/2023 2:00:00 AM 12.2 53.96 1.056 7.83 5.14 8.3
2/24/2023 2:15:00 AM 12.16 53.888 1.054 7.83 5.19 8.31
2/24/2023 2:30:00 AM 12.13 53.834 1.051 7.83 5.02 8.33
2/24/2023 2:45:00 AM 12.1 53.78 1.047 7.83 4.98 8.34
2/24/2023 3:00:00 AM 12.06 53.708 1.043 7.83 5.1 8.35
2/24/2023 3:15:00 AM 12.03 53.654 1.039 7.83 4.93 8.36
2/24/2023 3:30:00 AM 12 53.6 1.035 7.84 5.01 8.37
2/24/2023 3:45:00 AM 11.96 53.528 1.03 7.84 4.93 8.39
2/24/2023 4:00:00 AM 11.91 53.438 1.025 7.84 5.05 8.41
2/24/2023 4:15:00 AM 11.86 53.348 1.019 7.84 5.2 8.42
2/24/2023 4:30:00 AM 11.8 53.24 1.012 7.84 5.15 8.44
2/24/2023 4:45:00 AM 11.73 53.114 1.005 7.84 5.26 8.47
2/24/2023 5:00:00 AM 11.66 52.988 0.997 7.85 5.27 8.5
2/24/2023 5:15:00 AM 11.58 52.844 0.988 7.85 5.44 8.53
2/24/2023 5:30:00 AM 11.51 52.718 0.979 7.85 5.26 8.56
2/24/2023 5:45:00 AM 11.42 52.556 0.97 7.85 5.43 8.6
2/24/2023 6:00:00 AM 11.34 52.412 0.962 7.85 5.41 8.63
2/24/2023 6:15:00 AM 11.27 52.286 0.953 7.85 5.49 8.67
2/24/2023 6:30:00 AM 11.19 52.142 0.946 7.85 5.51 8.7
2/24/2023 6:45:00 AM 11.1 51.98 0.938 7.86 5.42 8.75
2/24/2023 7:00:00 AM 11.03 51.854 0.931 7.86 5.31 8.81
2/24/2023 7:15:00 AM 10.95 51.71 0.924 7.86 5.33 8.9
2/24/2023 7:30:00 AM 10.87 51.566 0.918 7.87 5.26 9
2/24/2023 7:45:00 AM 10.78 51.404 0.913 7.87 5.52 9.13
2/24/2023 8:00:00 AM 10.68 51.224 0.91 7.88 5.49 9.27
2/24/2023 8:15:00 AM 10.61 51.098 0.907 7.89 5.35 9.43
2/24/2023 8:30:00 AM 10.56 51.008 0.906 7.9 5.17 9.62
2/24/2023 8:45:00 AM 10.51 50.918 0.907 7.92 5.03 9.83
2/24/2023 9:00:00 AM 10.5 50.9 0.909 7.93 4.84 10.05
2/24/2023 9:15:00 AM 10.51 50.918 0.913 7.95 4.71 10.31
2/24/2023 9:30:00 AM 10.56 51.008 0.916 7.97 4.67 10.58
2/24/2023 9:45:00 AM 10.63 51.134 0.917 7.99 4.68 10.82
2/24/2023 10:00:00 AM 10.72 51.296 0.919 8.01 4.7 11.05
2/24/2023 10:15:00 AM 10.82 51.476 0.919 8.03 4.83 11.29
2/24/2023 10:30:00 AM 10.92 51.656 0.918 8.05 5.04 11.5
2/24/2023 10:45:00 AM 11.02 51.836 0.917 8.07 4.81 11.65
2/24/2023 11:00:00 AM 11.08 51.944 0.916 8.08 4.93 11.73
2/24/2023 11:15:00 AM 11.09 51.962 0.917 8.09 4.8 11.75
2/24/2023 11:30:00 AM 11.19 52.142 0.92 8.1 4.72 11.94
2/24/2023 11:45:00 AM 11.29 52.322 0.926 8.13 4.56 12.16
2/24/2023 12:00:00 PM 11.39 52.502 0.934 8.14 4.66 12.31
2/24/2023 12:15:00 PM 11.51 52.718 0.945 8.16 4.79 12.44
2/24/2023 12:30:00 PM 11.66 52.988 0.957 8.17 4.7 12.56
2/24/2023 12:45:00 PM 11.78 53.204 0.971 8.18 4.86 12.65
2/24/2023 1:00:00 PM 11.92 53.456 0.984 8.2 5.01 12.75
2/24/2023 1:15:00 PM 12.07 53.726 0.996 8.21 5.06 12.83
2/24/2023 1:30:00 PM 12.19 53.942 1.005 8.22 4.64 12.88
2/24/2023 1:45:00 PM 12.31 54.158 1.009 8.23 4.98 12.94
2/24/2023 2:00:00 PM 12.41 54.338 1.011 8.25 4.9 12.99
2/24/2023 2:15:00 PM 12.47 54.446 1.011 8.26 5 12.99
2/24/2023 2:30:00 PM 12.49 54.482 1.01 8.26 5.19 12.97
2/24/2023 2:45:00 PM 12.49 54.482 1.009 8.26 5.26 12.91
2/24/2023 3:00:00 PM 12.45 54.41 1.009 8.26 5.22 12.83
2/24/2023 3:15:00 PM 12.38 54.284 1.009 8.26 5.32 12.72
2/24/2023 3:30:00 PM 12.3 54.14 1.009 8.25 5.36 12.59
2/24/2023 3:45:00 PM 12.21 53.978 1.008 8.24 5.48 12.45
2/24/2023 4:00:00 PM 12.11 53.798 1.007 8.23 5.51 12.29
2/24/2023 4:15:00 PM 12.03 53.654 1.007 8.22 5.4 12.11
2/24/2023 4:30:00 PM 11.95 53.51 1.005 8.21 5.42 11.92
2/24/2023 4:45:00 PM 11.87 53.366 1.004 8.19 5.39 11.73
2/24/2023 5:00:00 PM 11.77 53.186 1.002 8.18 5.37 11.53
2/24/2023 5:15:00 PM 11.67 53.006 0.999 8.16 5.35 11.34
2/24/2023 5:30:00 PM 11.58 52.844 0.997 8.14 5.4 11.17
2/24/2023 5:45:00 PM 11.5 52.7 0.996 8.13 5.29 11.02
2/24/2023 6:00:00 PM 11.43 52.574 0.996 8.12 5.27 10.88
2/24/2023 6:15:00 PM 11.36 52.448 0.996 8.1 5.56 10.76
2/24/2023 6:30:00 PM 11.3 52.34 0.995 8.09 5.47 10.66
2/24/2023 6:45:00 PM 11.23 52.214 0.995 8.08 5.69 10.57
2/24/2023 7:00:00 PM 11.16 52.088 0.993 8.07 5.86 10.5
2/24/2023 7:15:00 PM 11.08 51.944 0.991 8.06 5.78 10.43
2/24/2023 7:30:00 PM 11 51.8 0.99 8.05 5.43 10.37
2/24/2023 7:45:00 PM 10.92 51.656 0.99 8.04 5.15 10.32
2/24/2023 8:00:00 PM 10.84 51.512 0.991 8.03 4.93 10.25
2/24/2023 8:15:00 PM 10.74 51.332 0.992 8.03 4.95 10.2
2/24/2023 8:30:00 PM 10.64 51.152 0.992 8.01 4.99 10.14
2/24/2023 8:45:00 PM 10.53 50.954 0.993 8 5.22 10.09
2/24/2023 9:00:00 PM 10.43 50.774 0.994 7.99 5.76 10.03
2/24/2023 9:15:00 PM 10.32 50.576 0.996 7.98 5.49 9.97
2/24/2023 9:30:00 PM 10.22 50.396 0.998 7.97 5.09 9.93
2/24/2023 9:45:00 PM 10.12 50.216 1.002 7.96 4.89 9.89
2/24/2023 10:00:00 PM 10.02 50.036 1.007 7.95 4.74 9.84
2/24/2023 10:15:00 PM 9.93 49.874 1.012 7.95 4.85 9.81
2/24/2023 10:30:00 PM 9.84 49.712 1.018 7.93 5.02 9.77
2/24/2023 10:45:00 PM 9.75 49.55 1.022 7.91 5.18 9.75
2/24/2023 11:00:00 PM 9.66 49.388 1.025 7.91 5.05 9.73
2/24/2023 11:15:00 PM 9.58 49.244 1.028 7.91 5.06 9.71
2/24/2023 11:30:00 PM 9.49 49.082 1.03 7.91 4.94 9.72
2/24/2023 11:45:00 PM 9.41 48.938 1.033 7.9 4.94 9.72
2/25/2023 12:00:00 AM 9.32 48.776 1.037 7.9 5.22 9.73
2/25/2023 12:15:00 AM 9.25 48.65 1.04 7.9 5.34 9.74
2/25/2023 12:30:00 AM 9.18 48.524 1.042 7.9 5.65 9.74
2/25/2023 12:45:00 AM 9.1 48.38 1.043 7.89 6.23 9.76
2/25/2023 1:00:00 AM 9.02 48.236 1.044 7.89 6.41 9.77
2/25/2023 1:15:00 AM 8.95 48.11 1.045 7.89 6.1 9.79
2/25/2023 1:30:00 AM 8.89 48.002 1.045 7.89 6.46 9.81
2/25/2023 1:45:00 AM 8.83 47.894 1.045 7.89 6.59 9.82
2/25/2023 2:00:00 AM 8.78 47.804 1.043 7.89 5.69 9.84
2/25/2023 2:15:00 AM 8.72 47.696 1.041 7.89 5.3 9.87
2/25/2023 2:30:00 AM 8.68 47.624 1.04 7.89 5.35 9.89
2/25/2023 2:45:00 AM 8.63 47.534 1.038 7.89 5.3 9.9
2/25/2023 3:00:00 AM 8.58 47.444 1.037 7.89 5.11 9.91
2/25/2023 3:15:00 AM 8.54 47.372 1.036 7.89 4.94 9.93
2/25/2023 3:30:00 AM 8.49 47.282 1.033 7.9 4.83 9.95
2/25/2023 3:45:00 AM 8.44 47.192 1.031 7.9 4.86 9.97
2/25/2023 4:00:00 AM 8.4 47.12 1.027 7.9 5.48 9.99
2/25/2023 4:15:00 AM 8.35 47.03 1.024 7.9 5.29 10.01
2/25/2023 4:30:00 AM 8.32 46.976 1.022 7.9 4.97 10.02
2/25/2023 4:45:00 AM 8.28 46.904 1.019 7.9 4.96 10.04
2/25/2023 5:00:00 AM 8.24 46.832 1.016 7.9 4.94 10.05
2/25/2023 5:15:00 AM 8.21 46.778 1.013 7.9 4.96 10.07
2/25/2023 5:30:00 AM 8.16 46.688 1.009 7.9 4.86 10.09
2/25/2023 5:45:00 AM 8.13 46.634 1.006 7.9 4.85 10.11
2/25/2023 6:00:00 AM 8.08 46.544 1.001 7.91 4.79 10.13
2/25/2023 6:15:00 AM 8.05 46.49 0.995 7.91 4.9 10.15
2/25/2023 6:30:00 AM 8.01 46.418 0.989 7.91 4.82 10.17
2/25/2023 6:45:00 AM 7.98 46.364 0.982 7.91 4.64 10.19
2/25/2023 7:00:00 AM 7.95 46.31 0.974 7.91 4.71 10.23
2/25/2023 7:15:00 AM 7.91 46.238 0.967 7.92 4.68 10.28
2/25/2023 7:30:00 AM 7.89 46.202 0.959 7.93 4.8 10.4
2/25/2023 7:45:00 AM 7.86 46.148 0.953 7.93 5.01 10.48
2/25/2023 8:00:00 AM 7.85 46.13 0.949 7.94 5.19 10.62
2/25/2023 8:15:00 AM 7.85 46.13 0.946 7.96 5.36 10.82
2/25/2023 8:30:00 AM 7.85 46.13 0.944 7.97 5.44 10.93
2/25/2023 8:45:00 AM 7.85 46.13 0.943 7.98 5.33 11.04
2/25/2023 9:00:00 AM 7.87 46.166 0.944 7.99 5.75 11.17
2/25/2023 9:15:00 AM 7.91 46.238 0.944 8 5.39 11.38
2/25/2023 9:30:00 AM 7.97 46.346 0.945 8.02 5.21 11.64
2/25/2023 9:45:00 AM 8.02 46.436 0.946 8.04 5.1 11.82
2/25/2023 10:00:00 AM 8.07 46.526 0.946 8.05 4.84 11.9
2/25/2023 10:15:00 AM 8.14 46.652 0.945 8.07 4.55 12.05
2/25/2023 10:30:00 AM 8.23 46.814 0.944 8.09 4.55 12.3
2/25/2023 10:45:00 AM 8.29 46.922 0.941 8.11 4.36 12.46
2/25/2023 11:00:00 AM 8.33 46.994 0.936 8.11 4.49 12.47
2/25/2023 11:15:00 AM 8.35 47.03 0.931 8.12 4.24 12.43
2/25/2023 11:30:00 AM 8.37 47.066 0.927 8.12 4.26 12.42
2/25/2023 11:45:00 AM 8.39 47.102 0.924 8.13 4.28 12.5
2/25/2023 12:00:00 PM 8.41 47.138 0.923 8.14 4.35 12.59
2/25/2023 12:15:00 PM 8.44 47.192 0.926 8.14 4.4 12.64
2/25/2023 12:30:00 PM 8.48 47.264 0.933 8.15 4.68 12.66
2/25/2023 12:45:00 PM 8.53 47.354 0.947 8.15 4.62 12.64
2/25/2023 1:00:00 PM 8.57 47.426 0.966 8.15 4.62 12.58
2/25/2023 1:15:00 PM 8.63 47.534 0.985 8.15 4.74 12.53
2/25/2023 1:30:00 PM 8.68 47.624 1.003 8.14 4.95 12.47
2/25/2023 1:45:00 PM 8.73 47.714 1.017 8.14 5.01 12.48
2/25/2023 2:00:00 PM 8.82 47.876 1.031 8.16 5 12.6
2/25/2023 2:15:00 PM 8.92 48.056 1.045 8.17 5.12 12.77
2/25/2023 2:30:00 PM 9.05 48.29 1.057 8.19 5.24 12.92
2/25/2023 2:45:00 PM 9.18 48.524 1.066 8.2 5.02 13.05
2/25/2023 3:00:00 PM 9.31 48.758 1.071 8.22 5.26 13.15
2/25/2023 3:15:00 PM 9.4 48.92 1.073 8.23 5.31 13.2
2/25/2023 3:30:00 PM 9.45 49.01 1.074 8.23 5.25 13.18
2/25/2023 3:45:00 PM 9.49 49.082 1.075 8.23 5.04 13.15
2/25/2023 4:00:00 PM 9.53 49.154 1.076 8.23 4.92 13.08
2/25/2023 4:15:00 PM 9.54 49.172 1.077 8.23 5.12 13.01
2/25/2023 4:30:00 PM 9.53 49.154 1.079 8.22 5.11 12.87
2/25/2023 4:45:00 PM 9.51 49.118 1.08 8.21 5.14 12.7
2/25/2023 5:00:00 PM 9.49 49.082 1.079 8.2 5.19 12.5
2/25/2023 5:15:00 PM 9.47 49.046 1.079 8.18 5.13 12.29
2/25/2023 5:30:00 PM 9.45 49.01 1.078 8.17 5.33 12.1
2/25/2023 5:45:00 PM 9.43 48.974 1.077 8.15 5.47 11.92
2/25/2023 6:00:00 PM 9.42 48.956 1.076 8.14 5.37 11.74
2/25/2023 6:15:00 PM 9.42 48.956 1.074 8.12 5.85 11.58
2/25/2023 6:30:00 PM 9.42 48.956 1.072 8.11 6 11.45
2/25/2023 6:45:00 PM 9.43 48.974 1.069 8.1 6.02 11.34
2/25/2023 7:00:00 PM 9.44 48.992 1.067 8.09 5.91 11.23
2/25/2023 7:15:00 PM 9.45 49.01 1.065 8.08 5.33 11.13
2/25/2023 7:30:00 PM 9.44 48.992 1.062 8.07 5.11 11.04
2/25/2023 7:45:00 PM 9.42 48.956 1.058 8.06 5 10.95
2/25/2023 8:00:00 PM 9.4 48.92 1.054 8.05 5.47 10.86
2/25/2023 8:15:00 PM 9.37 48.866 1.051 8.04 5.12 10.77
2/25/2023 8:30:00 PM 9.33 48.794 1.05 8.03 4.87 10.68
2/25/2023 8:45:00 PM 9.29 48.722 1.048 8.02 4.66 10.58
2/25/2023 9:00:00 PM 9.26 48.668 1.048 8.01 4.66 10.46
2/25/2023 9:15:00 PM 9.23 48.614 1.049 8 4.75 10.35
2/25/2023 9:30:00 PM 9.2 48.56 1.051 7.98 4.49 10.25
2/25/2023 9:45:00 PM 9.17 48.506 1.054 7.97 4.47 10.15
2/25/2023 10:00:00 PM 9.15 48.47 1.057 7.96 4.5 10.05
2/25/2023 10:15:00 PM 9.13 48.434 1.06 7.95 4.61 9.96
2/25/2023 10:30:00 PM 9.1 48.38 1.063 7.94 4.51 9.88
2/25/2023 10:45:00 PM 9.08 48.344 1.064 7.93 4.51 9.81
2/25/2023 11:00:00 PM 9.06 48.308 1.064 7.92 4.52 9.75
2/25/2023 11:15:00 PM 9.03 48.254 1.063 7.91 4.54 9.71
2/25/2023 11:30:00 PM 9 48.2 1.06 7.91 4.63 9.68
2/25/2023 11:45:00 PM 8.97 48.146 1.058 7.9 4.98 9.65
2/26/2023 12:00:00 AM 8.93 48.074 1.056 7.9 5.21 9.63
2/26/2023 12:15:00 AM 8.89 48.002 1.053 7.9 5.82 9.61
2/26/2023 12:30:00 AM 8.84 47.912 1.051 7.89 5.05 9.6
2/26/2023 12:45:00 AM 8.8 47.84 1.049 7.89 6.01 9.59
2/26/2023 1:00:00 AM 8.76 47.768 1.046 7.89 5.84 9.58
2/26/2023 1:15:00 AM 8.74 47.732 1.043 7.88 5.83 9.58
2/26/2023 1:30:00 AM 8.71 47.678 1.041 7.88 5.95 9.58
2/26/2023 1:45:00 AM 8.69 47.642 1.038 7.88 5.79 9.58
2/26/2023 2:00:00 AM 8.67 47.606 1.036 7.88 5.35 9.58
2/26/2023 2:15:00 AM 8.66 47.588 1.033 7.88 5.53 9.58
2/26/2023 2:30:00 AM 8.65 47.57 1.029 7.88 5.18 9.59
2/26/2023 2:45:00 AM 8.63 47.534 1.025 7.88 5.05 9.59
2/26/2023 3:00:00 AM 8.62 47.516 1.021 7.88 5.21 9.6
2/26/2023 3:15:00 AM 8.61 47.498 1.019 7.88 5.36 9.61
2/26/2023 3:30:00 AM 8.59 47.462 1.016 7.88 5.5 9.62
2/26/2023 3:45:00 AM 8.57 47.426 1.013 7.88 5.65 9.62
2/26/2023 4:00:00 AM 8.56 47.408 1.01 7.88 5.6 9.63
2/26/2023 4:15:00 AM 8.55 47.39 1.007 7.88 5.58 9.65
2/26/2023 4:30:00 AM 8.54 47.372 1.004 7.88 5.3 9.66
2/26/2023 4:45:00 AM 8.53 47.354 1 7.88 5.2 9.67
2/26/2023 5:00:00 AM 8.51 47.318 0.995 7.88 5.31 9.69
2/26/2023 5:15:00 AM 8.51 47.318 0.991 7.88 5.13 9.71
2/26/2023 5:30:00 AM 8.49 47.282 0.985 7.88 5.37 9.73
2/26/2023 5:45:00 AM 8.48 47.264 0.98 7.89 5.32 9.74
2/26/2023 6:00:00 AM 8.47 47.246 0.975 7.89 5.6 9.77
2/26/2023 6:15:00 AM 8.47 47.246 0.969 7.89 5.45 9.78
2/26/2023 6:30:00 AM 8.47 47.246 0.963 7.89 5.27 9.8
2/26/2023 6:45:00 AM 8.46 47.228 0.957 7.89 5.22 9.82
2/26/2023 7:00:00 AM 8.47 47.246 0.951 7.9 5.21 9.85
2/26/2023 7:15:00 AM 8.47 47.246 0.945 7.9 5.11 9.9
2/26/2023 7:30:00 AM 8.47 47.246 0.941 7.91 5.03 9.96
2/26/2023 7:45:00 AM 8.48 47.264 0.936 7.91 5.41 10.06
2/26/2023 8:00:00 AM 8.5 47.3 0.933 7.92 5.3 10.15
2/26/2023 8:15:00 AM 8.52 47.336 0.93 7.93 5.48 10.25
2/26/2023 8:30:00 AM 8.54 47.372 0.928 7.94 5.28 10.39
2/26/2023 8:45:00 AM 8.57 47.426 0.926 7.95 5.86 10.53
2/26/2023 9:00:00 AM 8.62 47.516 0.926 7.96 5.75 10.68
2/26/2023 9:15:00 AM 8.68 47.624 0.927 7.98 5.5 10.82
2/26/2023 9:30:00 AM 8.73 47.714 0.929 7.99 5.55 10.99
2/26/2023 9:45:00 AM 8.82 47.876 0.93 8.01 5.31 11.19
2/26/2023 10:00:00 AM 8.93 48.074 0.931 8.03 5.14 11.44
2/26/2023 10:15:00 AM 9.06 48.308 0.93 8.05 4.97 11.7
2/26/2023 10:30:00 AM 9.22 48.596 0.929 8.07 5.06 11.91
2/26/2023 10:45:00 AM 9.39 48.902 0.926 8.09 5.45 12.07
2/26/2023 11:00:00 AM 9.58 49.244 0.923 8.11 6.12 12.21
2/26/2023 11:15:00 AM 9.81 49.658 0.919 8.13 5.67 12.44
2/26/2023 11:30:00 AM 9.99 49.982 0.915 8.15 5.49 12.58
2/26/2023 11:45:00 AM 10.17 50.306 0.911 8.17 5.11 12.65
2/26/2023 12:00:00 PM 10.42 50.756 0.908 8.19 5.01 12.89
2/26/2023 12:15:00 PM 10.64 51.152 0.908 8.22 4.86 13.05
2/26/2023 12:30:00 PM 10.8 51.44 0.914 8.23 4.78 13.13
2/26/2023 12:45:00 PM 10.94 51.692 0.926 8.24 4.97 13.16
2/26/2023 1:00:00 PM 11.14 52.052 0.944 8.25 4.77 13.26
2/26/2023 1:15:00 PM 11.32 52.376 0.964 8.27 4.8 13.35
2/26/2023 1:30:00 PM 11.49 52.682 0.982 8.28 4.76 13.38
2/26/2023 1:45:00 PM 11.64 52.952 0.999 8.28 4.84 13.38
2/26/2023 2:00:00 PM 11.81 53.258 1.015 8.29 5.35 13.42
2/26/2023 2:15:00 PM 11.93 53.474 1.03 8.29 5.41 13.44
2/26/2023 2:30:00 PM 12.05 53.69 1.042 8.3 5.2 13.43
2/26/2023 2:45:00 PM 12.12 53.816 1.051 8.3 5.14 13.38
2/26/2023 3:00:00 PM 12.2 53.96 1.054 8.31 4.92 13.32
2/26/2023 3:15:00 PM 12.28 54.104 1.056 8.31 5.04 13.28
2/26/2023 3:30:00 PM 12.32 54.176 1.057 8.31 5.12 13.18
2/26/2023 3:45:00 PM 12.32 54.176 1.058 8.31 5.31 13.01
2/26/2023 4:00:00 PM 12.31 54.158 1.058 8.3 5.63 12.82
2/26/2023 4:15:00 PM 12.28 54.104 1.058 8.28 5.66 12.61
2/26/2023 4:30:00 PM 12.26 54.068 1.059 8.27 5.54 12.37
2/26/2023 4:45:00 PM 12.23 54.014 1.06 8.25 5.64 12.12
2/26/2023 5:00:00 PM 12.19 53.942 1.061 8.24 5.55 11.87
2/26/2023 5:15:00 PM 12.15 53.87 1.062 8.22 5.69 11.63
2/26/2023 5:30:00 PM 12.1 53.78 1.059 8.2 5.55 11.43
2/26/2023 5:45:00 PM 12.03 53.654 1.054 8.18 5.73 11.23
2/26/2023 6:00:00 PM 11.98 53.564 1.052 8.17 5.7 11.06
2/26/2023 6:15:00 PM 11.94 53.492 1.051 8.15 5.69 10.89
2/26/2023 6:30:00 PM 11.91 53.438 1.052 8.14 5.93 10.75
2/26/2023 6:45:00 PM 11.88 53.384 1.053 8.13 6.36 10.61
2/26/2023 7:00:00 PM 11.83 53.294 1.056 8.11 6.65 10.49
2/26/2023 7:15:00 PM 11.79 53.222 1.059 8.1 6.16 10.38
2/26/2023 7:30:00 PM 11.74 53.132 1.064 8.09 5.59 10.27
2/26/2023 7:45:00 PM 11.69 53.042 1.067 8.07 5.37 10.16
2/26/2023 8:00:00 PM 11.62 52.916 1.068 8.06 5.31 10.08
2/26/2023 8:15:00 PM 11.54 52.772 1.068 8.05 5.28 9.98
2/26/2023 8:30:00 PM 11.46 52.628 1.067 8.04 5.4 9.88
2/26/2023 8:45:00 PM 11.37 52.466 1.065 8.03 5.58 9.79
2/26/2023 9:00:00 PM 11.28 52.304 1.063 8.01 5.65 9.69
2/26/2023 9:15:00 PM 11.18 52.124 1.062 8 5.31 9.59
2/26/2023 9:30:00 PM 11.09 51.962 1.061 7.99 5.12 9.51
2/26/2023 9:45:00 PM 11 51.8 1.06 7.98 5.29 9.42
2/26/2023 10:00:00 PM 10.9 51.62 1.06 7.96 5.23 9.34
2/26/2023 10:15:00 PM 10.81 51.458 1.061 7.95 5.3 9.27
2/26/2023 10:30:00 PM 10.72 51.296 1.062 7.94 5.37 9.21
2/26/2023 10:45:00 PM 10.62 51.116 1.063 7.93 5.35 9.15
2/26/2023 11:00:00 PM 10.53 50.954 1.064 7.92 5.33 9.11
2/26/2023 11:15:00 PM 10.45 50.81 1.067 7.92 5.34 9.07
2/26/2023 11:30:00 PM 10.36 50.648 1.069 7.91 5.4 9.05
2/26/2023 11:45:00 PM 10.28 50.504 1.07 7.9 5.19 9.03
2/27/2023 12:00:00 AM 10.21 50.378 1.072 7.9 4.93 9.01
2/27/2023 12:15:00 AM 10.14 50.252 1.074 7.89 4.86 9.01
2/27/2023 12:30:00 AM 10.06 50.108 1.076 7.89 4.98 9.01
2/27/2023 12:45:00 AM 9.98 49.964 1.077 7.89 4.94 9.01
2/27/2023 1:00:00 AM 9.91 49.838 1.078 7.88 4.97 9.01
2/27/2023 1:15:00 AM 9.84 49.712 1.079 7.88 5.59 9.04
2/27/2023 1:30:00 AM 9.78 49.604 1.079 7.88 5.51 9.04
2/27/2023 1:45:00 AM 9.72 49.496 1.08 7.88 5.67 9.04
2/27/2023 2:00:00 AM 9.66 49.388 1.081 7.87 5.5 9.06
2/27/2023 2:15:00 AM 9.59 49.262 1.08 7.87 5.39 9.07
2/27/2023 2:30:00 AM 9.52 49.136 1.078 7.87 5.51 9.09
2/27/2023 2:45:00 AM 9.45 49.01 1.076 7.86 5.62 9.09
2/27/2023 3:00:00 AM 9.38 48.884 1.072 7.86 5.68 9.12
2/27/2023 3:15:00 AM 9.3 48.74 1.068 7.86 5.93 9.14
2/27/2023 3:30:00 AM 9.22 48.596 1.063 7.86 6.29 9.17
2/27/2023 3:45:00 AM 9.15 48.47 1.058 7.86 6.52 9.2
2/27/2023 4:00:00 AM 9.07 48.326 1.052 7.86 6.95 9.22
2/27/2023 4:15:00 AM 8.99 48.182 1.046 7.86 7.07 9.25
2/27/2023 4:30:00 AM 8.92 48.056 1.041 7.86 6.39 9.28
2/27/2023 4:45:00 AM 8.86 47.948 1.037 7.86 6.06 9.31
2/27/2023 5:00:00 AM 8.8 47.84 1.032 7.87 6.03 9.33
2/27/2023 5:15:00 AM 8.75 47.75 1.027 7.87 5.79 9.36
2/27/2023 5:30:00 AM 8.69 47.642 1.02 7.87 5.56 9.39
2/27/2023 5:45:00 AM 8.63 47.534 1.012 7.87 5.55 9.43
2/27/2023 6:00:00 AM 8.58 47.444 1.003 7.87 5.53 9.46
2/27/2023 6:15:00 AM 8.52 47.336 0.995 7.87 5.39 9.5
2/27/2023 6:30:00 AM 8.47 47.246 0.987 7.88 5.42 9.54
2/27/2023 6:45:00 AM 8.42 47.156 0.978 7.88 5.16 9.58
2/27/2023 7:00:00 AM 8.37 47.066 0.968 7.88 5.24 9.65
2/27/2023 7:15:00 AM 8.33 46.994 0.959 7.89 5.16 9.76
2/27/2023 7:30:00 AM 8.3 46.94 0.95 7.9 5.28 9.92
2/27/2023 7:45:00 AM 8.27 46.886 0.942 7.91 5.66 10.09
2/27/2023 8:00:00 AM 8.27 46.886 0.935 7.92 5.84 10.26
2/27/2023 8:15:00 AM 8.28 46.904 0.929 7.94 5.89 10.44
2/27/2023 8:30:00 AM 8.3 46.94 0.924 7.95 5.98 10.63
2/27/2023 8:45:00 AM 8.34 47.012 0.921 7.97 5.93 10.81
2/27/2023 9:00:00 AM 8.4 47.12 0.919 7.98 6.17 11.01
2/27/2023 9:15:00 AM 8.48 47.264 0.919 8 6.04 11.23
2/27/2023 9:30:00 AM 8.58 47.444 0.919 8.02 5.76 11.46
2/27/2023 9:45:00 AM 8.71 47.678 0.919 8.04 5.6 11.69
2/27/2023 10:00:00 AM 8.85 47.93 0.918 8.07 5.85 11.89
2/27/2023 10:15:00 AM 8.99 48.182 0.917 8.08 5.92 12.08
2/27/2023 10:30:00 AM 9.15 48.47 0.915 8.1 5.9 12.25
2/27/2023 10:45:00 AM 9.31 48.758 0.913 8.12 5.73 12.42
2/27/2023 11:00:00 AM 9.48 49.064 0.91 8.14 6.1 12.61
2/27/2023 11:15:00 AM 9.62 49.316 0.908 8.17 6.02 12.79
2/27/2023 11:30:00 AM 9.81 49.658 0.907 8.19 5.74 12.97
2/27/2023 11:45:00 AM 9.99 49.982 0.908 8.21 5.75 13.11
2/27/2023 12:00:00 PM 10.18 50.324 0.91 8.23 5.4 13.24
2/27/2023 12:15:00 PM 10.37 50.666 0.917 8.25 5.39 13.39
2/27/2023 12:30:00 PM 10.53 50.954 0.928 8.26 5.5 13.51
2/27/2023 12:45:00 PM 10.71 51.278 0.942 8.28 5.58 13.62
2/27/2023 1:00:00 PM 10.91 51.638 0.96 8.29 5.91 13.71
2/27/2023 1:15:00 PM 11.06 51.908 0.979 8.3 6.17 13.75
2/27/2023 1:30:00 PM 11.14 52.052 0.996 8.3 5.93 13.65
2/27/2023 1:45:00 PM 11.21 52.178 1.011 8.3 5.58 13.5
2/27/2023 2:00:00 PM 11.27 52.286 1.021 8.3 5.54 13.41
2/27/2023 2:15:00 PM 11.34 52.412 1.029 8.3 5.89 13.38
2/27/2023 2:30:00 PM 11.37 52.466 1.034 8.3 6.03 13.27
2/27/2023 2:45:00 PM 11.4 52.52 1.037 8.3 5.81 13.13
2/27/2023 3:00:00 PM 11.41 52.538 1.039 8.29 5.98 13
2/27/2023 3:15:00 PM 11.41 52.538 1.04 8.29 6.3 12.8
2/27/2023 3:30:00 PM 11.42 52.556 1.041 8.28 5.87 12.65
2/27/2023 3:45:00 PM 11.43 52.574 1.042 8.27 6.34 12.47
2/27/2023 4:00:00 PM 11.43 52.574 1.041 8.26 5.97 12.28
2/27/2023 4:15:00 PM 11.4 52.52 1.038 8.24 6.55 12.08
2/27/2023 4:30:00 PM 11.38 52.484 1.036 8.23 5.91 11.89
2/27/2023 4:45:00 PM 11.37 52.466 1.033 8.22 6.05 11.73
2/27/2023 5:00:00 PM 11.35 52.43 1.031 8.2 6.36 11.52
2/27/2023 5:15:00 PM 11.33 52.394 1.029 8.19 6.63 11.34
2/27/2023 5:30:00 PM 11.29 52.322 1.028 8.17 6.95 11.18
2/27/2023 5:45:00 PM 11.23 52.214 1.027 8.16 7.05 11.01
2/27/2023 6:00:00 PM 11.16 52.088 1.029 8.14 6.35 10.86
2/27/2023 6:15:00 PM 11.07 51.926 1.032 8.13 6.48 10.72
2/27/2023 6:30:00 PM 10.98 51.764 1.036 8.11 7.31 10.58
2/27/2023 6:45:00 PM 10.84 51.512 1.037 8.1 7.33 10.46
2/27/2023 7:00:00 PM 10.67 51.206 1.037 8.09 7.51 10.36
2/27/2023 7:15:00 PM 10.36 50.648 1.035 8.07 7.17 10.26
2/27/2023 7:30:00 PM 10.18 50.324 1.032 8.06 8.47 10.19
2/27/2023 7:45:00 PM 10.07 50.126 1.032 8.05 7.5 10.12
2/27/2023 8:00:00 PM 9.98 49.964 1.033 8.03 6.9 10.05
2/27/2023 8:15:00 PM 9.88 49.784 1.033 8.02 7 9.98
2/27/2023 8:30:00 PM 9.82 49.676 1.031 8.01 6.97 9.92
2/27/2023 8:45:00 PM 9.77 49.586 1.028 8 6.95 9.85
2/27/2023 9:00:00 PM 9.71 49.478 1.025 7.98 6.66 9.81
2/27/2023 9:15:00 PM 9.68 49.424 1.023 7.97 6.51 9.74
2/27/2023 9:30:00 PM 9.66 49.388 1.022 7.96 6.64 9.69
2/27/2023 9:45:00 PM 9.66 49.388 1.022 7.95 6.84 9.63
2/27/2023 10:00:00 PM 9.66 49.388 1.023 7.94 7.24 9.57
2/27/2023 10:15:00 PM 9.66 49.388 1.025 7.93 7.65 9.53
2/27/2023 10:30:00 PM 9.63 49.334 1.026 7.92 8.08 9.5
2/27/2023 10:45:00 PM 9.51 49.118 1.025 7.91 8.35 9.5
2/27/2023 11:00:00 PM 9.39 48.902 1.022 7.9 8.9 9.52
2/27/2023 11:15:00 PM 9.27 48.686 1.018 7.89 9.82 9.54
2/27/2023 11:30:00 PM 9.16 48.488 1.019 7.89 8.98 9.55
2/27/2023 11:45:00 PM 9.13 48.434 1.024 7.88 8.61 9.54
2/28/2023 12:00:00 AM 9.09 48.362 1.026 7.87 8.44 9.53
2/28/2023 12:15:00 AM 9.06 48.308 1.022 7.86 7.95 9.53
2/28/2023 12:30:00 AM 9.01 48.218 1.012 7.86 7.97 9.56
2/28/2023 12:45:00 AM 8.95 48.11 0.995 7.86 7.6 9.59
2/28/2023 1:00:00 AM 8.9 48.02 0.98 7.85 7.72 9.62
2/28/2023 1:15:00 AM 8.87 47.966 0.969 7.85 7.73 9.63
2/28/2023 1:30:00 AM 8.84 47.912 0.963 7.84 8.35 9.63
2/28/2023 1:45:00 AM 8.8 47.84 0.958 7.83 9.06 9.63
2/28/2023 2:00:00 AM 8.74 47.732 0.95 7.81 9.38 9.62
2/28/2023 2:15:00 AM 8.67 47.606 0.941 7.8 9.71 9.6
2/28/2023 2:30:00 AM 8.61 47.498 0.933 7.78 9.47 9.57
2/28/2023 2:45:00 AM 8.57 47.426 0.925 7.77 9.18 9.55
2/28/2023 3:00:00 AM 8.53 47.354 0.918 7.75 8.88 9.55
2/28/2023 3:15:00 AM 8.51 47.318 0.91 7.75 8.76 9.55
2/28/2023 3:30:00 AM 8.48 47.264 0.898 7.74 8.57 9.56
2/28/2023 3:45:00 AM 8.45 47.21 0.884 7.74 8.39 9.6
2/28/2023 4:00:00 AM 8.42 47.156 0.869 7.75 8.14 9.63
2/28/2023 4:15:00 AM 8.4 47.12 0.854 7.75 7.86 9.66
2/28/2023 4:30:00 AM 8.38 47.084 0.839 7.75 7.51 9.69
2/28/2023 4:45:00 AM 8.36 47.048 0.826 7.76 7.24 9.72
2/28/2023 5:00:00 AM 8.34 47.012 0.815 7.76 7.46 9.74
2/28/2023 5:15:00 AM 8.33 46.994 0.806 7.76 7.02 9.75
2/28/2023 5:30:00 AM 8.31 46.958 0.797 7.76 7 9.75
2/28/2023 5:45:00 AM 8.29 46.922 0.79 7.76 6.95 9.76
2/28/2023 6:00:00 AM 8.27 46.886 0.783 7.76 6.99 9.75
2/28/2023 6:15:00 AM 8.25 46.85 0.778 7.75 6.92 9.76
2/28/2023 6:30:00 AM 8.23 46.814 0.773 7.75 6.8 9.76
2/28/2023 6:45:00 AM 8.21 46.778 0.77 7.75 6.69 9.76
2/28/2023 7:00:00 AM 8.2 46.76 0.77 7.75 6.62 9.77
2/28/2023 7:15:00 AM 8.19 46.742 0.771 7.75 6.78 9.79
2/28/2023 7:30:00 AM 8.2 46.76 0.774 7.75 6.55 9.82
2/28/2023 7:45:00 AM 8.21 46.778 0.778 7.76 6.62 9.86
2/28/2023 8:00:00 AM 8.23 46.814 0.783 7.76 6.28 9.9
2/28/2023 8:15:00 AM 8.26 46.868 0.79 7.77 6.41 9.96
2/28/2023 8:30:00 AM 8.3 46.94 0.798 7.78 6.3 10.02
2/28/2023 8:45:00 AM 8.36 47.048 0.807 7.79 6.08 10.09
2/28/2023 9:00:00 AM 8.43 47.174 0.815 7.81 6.14 10.24
2/28/2023 9:15:00 AM 8.5 47.3 0.822 7.83 5.79 10.35
2/28/2023 9:30:00 AM 8.58 47.444 0.828 7.84 5.49 10.42
2/28/2023 9:45:00 AM 8.65 47.57 0.834 7.85 5.47 10.49
2/28/2023 10:00:00 AM 8.72 47.696 0.839 7.86 6.17 10.53
2/28/2023 10:15:00 AM 8.8 47.84 0.843 7.88 5.85 10.66
2/28/2023 10:30:00 AM 8.92 48.056 0.844 7.87 5.34 11.07
2/28/2023 10:45:00 AM 8.98 48.164 0.845 7.91 4.92 11.13
2/28/2023 11:00:00 AM 9.05 48.29 0.847 7.92 4.84 11.22
2/28/2023 11:15:00 AM 9.11 48.398 0.852 7.93 4.77 11.3
2/28/2023 11:30:00 AM 9.19 48.542 0.86 7.94 5 11.42
2/28/2023 11:45:00 AM 9.28 48.704 0.87 7.95 5.19 11.54
2/28/2023 12:00:00 PM 9.37 48.866 0.881 7.97 5.32 11.67
2/28/2023 12:15:00 PM 9.46 49.028 0.896 7.97 5.17 11.76
2/28/2023 12:30:00 PM 9.57 49.226 0.911 7.98 5.18 11.85
2/28/2023 12:45:00 PM 9.67 49.406 0.926 7.99 5.54 11.94
2/28/2023 1:00:00 PM 9.77 49.586 0.939 7.99 6.1 11.98
2/28/2023 1:15:00 PM 9.87 49.766 0.95 8 5.83 12.1
2/28/2023 1:30:00 PM 9.98 49.964 0.958 8.02 5.87 12.24
2/28/2023 1:45:00 PM 10.1 50.18 0.965 8.04 5.44 12.45
2/28/2023 2:00:00 PM 10.21 50.378 0.97 8.05 5.62 12.61
2/28/2023 2:15:00 PM 10.32 50.576 0.973 8.07 5.43 12.71
2/28/2023 2:30:00 PM 10.41 50.738 0.973 8.08 5.83 12.68
2/28/2023 2:45:00 PM 10.54 50.972 0.968 8.1 5.68 12.87
2/28/2023 3:00:00 PM 10.69 51.242 0.961 8.13 6.03 13.14
2/28/2023 3:15:00 PM 10.73 51.314 0.955 8.14 5.87 13.13
2/28/2023 3:30:00 PM 10.81 51.458 0.95 8.14 5.8 13.15
2/28/2023 3:45:00 PM 10.87 51.566 0.947 8.15 5.93 13.18
2/28/2023 4:00:00 PM 10.92 51.656 0.944 8.15 6.18 13.16
2/28/2023 4:15:00 PM 10.98 51.764 0.941 8.15 6.1 13.09
2/28/2023 4:30:00 PM 10.97 51.746 0.941 8.14 6.05 12.92
2/28/2023 4:45:00 PM 10.96 51.728 0.943 8.12 6.1 12.7
2/28/2023 5:00:00 PM 10.94 51.692 0.948 8.11 5.89 12.51
2/28/2023 5:15:00 PM 10.94 51.692 0.953 8.09 5.76 12.35
2/28/2023 5:30:00 PM 10.96 51.728 0.959 8.07 6.05 12.16
2/28/2023 5:45:00 PM 10.96 51.728 0.963 8.06 5.88 11.94
2/28/2023 6:00:00 PM 10.95 51.71 0.964 8.04 5.93 11.71
2/28/2023 6:15:00 PM 10.93 51.674 0.962 8.02 5.69 11.51
2/28/2023 6:30:00 PM 10.9 51.62 0.958 8 5.99 11.33
2/28/2023 6:45:00 PM 10.87 51.566 0.952 7.99 6.32 11.19
2/28/2023 7:00:00 PM 10.84 51.512 0.946 7.98 5.91 11.06
2/28/2023 7:15:00 PM 10.81 51.458 0.94 7.96 5.51 10.96
2/28/2023 7:30:00 PM 10.77 51.386 0.936 7.96 5.41 10.88
2/28/2023 7:45:00 PM 10.73 51.314 0.933 7.95 5.36 10.8
2/28/2023 8:00:00 PM 10.69 51.242 0.933 7.94 5.26 10.71
2/28/2023 8:15:00 PM 10.64 51.152 0.935 7.93 5.14 10.62
2/28/2023 8:30:00 PM 10.58 51.044 0.937 7.92 5.28 10.53
2/28/2023 8:45:00 PM 10.52 50.936 0.94 7.91 5.04 10.43
2/28/2023 9:00:00 PM 10.46 50.828 0.942 7.9 5.07 10.33
2/28/2023 9:15:00 PM 10.4 50.72 0.944 7.89 4.99 10.24
2/28/2023 9:30:00 PM 10.33 50.594 0.947 7.88 4.99 10.14
2/28/2023 9:45:00 PM 10.28 50.504 0.952 7.87 5.32 10.05
2/28/2023 10:00:00 PM 10.22 50.396 0.957 7.86 5.02 9.97
2/28/2023 10:15:00 PM 10.16 50.288 0.963 7.85 5.01 9.88
2/28/2023 10:30:00 PM 10.11 50.198 0.969 7.84 4.87 9.81
2/28/2023 10:45:00 PM 10.05 50.09 0.976 7.84 5.17 9.75
2/28/2023 11:00:00 PM 10 50 0.982 7.83 5 9.69
2/28/2023 11:15:00 PM 9.94 49.892 0.988 7.83 5.02 9.66
2/28/2023 11:30:00 PM 9.89 49.802 0.994 7.82 4.95 9.63
2/28/2023 11:45:00 PM 9.83 49.694 1 7.81 4.85 9.61
3/1/2023 12:00:00 AM 9.78 49.604 1.005 7.81 4.99 9.6
3/1/2023 12:15:00 AM 9.72 49.496 1.008 7.81 5.2 9.59
3/1/2023 12:30:00 AM 9.67 49.406 1.01 7.8 5.35 9.59
3/1/2023 12:45:00 AM 9.61 49.298 1.013 7.8 5.35 9.6
3/1/2023 1:00:00 AM 9.56 49.208 1.015 7.8 5.67 9.61
3/1/2023 1:15:00 AM 9.5 49.1 1.017 7.8 6.01 9.62
3/1/2023 1:30:00 AM 9.45 49.01 1.018 7.8 6.11 9.63
3/1/2023 1:45:00 AM 9.39 48.902 1.018 7.79 5.57 9.65
3/1/2023 2:00:00 AM 9.33 48.794 1.018 7.79 5.4 9.67
3/1/2023 2:15:00 AM 9.27 48.686 1.018 7.79 5.28 9.69
3/1/2023 2:30:00 AM 9.22 48.596 1.018 7.79 5.24 9.71
3/1/2023 2:45:00 AM 9.16 48.488 1.016 7.79 5.43 9.73
3/1/2023 3:00:00 AM 9.1 48.38 1.014 7.79 5.84 9.75
3/1/2023 3:15:00 AM 9.04 48.272 1.01 7.79 6.02 9.78
3/1/2023 3:30:00 AM 8.98 48.164 1.006 7.79 6.13 9.8
3/1/2023 3:45:00 AM 8.92 48.056 1.002 7.79 6.34 9.83
3/1/2023 4:00:00 AM 8.86 47.948 0.996 7.79 6 9.86
3/1/2023 4:15:00 AM 8.8 47.84 0.991 7.79 6.41 9.88
3/1/2023 4:30:00 AM 8.74 47.732 0.986 7.78 6.46 9.9
3/1/2023 4:45:00 AM 8.68 47.624 0.981 7.79 6.5 9.94
3/1/2023 5:00:00 AM 8.62 47.516 0.975 7.79 5.84 9.96
3/1/2023 5:15:00 AM 8.56 47.408 0.968 7.79 5.82 9.99
3/1/2023 5:30:00 AM 8.49 47.282 0.961 7.79 5.98 10.02
3/1/2023 5:45:00 AM 8.43 47.174 0.953 7.79 6.17 10.05
3/1/2023 6:00:00 AM 8.37 47.066 0.944 7.8 6.28 10.09
3/1/2023 6:15:00 AM 8.31 46.958 0.935 7.8 5.93 10.13
3/1/2023 6:30:00 AM 8.26 46.868 0.927 7.8 5.54 10.16
3/1/2023 6:45:00 AM 8.21 46.778 0.92 7.81 5.32 10.2
3/1/2023 7:00:00 AM 8.16 46.688 0.914 7.81 5.24 10.27
3/1/2023 7:15:00 AM 8.12 46.616 0.908 7.82 5.92 10.37
3/1/2023 7:30:00 AM 8.09 46.562 0.902 7.82 6.07 10.47
3/1/2023 7:45:00 AM 8.07 46.526 0.897 7.83 6.33 10.59
3/1/2023 8:00:00 AM 8.07 46.526 0.893 7.85 6.38 10.74
3/1/2023 8:15:00 AM 8.09 46.562 0.889 7.86 6.77 10.93
3/1/2023 8:30:00 AM 8.15 46.67 0.885 7.88 6.17 11.18
3/1/2023 8:45:00 AM 8.21 46.778 0.884 7.9 5.66 11.4
3/1/2023 9:00:00 AM 8.3 46.94 0.883 7.93 5.4 11.63
3/1/2023 9:15:00 AM 8.41 47.138 0.883 7.94 5.39 11.85
3/1/2023 9:30:00 AM 8.53 47.354 0.884 7.96 5.65 12.05
3/1/2023 9:45:00 AM 8.63 47.534 0.884 7.98 5.8 12.21
3/1/2023 10:00:00 AM 8.72 47.696 0.885 8 5.67 12.35
3/1/2023 10:15:00 AM 8.83 47.894 0.886 8.02 5.56 12.5
3/1/2023 10:30:00 AM 8.95 48.11 0.886 8.04 5.63 12.65
3/1/2023 10:45:00 AM 9.1 48.38 0.886 8.06 5.95 12.83
3/1/2023 11:00:00 AM 9.22 48.596 0.884 8.08 6.23 13
3/1/2023 11:15:00 AM 9.36 48.848 0.884 8.1 5.77 13.21
3/1/2023 11:30:00 AM 9.52 49.136 0.886 8.12 5.67 13.41
3/1/2023 11:45:00 AM 9.7 49.46 0.892 8.14 5.22 13.6
3/1/2023 12:00:00 PM 9.89 49.802 0.899 8.16 6.21 13.77
3/1/2023 12:15:00 PM 10.12 50.216 0.91 8.19 5.16 13.93
3/1/2023 12:30:00 PM 10.35 50.63 0.922 8.21 5.41 14.11
3/1/2023 12:45:00 PM 10.61 51.098 0.935 8.23 5.99 14.23
3/1/2023 1:00:00 PM 10.87 51.566 0.948 8.25 5.28 14.36
3/1/2023 1:15:00 PM 11.06 51.908 0.961 8.27 5.06 14.39
3/1/2023 1:30:00 PM 11.24 52.232 0.973 8.27 5.87 14.38
3/1/2023 1:45:00 PM 11.44 52.592 0.981 8.28 5.54 14.45
3/1/2023 2:00:00 PM 11.61 52.898 0.985 8.29 5.69 14.47
3/1/2023 2:15:00 PM 11.73 53.114 0.986 8.3 6.5 14.44
3/1/2023 2:30:00 PM 11.82 53.276 0.985 8.31 5.74 14.44
3/1/2023 2:45:00 PM 11.9 53.42 0.984 8.32 5.13 14.41
3/1/2023 3:00:00 PM 11.95 53.51 0.982 8.32 4.95 14.31
3/1/2023 3:15:00 PM 11.98 53.564 0.98 8.32 5.05 14.18
3/1/2023 3:30:00 PM 12.02 53.636 0.977 8.31 5.04 14.03
3/1/2023 3:45:00 PM 12.07 53.726 0.974 8.31 4.9 13.95
3/1/2023 4:00:00 PM 12.08 53.744 0.972 8.31 5.03 13.84
3/1/2023 4:15:00 PM 12.07 53.726 0.971 8.29 5.14 13.57
3/1/2023 4:30:00 PM 12.1 53.78 0.97 8.27 5.3 13.32
3/1/2023 4:45:00 PM 12.13 53.834 0.968 8.26 5.72 13.11
3/1/2023 5:00:00 PM 12.12 53.816 0.967 8.24 6.1 12.85
3/1/2023 5:15:00 PM 12.09 53.762 0.965 8.22 5.92 12.57
3/1/2023 5:30:00 PM 12.07 53.726 0.965 8.2 5.63 12.32
3/1/2023 5:45:00 PM 12.06 53.708 0.965 8.17 5.35 12.09
3/1/2023 6:00:00 PM 12.05 53.69 0.965 8.15 5.46 11.84
3/1/2023 6:15:00 PM 12.03 53.654 0.966 8.13 5.76 11.59
3/1/2023 6:30:00 PM 12 53.6 0.966 8.11 6 11.37
3/1/2023 6:45:00 PM 11.98 53.564 0.965 8.09 6 11.18
3/1/2023 7:00:00 PM 11.94 53.492 0.964 8.07 5.73 11.01
3/1/2023 7:15:00 PM 11.9 53.42 0.963 8.05 5.48 10.86
3/1/2023 7:30:00 PM 11.86 53.348 0.963 8.04 5.29 10.73
3/1/2023 7:45:00 PM 11.83 53.294 0.964 8.02 5.2 10.61
3/1/2023 8:00:00 PM 11.79 53.222 0.967 8.01 5.37 10.48
3/1/2023 8:15:00 PM 11.74 53.132 0.972 7.99 5.2 10.36
3/1/2023 8:30:00 PM 11.69 53.042 0.979 7.98 5.32 10.25
3/1/2023 8:45:00 PM 11.63 52.934 0.988 7.96 5.88 10.14
3/1/2023 9:00:00 PM 11.57 52.826 0.997 7.95 4.88 10.03
3/1/2023 9:15:00 PM 11.5 52.7 1.005 7.93 5.08 9.92
3/1/2023 9:30:00 PM 11.43 52.574 1.009 7.92 5.01 9.83
3/1/2023 9:45:00 PM 11.35 52.43 1.009 7.91 5.01 9.74
3/1/2023 10:00:00 PM 11.27 52.286 1.006 7.9 5.05 9.66
3/1/2023 10:15:00 PM 11.19 52.142 1.003 7.89 5.09 9.6
3/1/2023 10:30:00 PM 11.11 51.998 1.003 7.88 4.99 9.54
3/1/2023 10:45:00 PM 11.03 51.854 1.005 7.87 5.12 9.49
3/1/2023 11:00:00 PM 10.96 51.728 1.01 7.86 5 9.44
3/1/2023 11:15:00 PM 10.91 51.638 1.015 7.85 5.2 9.4
3/1/2023 11:30:00 PM 10.85 51.53 1.02 7.85 5.16 9.37
3/1/2023 11:45:00 PM 10.81 51.458 1.024 7.84 5.14 9.35
3/2/2023 12:00:00 AM 10.78 51.404 1.028 7.84 5.3 9.33
3/2/2023 12:15:00 AM 10.75 51.35 1.031 7.83 5.35 9.32
3/2/2023 12:30:00 AM 10.73 51.314 1.034 7.83 5.35 9.31
3/2/2023 12:45:00 AM 10.71 51.278 1.036 7.83 5.27 9.3
3/2/2023 1:00:00 AM 10.69 51.242 1.038 7.82 5.31 9.3
3/2/2023 1:15:00 AM 10.67 51.206 1.04 7.82 5.18 9.29
3/2/2023 1:30:00 AM 10.66 51.188 1.041 7.82 5.04 9.28
3/2/2023 1:45:00 AM 10.64 51.152 1.042 7.82 5.1 9.29
3/2/2023 2:00:00 AM 10.63 51.134 1.043 7.81 5.28 9.29
3/2/2023 2:15:00 AM 10.62 51.116 1.043 7.81 5.34 9.28
3/2/2023 2:30:00 AM 10.61 51.098 1.042 7.81 5.19 9.28
3/2/2023 2:45:00 AM 10.6 51.08 1.04 7.81 5.24 9.28
3/2/2023 3:00:00 AM 10.59 51.062 1.038 7.81 5.3 9.29
3/2/2023 3:15:00 AM 10.57 51.026 1.035 7.81 5.2 9.29
3/2/2023 3:30:00 AM 10.56 51.008 1.031 7.81 5.39 9.29
3/2/2023 3:45:00 AM 10.55 50.99 1.027 7.81 5.34 9.3
3/2/2023 4:00:00 AM 10.55 50.99 1.023 7.81 5.55 9.31
3/2/2023 4:15:00 AM 10.54 50.972 1.018 7.82 5.72 9.31
3/2/2023 4:30:00 AM 10.53 50.954 1.013 7.82 5.51 9.31
3/2/2023 4:45:00 AM 10.52 50.936 1.007 7.82 5.38 9.31
3/2/2023 5:00:00 AM 10.52 50.936 1 7.81 5.52 9.32
3/2/2023 5:15:00 AM 10.51 50.918 0.993 7.82 5.67 9.33
3/2/2023 5:30:00 AM 10.5 50.9 0.987 7.82 5.86 9.33
3/2/2023 5:45:00 AM 10.5 50.9 0.981 7.82 5.94 9.34
3/2/2023 6:00:00 AM 10.5 50.9 0.974 7.82 5.7 9.34
3/2/2023 6:15:00 AM 10.49 50.882 0.966 7.82 5.83 9.35
3/2/2023 6:30:00 AM 10.48 50.864 0.957 7.82 5.76 9.37
3/2/2023 6:45:00 AM 10.47 50.846 0.949 7.82 5.7 9.38
3/2/2023 7:00:00 AM 10.46 50.828 0.941 7.82 6.61 9.4
3/2/2023 7:15:00 AM 10.46 50.828 0.934 7.82 5.7 9.43
3/2/2023 7:30:00 AM 10.46 50.828 0.927 7.83 5.96 9.47
3/2/2023 7:45:00 AM 10.46 50.828 0.919 7.83 6.08 9.52
3/2/2023 8:00:00 AM 10.46 50.828 0.912 7.84 5.42 9.58
3/2/2023 8:15:00 AM 10.47 50.846 0.906 7.84 5.64 9.65
3/2/2023 8:30:00 AM 10.49 50.882 0.902 7.85 5.74 9.75
3/2/2023 8:45:00 AM 10.51 50.918 0.898 7.85 5.4 9.89
3/2/2023 9:00:00 AM 10.54 50.972 0.896 7.86 5.43 10
3/2/2023 9:15:00 AM 10.58 51.044 0.894 7.87 5.39 10.11
3/2/2023 9:30:00 AM 10.62 51.116 0.893 7.88 5.22 10.24
3/2/2023 9:45:00 AM 10.67 51.206 0.892 7.89 5.08 10.37
3/2/2023 10:00:00 AM 10.72 51.296 0.891 7.91 5.06 10.56
3/2/2023 10:15:00 AM 10.8 51.44 0.891 7.93 4.99 10.85
3/2/2023 10:30:00 AM 10.9 51.62 0.891 7.96 5.53 11.18
3/2/2023 10:45:00 AM 11.03 51.854 0.891 7.99 5.21 11.52
3/2/2023 11:00:00 AM 11.2 52.16 0.89 8.02 5.24 11.88
3/2/2023 11:15:00 AM 11.29 52.322 0.89 8.03 5.68 11.98
3/2/2023 11:30:00 AM 11.41 52.538 0.891 8.05 6.96 12.1
3/2/2023 11:45:00 AM 11.57 52.826 0.894 8.08 5.61 12.45
3/2/2023 12:00:00 PM 11.69 53.042 0.9 8.1 5.14 12.66
3/2/2023 12:15:00 PM 11.84 53.312 0.909 8.12 5.17 12.85
3/2/2023 12:30:00 PM 11.98 53.564 0.92 8.15 5.03 13.05
3/2/2023 12:45:00 PM 12.1 53.78 0.931 8.17 4.63 13.18
3/2/2023 1:00:00 PM 12.21 53.978 0.943 8.19 4.71 13.27
3/2/2023 1:15:00 PM 12.32 54.176 0.955 8.2 4.74 13.34
3/2/2023 1:30:00 PM 12.43 54.374 0.966 8.2 5.05 13.41
3/2/2023 1:45:00 PM 12.51 54.518 0.974 8.21 4.82 13.48
3/2/2023 2:00:00 PM 12.58 54.644 0.977 8.23 4.89 13.54
3/2/2023 2:15:00 PM 12.65 54.77 0.978 8.24 4.99 13.59
3/2/2023 2:30:00 PM 12.72 54.896 0.98 8.25 5.14 13.62
3/2/2023 2:45:00 PM 12.78 55.004 0.983 8.26 5.01 13.65
3/2/2023 3:00:00 PM 12.83 55.094 0.987 8.26 5.09 13.6
3/2/2023 3:15:00 PM 12.89 55.202 0.99 8.27 5.19 13.55
3/2/2023 3:30:00 PM 12.94 55.292 0.992 8.27 5.22 13.48
3/2/2023 3:45:00 PM 12.96 55.328 0.994 8.26 5.33 13.33
3/2/2023 4:00:00 PM 12.98 55.364 0.999 8.25 5.08 13.15
3/2/2023 4:15:00 PM 12.99 55.382 1.007 8.24 5.05 13
3/2/2023 4:30:00 PM 13 55.4 1.016 8.23 5.27 12.84
3/2/2023 4:45:00 PM 13.01 55.418 1.024 8.22 4.9 12.65
3/2/2023 5:00:00 PM 13 55.4 1.027 8.2 5.13 12.46
3/2/2023 5:15:00 PM 12.97 55.346 1.026 8.19 5.22 12.23
3/2/2023 5:30:00 PM 12.94 55.292 1.023 8.17 5.06 11.99
3/2/2023 5:45:00 PM 12.9 55.22 1.022 8.14 5.11 11.73
3/2/2023 6:00:00 PM 12.85 55.13 1.026 8.12 5.3 11.47
3/2/2023 6:15:00 PM 12.8 55.04 1.033 8.1 5.57 11.24
3/2/2023 6:30:00 PM 12.73 54.914 1.041 8.07 5.72 11.03
3/2/2023 6:45:00 PM 12.66 54.788 1.045 8.05 6.12 10.85
3/2/2023 7:00:00 PM 12.58 54.644 1.044 8.04 6.75 10.69
3/2/2023 7:15:00 PM 12.49 54.482 1.039 8.02 6.12 10.55
3/2/2023 7:30:00 PM 12.4 54.32 1.032 8.01 5.7 10.42
3/2/2023 7:45:00 PM 12.3 54.14 1.025 8 5.57 10.3
3/2/2023 8:00:00 PM 12.21 53.978 1.017 7.98 5.67 10.2
3/2/2023 8:15:00 PM 12.11 53.798 1.011 7.97 5.31 10.11
3/2/2023 8:30:00 PM 12 53.6 1.008 7.96 5.38 10.01
3/2/2023 8:45:00 PM 11.91 53.438 1.008 7.95 5.28 9.93
3/2/2023 9:00:00 PM 11.81 53.258 1.009 7.94 5.27 9.85
3/2/2023 9:15:00 PM 11.73 53.114 1.011 7.92 5.38 9.78
3/2/2023 9:30:00 PM 11.64 52.952 1.012 7.92 5.11 9.71
3/2/2023 9:45:00 PM 11.57 52.826 1.011 7.9 5.07 9.64
3/2/2023 10:00:00 PM 11.49 52.682 1.008 7.9 5.36 9.58
3/2/2023 10:15:00 PM 11.42 52.556 1.003 7.89 5.09 9.52
3/2/2023 10:30:00 PM 11.34 52.412 0.998 7.88 5.14 9.47
3/2/2023 10:45:00 PM 11.26 52.268 0.994 7.86 5.34 9.42
3/2/2023 11:00:00 PM 11.18 52.124 0.992 7.86 5.3 9.38
3/2/2023 11:15:00 PM 11.09 51.962 0.993 7.85 5.09 9.34
3/2/2023 11:30:00 PM 11.01 51.818 0.994 7.85 5.01 9.31
3/2/2023 11:45:00 PM 10.94 51.692 0.998 7.84 5.24 9.27
3/3/2023 12:00:00 AM 10.86 51.548 1.003 7.83 5.23 9.25
3/3/2023 12:15:00 AM 10.79 51.422 1.009 7.83 5.17 9.23
3/3/2023 12:30:00 AM 10.72 51.296 1.016 7.81 5.21 9.21
3/3/2023 12:45:00 AM 10.65 51.17 1.023 7.79 5.21 9.19
3/3/2023 1:00:00 AM 10.59 51.062 1.028 7.79 5.19 9.18
3/3/2023 1:15:00 AM 10.52 50.936 1.032 7.79 5.11 9.16
3/3/2023 1:30:00 AM 10.45 50.81 1.035 7.78 5.08 9.17
3/3/2023 1:45:00 AM 10.38 50.684 1.037 7.78 5.1 9.17
3/3/2023 2:00:00 AM 10.32 50.576 1.04 7.78 5.01 9.17
3/3/2023 2:15:00 AM 10.26 50.468 1.042 7.78 5.06 9.17
3/3/2023 2:30:00 AM 10.2 50.36 1.043 7.77 5.33 9.18
3/3/2023 2:45:00 AM 10.14 50.252 1.042 7.78 5.51 9.18
3/3/2023 3:00:00 AM 10.09 50.162 1.04 7.78 5.65 9.2
3/3/2023 3:15:00 AM 10.04 50.072 1.037 7.78 5.85 9.21
3/3/2023 3:30:00 AM 9.98 49.964 1.034 7.78 5.87 9.24
3/3/2023 3:45:00 AM 9.94 49.892 1.031 7.78 5.88 9.26
3/3/2023 4:00:00 AM 9.89 49.802 1.028 7.78 6.52 9.28
3/3/2023 4:15:00 AM 9.84 49.712 1.025 7.79 6.56 9.3
3/3/2023 4:30:00 AM 9.79 49.622 1.022 7.79 6.61 9.32
3/3/2023 4:45:00 AM 9.74 49.532 1.017 7.79 6.34 9.35
3/3/2023 5:00:00 AM 9.69 49.442 1.011 7.79 5.83 9.37
3/3/2023 5:15:00 AM 9.63 49.334 1.005 7.79 5.78 9.4
3/3/2023 5:30:00 AM 9.56 49.208 0.997 7.79 5.68 9.44
3/3/2023 5:45:00 AM 9.49 49.082 0.99 7.79 5.92 9.47
3/3/2023 6:00:00 AM 9.43 48.974 0.983 7.8 6.25 9.51
3/3/2023 6:15:00 AM 9.36 48.848 0.975 7.8 6.78 9.54
3/3/2023 6:30:00 AM 9.3 48.74 0.968 7.8 6.51 9.58
3/3/2023 6:45:00 AM 9.24 48.632 0.959 7.8 6.5 9.65
3/3/2023 7:00:00 AM 9.19 48.542 0.951 7.81 6.81 9.74
3/3/2023 7:15:00 AM 9.15 48.47 0.944 7.81 6.43 9.85
3/3/2023 7:30:00 AM 9.11 48.398 0.937 7.83 6.14 10
3/3/2023 7:45:00 AM 9.1 48.38 0.931 7.84 6.4 10.19
3/3/2023 8:00:00 AM 9.1 48.38 0.927 7.86 6.91 10.39
3/3/2023 8:15:00 AM 9.11 48.398 0.923 7.88 5.98 10.61
3/3/2023 8:30:00 AM 9.13 48.434 0.92 7.89 6.43 10.81
3/3/2023 8:45:00 AM 9.18 48.524 0.917 7.91 5.6 11.04
3/3/2023 9:00:00 AM 9.24 48.632 0.916 7.93 5.48 11.28
3/3/2023 9:15:00 AM 9.33 48.794 0.916 7.96 5.37 11.61
3/3/2023 9:30:00 AM 9.41 48.938 0.918 7.98 5.45 11.88
3/3/2023 9:45:00 AM 9.49 49.082 0.92 7.99 5.54 12
3/3/2023 10:00:00 AM 9.56 49.208 0.922 8 5.62 12.13
3/3/2023 10:15:00 AM 9.63 49.334 0.922 8.02 5.18 12.3
3/3/2023 10:30:00 AM 9.71 49.478 0.921 8.04 5.21 12.53
3/3/2023 10:45:00 AM 9.78 49.604 0.918 8.06 5.32 12.74
3/3/2023 11:00:00 AM 9.85 49.73 0.913 8.08 6.17 12.88
3/3/2023 11:15:00 AM 9.89 49.802 0.908 8.09 5.53 12.95
3/3/2023 11:30:00 AM 9.93 49.874 0.904 8.1 5.37 13.03
3/3/2023 11:45:00 AM 9.98 49.964 0.902 8.11 5.3 13.11
3/3/2023 12:00:00 PM 10.04 50.072 0.903 8.13 5.52 13.25
3/3/2023 12:15:00 PM 10.1 50.18 0.907 8.14 5.46 13.34
3/3/2023 12:30:00 PM 10.17 50.306 0.915 8.15 5.69 13.41
3/3/2023 12:45:00 PM 10.24 50.432 0.925 8.16 6.27 13.46
3/3/2023 1:00:00 PM 10.31 50.558 0.938 8.18 5.1 13.48
3/3/2023 1:15:00 PM 10.35 50.63 0.951 8.17 5.12 13.36
3/3/2023 1:30:00 PM 10.39 50.702 0.963 8.16 4.77 13.2
3/3/2023 1:45:00 PM 10.43 50.774 0.974 8.15 5.13 13.05
3/3/2023 2:00:00 PM 10.46 50.828 0.983 8.15 5.21 12.92
3/3/2023 2:15:00 PM 10.47 50.846 0.99 8.14 5.46 12.78
3/3/2023 2:30:00 PM 10.5 50.9 0.995 8.14 5.36 12.65
3/3/2023 2:45:00 PM 10.51 50.918 0.998 8.14 5.12 12.54
3/3/2023 3:00:00 PM 10.51 50.918 1 8.13 5.7 12.42
3/3/2023 3:15:00 PM 10.5 50.9 1 8.12 5.46 12.32
3/3/2023 3:30:00 PM 10.51 50.918 1.001 8.11 5.24 12.19
3/3/2023 3:45:00 PM 10.5 50.9 1 8.1 4.96 12.01
3/3/2023 4:00:00 PM 10.47 50.846 1 8.09 5.23 11.84
3/3/2023 4:15:00 PM 10.45 50.81 0.999 8.07 5.32 11.7
3/3/2023 4:30:00 PM 10.43 50.774 0.999 8.06 5.38 11.59
3/3/2023 4:45:00 PM 10.42 50.756 0.999 8.05 5.38 11.48
3/3/2023 5:00:00 PM 10.41 50.738 0.998 8.04 5.57 11.37
3/3/2023 5:15:00 PM 10.37 50.666 0.997 8.03 5.49 11.24
3/3/2023 5:30:00 PM 10.35 50.63 0.999 8.02 5.47 11.11
3/3/2023 5:45:00 PM 10.31 50.558 1.003 8.01 5.37 10.96
3/3/2023 6:00:00 PM 10.28 50.504 1.009 7.99 5.4 10.82
3/3/2023 6:15:00 PM 10.24 50.432 1.018 7.98 5.24 10.68
3/3/2023 6:30:00 PM 10.2 50.36 1.028 7.96 5.78 10.55
3/3/2023 6:45:00 PM 10.16 50.288 1.035 7.95 5.76 10.43
3/3/2023 7:00:00 PM 10.13 50.234 1.038 7.94 5.93 10.33
3/3/2023 7:15:00 PM 10.09 50.162 1.037 7.92 5.58 10.25
3/3/2023 7:30:00 PM 10.04 50.072 1.035 7.92 5.7 10.18
3/3/2023 7:45:00 PM 10 50 1.035 7.91 5.96 10.11
3/3/2023 8:00:00 PM 9.96 49.928 1.038 7.9 6.16 10.05
3/3/2023 8:15:00 PM 9.9 49.82 1.037 7.89 6.69 10.02
3/3/2023 8:30:00 PM 9.86 49.748 1.033 7.88 7.33 9.97
3/3/2023 8:45:00 PM 9.81 49.658 1.024 7.88 7.12 9.94
3/3/2023 9:00:00 PM 9.78 49.604 1.016 7.87 6.96 9.9
3/3/2023 9:15:00 PM 9.74 49.532 1.009 7.86 7.06 9.86
3/3/2023 9:30:00 PM 9.7 49.46 1.002 7.86 7.3 9.83
3/3/2023 9:45:00 PM 9.66 49.388 0.995 7.85 7.37 9.81
3/3/2023 10:00:00 PM 9.62 49.316 0.988 7.84 7.44 9.8
3/3/2023 10:15:00 PM 9.58 49.244 0.982 7.83 8.38 9.78
3/3/2023 10:30:00 PM 9.54 49.172 0.975 7.82 10.14 9.78
3/3/2023 10:45:00 PM 9.5 49.1 0.965 7.81 12.7 9.77
3/3/2023 11:00:00 PM 9.43 48.974 0.948 7.8 17.08 9.82
3/3/2023 11:15:00 PM 9.32 48.776 0.923 7.8 20.91 9.88
3/3/2023 11:30:00 PM 9.21 48.578 0.9 7.77 27.55 9.97
3/3/2023 11:45:00 PM 9 48.2 0.853 7.74 40.16 10.08
3/4/2023 12:00:00 AM 8.93 48.074 0.838 7.7 40.55 10.09
3/4/2023 12:15:00 AM 8.88 47.984 0.821 7.69 49.12 10.11
3/4/2023 12:30:00 AM 8.82 47.876 0.79 7.67 67.85 10.13
3/4/2023 12:45:00 AM 8.78 47.804 0.756 7.67 97.19 10.19
3/4/2023 1:00:00 AM 8.72 47.696 0.717 7.64 133.29 10.27
3/4/2023 1:15:00 AM 8.55 47.39 0.652 7.61 164.51 10.43
3/4/2023 1:30:00 AM 8.28 46.904 0.552 7.57 170.62 10.67
3/4/2023 1:45:00 AM 7.85 46.13 0.435 7.52 172.63 10.94
3/4/2023 2:00:00 AM 7.45 45.41 0.359 7.46 172.75 11.14
3/4/2023 2:15:00 AM 7.18 44.924 0.317 7.41 157.3 11.29
3/4/2023 2:30:00 AM 7.02 44.636 0.298 7.44 128.52 11.37
3/4/2023 2:45:00 AM 6.95 44.51 0.291 7.4 119.93 11.4
3/4/2023 3:00:00 AM 6.92 44.456 0.293 7.42 119.03 11.39
3/4/2023 3:15:00 AM 6.92 44.456 0.301 7.46 116.59 11.37
3/4/2023 3:30:00 AM 6.93 44.474 0.309 7.47 115.86 11.33
3/4/2023 3:45:00 AM 6.95 44.51 0.315 7.47 112.83 11.28
3/4/2023 4:00:00 AM 6.98 44.564 0.321 7.49 106.66 11.24
3/4/2023 4:15:00 AM 7.02 44.636 0.329 7.5 99.3 11.18
3/4/2023 4:30:00 AM 7.08 44.744 0.34 7.51 94.7 11.12
3/4/2023 4:45:00 AM 7.14 44.852 0.351 7.51 89.33 11.07
3/4/2023 5:00:00 AM 7.2 44.96 0.361 7.52 83.15 11.02
3/4/2023 5:15:00 AM 7.27 45.086 0.374 7.52 75.71 10.97
3/4/2023 5:30:00 AM 7.35 45.23 0.391 7.52 68.75 10.91
3/4/2023 5:45:00 AM 7.45 45.41 0.41 7.53 66.41 10.84
3/4/2023 6:00:00 AM 7.57 45.626 0.429 7.53 56.29 10.79
3/4/2023 6:15:00 AM 7.69 45.842 0.449 7.55 52.75 10.73
3/4/2023 6:30:00 AM 7.82 46.076 0.47 7.57 49.5 10.66
3/4/2023 6:45:00 AM 7.96 46.328 0.492 7.58 48.85 10.6
3/4/2023 7:00:00 AM 8.1 46.58 0.513 7.59 40.86 10.54
3/4/2023 7:15:00 AM 8.23 46.814 0.53 7.6 39.38 10.51
3/4/2023 7:30:00 AM 8.34 47.012 0.541 7.61 36.69 10.5
3/4/2023 7:45:00 AM 8.43 47.174 0.549 7.62 35.49 10.51
3/4/2023 8:00:00 AM 8.49 47.282 0.554 7.63 28.6 10.5
3/4/2023 8:15:00 AM 8.53 47.354 0.556 7.64 31.58 10.51
3/4/2023 8:30:00 AM 8.57 47.426 0.557 7.65 30.05 10.55
3/4/2023 8:45:00 AM 8.59 47.462 0.56 7.65 29.16 10.56
3/4/2023 9:00:00 AM 8.62 47.516 0.565 7.66 28.64 10.58
3/4/2023 9:15:00 AM 8.65 47.57 0.571 7.66 28.11 10.59
3/4/2023 9:30:00 AM 8.71 47.678 0.578 7.67 26.82 10.65
3/4/2023 9:45:00 AM 8.77 47.786 0.587 7.68 26.86 10.71
3/4/2023 10:00:00 AM 8.84 47.912 0.598 7.69 24.45 10.74
3/4/2023 10:15:00 AM 8.92 48.056 0.609 7.7 24.05 10.78
3/4/2023 10:30:00 AM 9.01 48.218 0.62 7.71 23.24 10.82
3/4/2023 10:45:00 AM 9.09 48.362 0.63 7.72 22.85 10.83
3/4/2023 11:00:00 AM 9.19 48.542 0.643 7.73 21.15 10.91
3/4/2023 11:15:00 AM 9.29 48.722 0.66 7.75 19.19 10.95
3/4/2023 11:30:00 AM 9.41 48.938 0.678 7.76 17.76 10.98
3/4/2023 11:45:00 AM 9.51 49.118 0.693 7.77 17.18 11.03
3/4/2023 12:00:00 PM 9.59 49.262 0.703 7.77 16.14 11.05
3/4/2023 12:15:00 PM 9.66 49.388 0.708 7.79 15.79 11.09
3/4/2023 12:30:00 PM 9.79 49.622 0.712 7.81 15.44 11.26
3/4/2023 12:45:00 PM 10 50 0.717 7.83 14.46 11.51
3/4/2023 1:00:00 PM 10.21 50.378 0.722 7.85 13.85 11.62
3/4/2023 1:15:00 PM 10.27 50.486 0.728 7.85 12.84 11.48
3/4/2023 1:30:00 PM 10.3 50.54 0.732 7.85 12.6 11.41
3/4/2023 1:45:00 PM 10.33 50.594 0.736 7.85 12.78 11.41
3/4/2023 2:00:00 PM 10.35 50.63 0.74 7.86 12.45 11.46
3/4/2023 2:15:00 PM 10.37 50.666 0.746 7.87 11.86 11.5
3/4/2023 2:30:00 PM 10.41 50.738 0.749 7.88 11.27 11.54
3/4/2023 2:45:00 PM 10.45 50.81 0.751 7.88 10.96 11.6
3/4/2023 3:00:00 PM 10.47 50.846 0.753 7.89 11.06 11.64
3/4/2023 3:15:00 PM 10.48 50.864 0.756 7.88 10.81 11.52
3/4/2023 3:30:00 PM 10.53 50.954 0.758 7.89 10.39 11.52
3/4/2023 3:45:00 PM 10.57 51.026 0.76 7.89 10.02 11.6
3/4/2023 4:00:00 PM 10.57 51.026 0.762 7.89 10.51 11.51
3/4/2023 4:15:00 PM 10.6 51.08 0.765 7.89 9.9 11.5
3/4/2023 4:30:00 PM 10.61 51.098 0.768 7.89 9.81 11.46
3/4/2023 4:45:00 PM 10.6 51.08 0.771 7.88 9.65 11.36
3/4/2023 5:00:00 PM 10.59 51.062 0.774 7.87 9.49 11.26
3/4/2023 5:15:00 PM 10.57 51.026 0.777 7.87 8.99 11.17
3/4/2023 5:30:00 PM 10.55 50.99 0.779 7.87 9.41 11.1
3/4/2023 5:45:00 PM 10.54 50.972 0.781 7.86 8.98 11
3/4/2023 6:00:00 PM 10.51 50.918 0.784 7.85 8.71 10.92
3/4/2023 6:15:00 PM 10.47 50.846 0.788 7.85 9.12 10.83
3/4/2023 6:30:00 PM 10.43 50.774 0.791 7.84 8.81 10.76
3/4/2023 6:45:00 PM 10.4 50.72 0.794 7.83 9.23 10.71
3/4/2023 7:00:00 PM 10.37 50.666 0.796 7.83 9.78 10.65
3/4/2023 7:15:00 PM 10.32 50.576 0.798 7.83 9.34 10.6
3/4/2023 7:30:00 PM 10.28 50.504 0.801 7.82 9.48 10.54
3/4/2023 7:45:00 PM 10.23 50.414 0.803 7.81 9.37 10.48
3/4/2023 8:00:00 PM 10.18 50.324 0.805 7.81 9.1 10.43
3/4/2023 8:15:00 PM 10.13 50.234 0.806 7.81 9.3 10.39
3/4/2023 8:30:00 PM 10.08 50.144 0.808 7.8 8.91 10.34
3/4/2023 8:45:00 PM 10.03 50.054 0.81 7.79 9.09 10.29
3/4/2023 9:00:00 PM 9.98 49.964 0.811 7.78 8.64 10.25
3/4/2023 9:15:00 PM 9.92 49.856 0.812 7.78 8.21 10.2
3/4/2023 9:30:00 PM 9.86 49.748 0.813 7.77 8.47 10.18
3/4/2023 9:45:00 PM 9.8 49.64 0.814 7.77 8.36 10.15
3/4/2023 10:00:00 PM 9.74 49.532 0.814 7.77 8.62 10.14
3/4/2023 10:15:00 PM 9.68 49.424 0.813 7.76 8.01 10.13
3/4/2023 10:30:00 PM 9.62 49.316 0.813 7.76 8.26 10.12
3/4/2023 10:45:00 PM 9.57 49.226 0.813 7.76 7.99 10.12
3/4/2023 11:00:00 PM 9.52 49.136 0.813 7.75 8.01 10.12
3/4/2023 11:15:00 PM 9.47 49.046 0.813 7.75 7.87 10.12
3/4/2023 11:30:00 PM 9.42 48.956 0.813 7.75 8.14 10.12
3/4/2023 11:45:00 PM 9.37 48.866 0.812 7.75 7.71 10.13
3/5/2023 12:00:00 AM 9.33 48.794 0.811 7.74 8.13 10.13
3/5/2023 12:15:00 AM 9.28 48.704 0.808 7.74 7.92 10.15
3/5/2023 12:30:00 AM 9.23 48.614 0.807 7.74 7.63 10.16
3/5/2023 12:45:00 AM 9.18 48.524 0.805 7.74 7.87 10.17
3/5/2023 1:00:00 AM 9.14 48.452 0.805 7.74 8.1 10.18
3/5/2023 1:15:00 AM 9.1 48.38 0.803 7.74 8.16 10.2
3/5/2023 1:30:00 AM 9.05 48.29 0.802 7.75 7.91 10.21
3/5/2023 1:45:00 AM 9.01 48.218 0.8 7.75 7.62 10.22
3/5/2023 2:00:00 AM 8.97 48.146 0.798 7.75 7.34 10.24
3/5/2023 2:15:00 AM 8.94 48.092 0.796 7.75 7.56 10.25
3/5/2023 2:30:00 AM 8.91 48.038 0.795 7.75 8 10.27
3/5/2023 2:45:00 AM 8.88 47.984 0.792 7.74 7.97 10.27
3/5/2023 3:00:00 AM 8.85 47.93 0.79 7.74 8.04 10.29
3/5/2023 3:15:00 AM 8.81 47.858 0.786 7.75 7.63 10.31
3/5/2023 3:30:00 AM 8.77 47.786 0.782 7.75 7.49 10.33
3/5/2023 3:45:00 AM 8.73 47.714 0.779 7.75 7.47 10.35
3/5/2023 4:00:00 AM 8.7 47.66 0.776 7.75 7.84 10.37
3/5/2023 4:15:00 AM 8.66 47.588 0.774 7.75 8 10.37
3/5/2023 4:30:00 AM 8.63 47.534 0.771 7.75 8.9 10.39
3/5/2023 4:45:00 AM 8.59 47.462 0.768 7.74 8.18 10.42
3/5/2023 5:00:00 AM 8.56 47.408 0.766 7.74 8.54 10.43
3/5/2023 5:15:00 AM 8.52 47.336 0.763 7.74 7.98 10.45
3/5/2023 5:30:00 AM 8.49 47.282 0.76 7.74 8.29 10.46
3/5/2023 5:45:00 AM 8.46 47.228 0.757 7.74 9.24 10.48
3/5/2023 6:00:00 AM 8.43 47.174 0.755 7.75 8.78 10.5
3/5/2023 6:15:00 AM 8.4 47.12 0.753 7.75 8.31 10.51
3/5/2023 6:30:00 AM 8.37 47.066 0.752 7.75 8.47 10.53
3/5/2023 6:45:00 AM 8.35 47.03 0.751 7.75 7.5 10.56
3/5/2023 7:00:00 AM 8.33 46.994 0.751 7.76 7.88 10.6
3/5/2023 7:15:00 AM 8.31 46.958 0.751 7.76 7.51 10.66
3/5/2023 7:30:00 AM 8.31 46.958 0.75 7.77 7 10.76
3/5/2023 7:45:00 AM 8.32 46.976 0.75 7.78 6.82 10.86
3/5/2023 8:00:00 AM 8.35 47.03 0.749 7.79 6.45 11
3/5/2023 8:15:00 AM 8.37 47.066 0.748 7.79 6.19 11.06
3/5/2023 8:30:00 AM 8.42 47.156 0.746 7.81 5.92 11.17
3/5/2023 8:45:00 AM 8.47 47.246 0.745 7.82 6.34 11.29
3/5/2023 9:00:00 AM 8.55 47.39 0.743 7.83 6.07 11.45
3/5/2023 9:15:00 AM 8.66 47.588 0.741 7.84 6.27 11.58
3/5/2023 9:30:00 AM 8.78 47.804 0.74 7.86 6.82 11.73
3/5/2023 9:45:00 AM 8.92 48.056 0.739 7.87 6.61 11.85
3/5/2023 10:00:00 AM 9.08 48.344 0.737 7.89 6.15 11.98
3/5/2023 10:15:00 AM 9.25 48.65 0.736 7.9 6.21 12.08
3/5/2023 10:30:00 AM 9.43 48.974 0.735 7.92 7 12.17
3/5/2023 10:45:00 AM 9.62 49.316 0.736 7.93 6.76 12.28
3/5/2023 11:00:00 AM 9.81 49.658 0.738 7.95 6.19 12.36
3/5/2023 11:15:00 AM 10 50 0.741 7.96 6.15 12.43
3/5/2023 11:30:00 AM 10.24 50.432 0.745 7.98 6.57 12.52
3/5/2023 11:45:00 AM 10.46 50.828 0.749 7.99 6.19 12.58
3/5/2023 12:00:00 PM 10.66 51.188 0.754 8.01 6.5 12.63
3/5/2023 12:15:00 PM 10.92 51.656 0.759 8.02 6.97 12.71
3/5/2023 12:30:00 PM 11.14 52.052 0.765 8.02 6.54 12.76
3/5/2023 12:45:00 PM 11.4 52.52 0.77 8.04 5.78 12.85
3/5/2023 1:00:00 PM 11.67 53.006 0.775 8.05 5.65 12.89
3/5/2023 1:15:00 PM 11.82 53.276 0.779 8.05 6.49 12.76
3/5/2023 1:30:00 PM 11.9 53.42 0.782 8.04 6.14 12.59
3/5/2023 1:45:00 PM 12.04 53.672 0.786 8.04 6.14 12.61
3/5/2023 2:00:00 PM 12.18 53.924 0.788 8.06 6.42 12.67
3/5/2023 2:15:00 PM 12.31 54.158 0.79 8.06 5.96 12.65
3/5/2023 2:30:00 PM 12.4 54.32 0.792 8.06 6.23 12.58
3/5/2023 2:45:00 PM 12.5 54.5 0.795 8.05 6.25 12.52
3/5/2023 3:00:00 PM 12.55 54.59 0.797 8.05 5.77 12.38
3/5/2023 3:15:00 PM 12.52 54.536 0.799 8.03 5.92 12.15
3/5/2023 3:30:00 PM 12.54 54.572 0.8 8.02 6.19 12.04
3/5/2023 3:45:00 PM 12.56 54.608 0.8 8.02 5.93 11.97
3/5/2023 4:00:00 PM 12.56 54.608 0.801 8.02 6.41 11.86
3/5/2023 4:15:00 PM 12.54 54.572 0.802 8 6.46 11.74
3/5/2023 4:30:00 PM 12.52 54.536 0.802 7.99 6.08 11.58
3/5/2023 4:45:00 PM 12.49 54.482 0.803 7.98 5.91 11.42
3/5/2023 5:00:00 PM 12.44 54.392 0.805 7.97 5.94 11.26
3/5/2023 5:15:00 PM 12.37 54.266 0.806 7.95 6.84 11.09
3/5/2023 5:30:00 PM 12.3 54.14 0.808 7.94 6.63 10.96
3/5/2023 5:45:00 PM 12.24 54.032 0.81 7.93 6.09 10.85
3/5/2023 6:00:00 PM 12.19 53.942 0.812 7.92 6.42 10.73
3/5/2023 6:15:00 PM 12.13 53.834 0.815 7.91 6.55 10.62
3/5/2023 6:30:00 PM 12.06 53.708 0.817 7.9 6.92 10.52
3/5/2023 6:45:00 PM 11.99 53.582 0.82 7.89 7.15 10.45
3/5/2023 7:00:00 PM 11.91 53.438 0.822 7.88 6.77 10.39
3/5/2023 7:15:00 PM 11.83 53.294 0.824 7.87 7.02 10.35
3/5/2023 7:30:00 PM 11.75 53.15 0.827 7.86 8.23 10.3
3/5/2023 7:45:00 PM 11.66 52.988 0.83 7.85 7.05 10.25
3/5/2023 8:00:00 PM 11.56 52.808 0.833 7.85 7.13 10.19
3/5/2023 8:15:00 PM 11.46 52.628 0.835 7.84 7.76 10.14
3/5/2023 8:30:00 PM 11.36 52.448 0.838 7.83 7.15 10.09
3/5/2023 8:45:00 PM 11.26 52.268 0.841 7.82 6.96 10.05
3/5/2023 9:00:00 PM 11.16 52.088 0.843 7.82 6.88 10
3/5/2023 9:15:00 PM 11.06 51.908 0.845 7.81 6.92 9.96
3/5/2023 9:30:00 PM 10.96 51.728 0.847 7.8 6.62 9.94
3/5/2023 9:45:00 PM 10.86 51.548 0.848 7.8 6.8 9.91
3/5/2023 10:00:00 PM 10.76 51.368 0.849 7.79 6.84 9.89
3/5/2023 10:15:00 PM 10.67 51.206 0.851 7.78 6.57 9.88
3/5/2023 10:30:00 PM 10.58 51.044 0.852 7.78 6.69 9.87
3/5/2023 10:45:00 PM 10.5 50.9 0.852 7.78 6.56 9.87
3/5/2023 11:00:00 PM 10.41 50.738 0.852 7.77 6.78 9.88
3/5/2023 11:15:00 PM 10.33 50.594 0.852 7.77 6.86 9.89
3/5/2023 11:30:00 PM 10.25 50.45 0.854 7.76 6.82 9.89
3/5/2023 11:45:00 PM 10.17 50.306 0.855 7.76 6.86 9.9
3/6/2023 12:00:00 AM 10.1 50.18 0.855 7.76 6.65 9.91
3/6/2023 12:15:00 AM 10.02 50.036 0.855 7.75 6.84 9.92
3/6/2023 12:30:00 AM 9.96 49.928 0.854 7.74 6.78 9.92
3/6/2023 12:45:00 AM 9.89 49.802 0.853 7.74 6.59 9.94
3/6/2023 1:00:00 AM 9.83 49.694 0.852 7.73 6.59 9.96
3/6/2023 1:15:00 AM 9.76 49.568 0.85 7.73 6.47 9.97
3/6/2023 1:30:00 AM 9.7 49.46 0.848 7.73 6.64 9.99
3/6/2023 1:45:00 AM 9.63 49.334 0.844 7.73 6.57 10
3/6/2023 2:00:00 AM 9.56 49.208 0.839 7.73 6.53 10.03
3/6/2023 2:15:00 AM 9.5 49.1 0.835 7.73 6.85 10.05
3/6/2023 2:30:00 AM 9.44 48.992 0.832 7.73 7.11 10.06
3/6/2023 2:45:00 AM 9.37 48.866 0.828 7.74 7.34 10.08
3/6/2023 3:00:00 AM 9.31 48.758 0.824 7.74 7.03 10.1
3/6/2023 3:15:00 AM 9.25 48.65 0.819 7.74 6.77 10.13
3/6/2023 3:30:00 AM 9.18 48.524 0.815 7.74 6.79 10.15
3/6/2023 3:45:00 AM 9.13 48.434 0.81 7.74 6.95 10.18
3/6/2023 4:00:00 AM 9.07 48.326 0.805 7.75 7.54 10.2
3/6/2023 4:15:00 AM 9.01 48.218 0.801 7.74 7.33 10.22
3/6/2023 4:30:00 AM 8.96 48.128 0.798 7.75 7.08 10.25
3/6/2023 4:45:00 AM 8.9 48.02 0.794 7.75 6.98 10.26
3/6/2023 5:00:00 AM 8.85 47.93 0.79 7.75 6.98 10.29
3/6/2023 5:15:00 AM 8.79 47.822 0.785 7.75 7.13 10.31
3/6/2023 5:30:00 AM 8.73 47.714 0.782 7.75 7.26 10.33
3/6/2023 5:45:00 AM 8.68 47.624 0.779 7.76 7.73 10.35
3/6/2023 6:00:00 AM 8.64 47.552 0.777 7.76 7.37 10.37
3/6/2023 6:15:00 AM 8.59 47.462 0.775 7.76 7.56 10.39
3/6/2023 6:30:00 AM 8.54 47.372 0.772 7.76 7.54 10.41
3/6/2023 6:45:00 AM 8.5 47.3 0.77 7.76 7.86 10.45
3/6/2023 7:00:00 AM 8.46 47.228 0.768 7.77 7.46 10.52
3/6/2023 7:15:00 AM 8.43 47.174 0.767 7.77 7.44 10.58
3/6/2023 7:30:00 AM 8.42 47.156 0.767 7.78 6.83 10.67
3/6/2023 7:45:00 AM 8.41 47.138 0.767 7.79 6.55 10.76
3/6/2023 8:00:00 AM 8.41 47.138 0.768 7.8 6.72 10.86
3/6/2023 8:15:00 AM 8.43 47.174 0.768 7.81 5.78 10.98
3/6/2023 8:30:00 AM 8.48 47.264 0.768 7.82 6.48 11.13
3/6/2023 8:45:00 AM 8.55 47.39 0.768 7.83 6.18 11.29
3/6/2023 9:00:00 AM 8.64 47.552 0.767 7.85 6.01 11.47
3/6/2023 9:15:00 AM 8.73 47.714 0.766 7.87 5.74 11.59
3/6/2023 9:30:00 AM 8.84 47.912 0.766 7.88 5.84 11.74
3/6/2023 9:45:00 AM 8.96 48.128 0.765 7.89 6.3 11.9
3/6/2023 10:00:00 AM 9.09 48.362 0.765 7.91 6.34 12.03
3/6/2023 10:15:00 AM 9.24 48.632 0.766 7.92 6.2 12.13
3/6/2023 10:30:00 AM 9.38 48.884 0.768 7.94 5.93 12.22
3/6/2023 10:45:00 AM 9.55 49.19 0.772 7.95 5.75 12.36
3/6/2023 11:00:00 AM 9.73 49.514 0.777 7.97 6.57 12.46
3/6/2023 11:15:00 AM 9.96 49.928 0.783 7.98 5.68 12.6
3/6/2023 11:30:00 AM 10.18 50.324 0.79 7.99 5.89 12.7
3/6/2023 11:45:00 AM 10.42 50.756 0.799 8 5.92 12.77
3/6/2023 12:00:00 PM 10.66 51.188 0.809 8.03 6.18 12.83
3/6/2023 12:15:00 PM 10.9 51.62 0.818 8.04 6.75 12.89
3/6/2023 12:30:00 PM 11.13 52.034 0.823 8.05 6.04 12.98
3/6/2023 12:45:00 PM 11.36 52.448 0.826 8.06 5.37 13.04
3/6/2023 1:00:00 PM 11.58 52.844 0.826 8.08 5.76 13.08
3/6/2023 1:15:00 PM 11.76 53.168 0.824 8.08 5.81 13.09
3/6/2023 1:30:00 PM 11.94 53.492 0.822 8.09 5.89 13.08
3/6/2023 1:45:00 PM 12.09 53.762 0.821 8.1 5.43 13.07
3/6/2023 2:00:00 PM 12.23 54.014 0.82 8.1 5.87 13.05
3/6/2023 2:15:00 PM 12.35 54.23 0.819 8.11 5.26 13.01
3/6/2023 2:30:00 PM 12.46 54.428 0.819 8.11 5.78 12.96
3/6/2023 2:45:00 PM 12.56 54.608 0.819 8.11 5.65 12.87
3/6/2023 3:00:00 PM 12.63 54.734 0.818 8.11 5.48 12.8
3/6/2023 3:15:00 PM 12.69 54.842 0.817 8.11 5.61 12.7
3/6/2023 3:30:00 PM 12.74 54.932 0.818 8.1 5.71 12.59
3/6/2023 3:45:00 PM 12.78 55.004 0.821 8.09 5.71 12.46
3/6/2023 4:00:00 PM 12.79 55.022 0.823 8.08 5.37 12.25
3/6/2023 4:15:00 PM 12.8 55.04 0.825 8.07 5.16 12.08
3/6/2023 4:30:00 PM 12.79 55.022 0.828 8.05 5.56 11.89
3/6/2023 4:45:00 PM 12.79 55.022 0.83 8.04 5.42 11.71
3/6/2023 5:00:00 PM 12.77 54.986 0.834 8.01 6.23 11.52
3/6/2023 5:15:00 PM 12.73 54.914 0.838 8 5.64 11.32
3/6/2023 5:30:00 PM 12.69 54.842 0.842 7.98 6.28 11.15
3/6/2023 5:45:00 PM 12.66 54.788 0.846 7.96 5.82 11
3/6/2023 6:00:00 PM 12.61 54.698 0.848 7.95 5.42 10.83
3/6/2023 6:15:00 PM 12.56 54.608 0.85 7.93 5.75 10.68
3/6/2023 6:30:00 PM 12.51 54.518 0.85 7.92 5.88 10.55
3/6/2023 6:45:00 PM 12.45 54.41 0.85 7.91 5.76 10.45
3/6/2023 7:00:00 PM 12.4 54.32 0.85 7.9 5.9 10.36
3/6/2023 7:15:00 PM 12.35 54.23 0.849 7.89 6.05 10.28
3/6/2023 7:30:00 PM 12.29 54.122 0.847 7.88 6.13 10.2
3/6/2023 7:45:00 PM 12.21 53.978 0.843 7.87 6.1 10.12
3/6/2023 8:00:00 PM 12.13 53.834 0.838 7.86 6.08 10.05
3/6/2023 8:15:00 PM 12.03 53.654 0.832 7.85 6.35 9.97
3/6/2023 8:30:00 PM 11.94 53.492 0.828 7.85 6.28 9.9
3/6/2023 8:45:00 PM 11.84 53.312 0.826 7.84 6.33 9.83
3/6/2023 9:00:00 PM 11.74 53.132 0.824 7.83 7.54 9.77
3/6/2023 9:15:00 PM 11.64 52.952 0.824 7.82 6.54 9.71
3/6/2023 9:30:00 PM 11.55 52.79 0.824 7.81 6.07 9.66
3/6/2023 9:45:00 PM 11.45 52.61 0.824 7.8 6.51 9.61
3/6/2023 10:00:00 PM 11.36 52.448 0.825 7.8 6.33 9.58
3/6/2023 10:15:00 PM 11.26 52.268 0.826 7.79 6.38 9.55
3/6/2023 10:30:00 PM 11.17 52.106 0.828 7.78 6.45 9.53
3/6/2023 10:45:00 PM 11.08 51.944 0.83 7.78 6.65 9.51
3/6/2023 11:00:00 PM 11 51.8 0.832 7.77 6.14 9.5
3/6/2023 11:15:00 PM 10.92 51.656 0.835 7.77 6.14 9.5
3/6/2023 11:30:00 PM 10.84 51.512 0.837 7.76 6.06 9.5
3/6/2023 11:45:00 PM 10.77 51.386 0.841 7.76 6.19 9.5
3/7/2023 12:00:00 AM 10.71 51.278 0.844 7.76 6.31 9.5
3/7/2023 12:15:00 AM 10.67 51.206 0.846 7.75 6.14 9.51
3/7/2023 12:30:00 AM 10.61 51.098 0.849 7.75 6.6 9.51
3/7/2023 12:45:00 AM 10.55 50.99 0.851 7.75 6.66 9.52
3/7/2023 1:00:00 AM 10.5 50.9 0.852 7.75 6.17 9.53
3/7/2023 1:15:00 AM 10.46 50.828 0.852 7.75 6.01 9.54
3/7/2023 1:30:00 AM 10.42 50.756 0.852 7.75 6.02 9.55
3/7/2023 1:45:00 AM 10.38 50.684 0.851 7.75 6.35 9.57
3/7/2023 2:00:00 AM 10.34 50.612 0.85 7.75 6.41 9.58
3/7/2023 2:15:00 AM 10.3 50.54 0.849 7.75 6.25 9.6
3/7/2023 2:30:00 AM 10.26 50.468 0.848 7.76 6.57 9.6
3/7/2023 2:45:00 AM 10.23 50.414 0.847 7.76 7.06 9.61
3/7/2023 3:00:00 AM 10.19 50.342 0.845 7.75 7.3 9.63
3/7/2023 3:15:00 AM 10.14 50.252 0.842 7.75 7.06 9.64
3/7/2023 3:30:00 AM 10.1 50.18 0.84 7.75 6.62 9.65
3/7/2023 3:45:00 AM 10.06 50.108 0.838 7.75 6.44 9.67
3/7/2023 4:00:00 AM 10.02 50.036 0.835 7.75 6.72 9.69
3/7/2023 4:15:00 AM 9.97 49.946 0.832 7.75 7.17 9.71
3/7/2023 4:30:00 AM 9.92 49.856 0.828 7.75 7.33 9.72
3/7/2023 4:45:00 AM 9.88 49.784 0.823 7.76 7.08 9.75
3/7/2023 5:00:00 AM 9.84 49.712 0.819 7.76 7.3 9.77
3/7/2023 5:15:00 AM 9.8 49.64 0.814 7.76 7.31 9.8
3/7/2023 5:30:00 AM 9.76 49.568 0.81 7.76 7.39 9.82
3/7/2023 5:45:00 AM 9.72 49.496 0.807 7.76 7.2 9.84
3/7/2023 6:00:00 AM 9.69 49.442 0.805 7.77 7.24 9.86
3/7/2023 6:15:00 AM 9.66 49.388 0.802 7.77 7.55 9.88
3/7/2023 6:30:00 AM 9.63 49.334 0.8 7.78 6.91 9.89
3/7/2023 6:45:00 AM 9.6 49.28 0.798 7.78 6.67 9.91
3/7/2023 7:00:00 AM 9.57 49.226 0.796 7.78 7.05 9.96
3/7/2023 7:15:00 AM 9.53 49.154 0.795 7.79 6.64 10.03
3/7/2023 7:30:00 AM 9.51 49.118 0.793 7.79 7.06 10.12
3/7/2023 7:45:00 AM 9.49 49.082 0.793 7.8 6.52 10.23
3/7/2023 8:00:00 AM 9.48 49.064 0.792 7.8 6.46 10.26
3/7/2023 8:15:00 AM 9.46 49.028 0.792 7.81 6.47 10.31
3/7/2023 8:30:00 AM 9.45 49.01 0.792 7.82 6.02 10.39
3/7/2023 8:45:00 AM 9.45 49.01 0.791 7.83 6.16 10.54
3/7/2023 9:00:00 AM 9.48 49.064 0.79 7.85 6.01 10.81
3/7/2023 9:15:00 AM 9.53 49.154 0.789 7.87 5.73 11.06
3/7/2023 9:30:00 AM 9.57 49.226 0.788 7.89 6.05 11.25
3/7/2023 9:45:00 AM 9.68 49.424 0.787 7.91 7.58 11.47
3/7/2023 10:00:00 AM 9.74 49.532 0.787 7.92 6.02 11.59
3/7/2023 10:15:00 AM 9.84 49.712 0.787 7.93 5.81 11.69
3/7/2023 10:30:00 AM 9.94 49.892 0.788 7.95 5.66 11.86
3/7/2023 10:45:00 AM 10.09 50.162 0.791 7.96 5.2 12.03
3/7/2023 11:00:00 AM 10.25 50.45 0.795 7.98 5.47 12.18
3/7/2023 11:15:00 AM 10.42 50.756 0.801 8 5.45 12.3
3/7/2023 11:30:00 AM 10.59 51.062 0.809 8.01 5.36 12.39
3/7/2023 11:45:00 AM 10.77 51.386 0.817 8.02 5.53 12.49
3/7/2023 12:00:00 PM 10.95 51.71 0.826 8.04 5.39 12.58
3/7/2023 12:15:00 PM 11.15 52.07 0.834 8.05 5.1 12.69
3/7/2023 12:30:00 PM 11.32 52.376 0.841 8.06 5.2 12.79
3/7/2023 12:45:00 PM 11.49 52.682 0.846 8.08 5.35 12.88
3/7/2023 1:00:00 PM 11.63 52.934 0.849 8.09 5.07 12.96
3/7/2023 1:15:00 PM 11.75 53.15 0.85 8.1 5.32 13
3/7/2023 1:30:00 PM 11.83 53.294 0.851 8.12 5.53 13.04
3/7/2023 1:45:00 PM 11.93 53.474 0.852 8.12 5.34 13.08
3/7/2023 2:00:00 PM 12.01 53.618 0.853 8.13 5.3 13.07
3/7/2023 2:15:00 PM 12.09 53.762 0.857 8.14 5.26 13.05
3/7/2023 2:30:00 PM 12.16 53.888 0.863 8.14 5.2 13.02
3/7/2023 2:45:00 PM 12.23 54.014 0.868 8.15 5.28 12.96
3/7/2023 3:00:00 PM 12.25 54.05 0.873 8.14 5.44 12.87
3/7/2023 3:15:00 PM 12.26 54.068 0.874 8.14 5.74 12.76
3/7/2023 3:30:00 PM 12.26 54.068 0.872 8.13 6.01 12.65
3/7/2023 3:45:00 PM 12.24 54.032 0.87 8.13 6.03 12.5
3/7/2023 4:00:00 PM 12.17 53.906 0.869 8.11 6.21 12.34
3/7/2023 4:15:00 PM 12.11 53.798 0.871 8.1 5.72 12.18
3/7/2023 4:30:00 PM 12.05 53.69 0.873 8.09 5.34 12.01
3/7/2023 4:45:00 PM 11.97 53.546 0.875 8.07 5.58 11.82
3/7/2023 5:00:00 PM 11.89 53.402 0.876 8.05 5.59 11.62
3/7/2023 5:15:00 PM 11.81 53.258 0.879 8.03 5.62 11.44
3/7/2023 5:30:00 PM 11.71 53.078 0.882 8.02 5.73 11.27
3/7/2023 5:45:00 PM 11.62 52.916 0.885 8 5.54 11.12
3/7/2023 6:00:00 PM 11.53 52.754 0.888 7.99 5.63 10.98
3/7/2023 6:15:00 PM 11.46 52.628 0.889 7.97 5.68 10.84
3/7/2023 6:30:00 PM 11.35 52.43 0.889 7.96 6.19 10.74
3/7/2023 6:45:00 PM 11.25 52.25 0.889 7.95 6.13 10.65
3/7/2023 7:00:00 PM 11.15 52.07 0.888 7.94 6.61 10.55
3/7/2023 7:15:00 PM 11.05 51.89 0.886 7.93 6.19 10.48
3/7/2023 7:30:00 PM 10.94 51.692 0.883 7.91 5.96 10.42
3/7/2023 7:45:00 PM 10.83 51.494 0.879 7.91 6.92 10.36
3/7/2023 8:00:00 PM 10.71 51.278 0.873 7.9 6.77 10.3
3/7/2023 8:15:00 PM 10.61 51.098 0.869 7.89 6.78 10.24
3/7/2023 8:30:00 PM 10.51 50.918 0.866 7.88 6.46 10.18
3/7/2023 8:45:00 PM 10.39 50.702 0.864 7.87 7.02 10.11
3/7/2023 9:00:00 PM 10.28 50.504 0.863 7.86 6.95 10.06
3/7/2023 9:15:00 PM 10.15 50.27 0.862 7.84 6.55 10.02
3/7/2023 9:30:00 PM 10.06 50.108 0.863 7.82 6.31 9.97
3/7/2023 9:45:00 PM 9.95 49.91 0.863 7.81 6.56 9.94
3/7/2023 10:00:00 PM 9.85 49.73 0.866 7.8 6.41 9.91
3/7/2023 10:15:00 PM 9.74 49.532 0.87 7.79 6.18 9.89
3/7/2023 10:30:00 PM 9.63 49.334 0.875 7.78 6.11 9.88
3/7/2023 10:45:00 PM 9.53 49.154 0.881 7.78 6.2 9.86
3/7/2023 11:00:00 PM 9.43 48.974 0.887 7.77 5.93 9.87
3/7/2023 11:15:00 PM 9.34 48.812 0.894 7.77 5.84 9.87
3/7/2023 11:30:00 PM 9.25 48.65 0.899 7.77 6.26 9.87
3/7/2023 11:45:00 PM 9.15 48.47 0.905 7.76 5.9 9.89
3/8/2023 12:00:00 AM 9.08 48.344 0.909 7.77 5.92 9.9
3/8/2023 12:15:00 AM 9 48.2 0.912 7.77 5.95 9.92
3/8/2023 12:30:00 AM 8.94 48.092 0.915 7.76 6.11 9.93
3/8/2023 12:45:00 AM 8.88 47.984 0.919 7.76 6.01 9.93
3/8/2023 1:00:00 AM 8.82 47.876 0.923 7.77 7.6 9.95
3/8/2023 1:15:00 AM 8.76 47.768 0.925 7.77 5.79 9.96
3/8/2023 1:30:00 AM 8.7 47.66 0.927 7.76 5.7 9.99
3/8/2023 1:45:00 AM 8.63 47.534 0.927 7.77 5.97 10.01
3/8/2023 2:00:00 AM 8.58 47.444 0.928 7.77 5.85 10.03
3/8/2023 2:15:00 AM 8.52 47.336 0.929 7.77 5.88 10.05
3/8/2023 2:30:00 AM 8.46 47.228 0.929 7.77 5.73 10.07
3/8/2023 2:45:00 AM 8.39 47.102 0.927 7.77 5.79 10.09
3/8/2023 3:00:00 AM 8.34 47.012 0.924 7.77 5.9 10.11
3/8/2023 3:15:00 AM 8.29 46.922 0.92 7.77 6.09 10.14
3/8/2023 3:30:00 AM 8.23 46.814 0.917 7.78 5.96 10.16
3/8/2023 3:45:00 AM 8.17 46.706 0.913 7.78 5.89 10.19
3/8/2023 4:00:00 AM 8.13 46.634 0.909 7.78 6.53 10.21
3/8/2023 4:15:00 AM 8.09 46.562 0.903 7.78 6.13 10.24
3/8/2023 4:30:00 AM 8.04 46.472 0.897 7.79 6.47 10.27
3/8/2023 4:45:00 AM 7.99 46.382 0.89 7.79 6.43 10.31
3/8/2023 5:00:00 AM 7.94 46.292 0.884 7.79 6.47 10.33
3/8/2023 5:15:00 AM 7.89 46.202 0.878 7.79 6.56 10.36
3/8/2023 5:30:00 AM 7.84 46.112 0.872 7.79 6.1 10.4
3/8/2023 5:45:00 AM 7.79 46.022 0.867 7.79 6.16 10.42
3/8/2023 6:00:00 AM 7.75 45.95 0.862 7.8 6.41 10.46
3/8/2023 6:15:00 AM 7.7 45.86 0.857 7.8 6.5 10.48
3/8/2023 6:30:00 AM 7.67 45.806 0.853 7.8 6.15 10.52
3/8/2023 6:45:00 AM 7.66 45.788 0.849 7.81 6.36 10.56
3/8/2023 7:00:00 AM 7.65 45.77 0.845 7.81 6.93 10.63
3/8/2023 7:15:00 AM 7.65 45.77 0.843 7.83 7.15 10.71
3/8/2023 7:30:00 AM 7.64 45.752 0.842 7.83 6.87 10.78
3/8/2023 7:45:00 AM 7.63 45.734 0.842 7.83 6.68 10.83
3/8/2023 8:00:00 AM 7.62 45.716 0.844 7.84 6.72 10.89
3/8/2023 8:15:00 AM 7.65 45.77 0.845 7.86 6.4 11.05
3/8/2023 8:30:00 AM 7.71 45.878 0.846 7.86 7.37 11.24
3/8/2023 8:45:00 AM 7.81 46.058 0.846 7.89 7.21 11.47
3/8/2023 9:00:00 AM 7.9 46.22 0.846 7.9 6.34 11.62
3/8/2023 9:15:00 AM 8.03 46.454 0.846 7.91 6.04 11.8
3/8/2023 9:30:00 AM 8.2 46.76 0.845 7.94 6.05 12.05
3/8/2023 9:45:00 AM 8.37 47.066 0.843 7.95 5.9 12.25
3/8/2023 10:00:00 AM 8.53 47.354 0.841 7.96 5.82 12.37
3/8/2023 10:15:00 AM 8.71 47.678 0.838 7.98 5.81 12.49
3/8/2023 10:30:00 AM 8.89 48.002 0.837 8 5.65 12.59
3/8/2023 10:45:00 AM 9.09 48.362 0.837 8.01 5.73 12.71
3/8/2023 11:00:00 AM 9.29 48.722 0.839 8.04 5.48 12.79
3/8/2023 11:15:00 AM 9.51 49.118 0.844 8.05 5.76 12.91
3/8/2023 11:30:00 AM 9.78 49.604 0.852 8.07 5.69 13.07
3/8/2023 11:45:00 AM 10.04 50.072 0.862 8.09 5.3 13.18
3/8/2023 12:00:00 PM 10.31 50.558 0.873 8.11 5.28 13.26
3/8/2023 12:15:00 PM 10.56 51.008 0.884 8.11 5.11 13.33
3/8/2023 12:30:00 PM 10.8 51.44 0.896 8.12 5.45 13.39
3/8/2023 12:45:00 PM 11.01 51.818 0.905 8.13 5.32 13.43
3/8/2023 1:00:00 PM 11.2 52.16 0.912 8.15 5.26 13.47
3/8/2023 1:15:00 PM 11.37 52.466 0.916 8.15 5.54 13.48
3/8/2023 1:30:00 PM 11.53 52.754 0.917 8.16 5.3 13.49
3/8/2023 1:45:00 PM 11.68 53.024 0.916 8.17 5.4 13.49
3/8/2023 2:00:00 PM 11.83 53.294 0.914 8.17 4.99 13.48
3/8/2023 2:15:00 PM 11.94 53.492 0.913 8.18 4.88 13.47
3/8/2023 2:30:00 PM 12.02 53.636 0.911 8.18 4.8 13.43
3/8/2023 2:45:00 PM 12.06 53.708 0.908 8.18 4.97 13.37
3/8/2023 3:00:00 PM 12.05 53.69 0.906 8.18 5.03 13.27
3/8/2023 3:15:00 PM 12.04 53.672 0.903 8.18 5.73 13.16
3/8/2023 3:30:00 PM 12.02 53.636 0.902 8.16 5.21 13.05
3/8/2023 3:45:00 PM 11.99 53.582 0.901 8.16 5.11 12.91
3/8/2023 4:00:00 PM 11.95 53.51 0.9 8.15 5.02 12.73
3/8/2023 4:15:00 PM 11.91 53.438 0.9 8.13 5.39 12.55
3/8/2023 4:30:00 PM 11.85 53.33 0.898 8.12 5.25 12.35
3/8/2023 4:45:00 PM 11.8 53.24 0.897 8.1 5.36 12.14
3/8/2023 5:00:00 PM 11.74 53.132 0.896 8.08 5.49 11.92
3/8/2023 5:15:00 PM 11.66 52.988 0.895 8.06 5.47 11.73
3/8/2023 5:30:00 PM 11.6 52.88 0.893 8.05 5.18 11.54
3/8/2023 5:45:00 PM 11.54 52.772 0.893 8.03 5.12 11.37
3/8/2023 6:00:00 PM 11.49 52.682 0.893 8.01 5.52 11.21
3/8/2023 6:15:00 PM 11.44 52.592 0.894 8 5.31 11.06
3/8/2023 6:30:00 PM 11.39 52.502 0.894 7.99 5.52 10.94
3/8/2023 6:45:00 PM 11.34 52.412 0.895 7.98 5.75 10.83
3/8/2023 7:00:00 PM 11.28 52.304 0.896 7.96 6.09 10.74
3/8/2023 7:15:00 PM 11.22 52.196 0.896 7.95 5.77 10.67
3/8/2023 7:30:00 PM 11.15 52.07 0.898 7.94 5.89 10.59

These are provisional data and have not been subject to a quality assurance process, but rather are the raw data reported by the instrument.
H: value is above sensor operating range
L: value is below sensor operating range
Offline: station is not reporting data
NC: parameter is not collected at site

Data Availability & Limitations

Uncertainty and potential for error can be associated with environmental monitoring data. Provisional data have not been subject to a quality assurance process, but rather are the raw data reported by the instrument. Data users are cautioned to consider carefully the provisional nature of the information before using it for decisions that concern personal or public safety or the conduct of business that involves substantial monetary or operational consequences.

Approved data are currently available by request by emailing: [email protected]. Approved data have been subject to a quality assurance process to correct for equipment or fouling drift. Data recorded during equipment malfunctions have been removed.

View Historical Stations that have been discontinued.